<?xml version="1.0" encoding="UTF-8" standalone="no" ?>
<gpx xmlns="http://www.topografix.com/GPX/1/1" xmlns:xsi="http://www.w3.org/2001/XMLSchema-instance" xsi:schemaLocation="http://www.topografix.com/GPX/1/1 http://www.topografix.com/GPX/1/1/gpx.xsd" version="1.1" creator="VisuGPX - https://www.visugpx.com">
  <metadata>
    <name>POTERIE 1------------</name>
  </metadata>
  <trk>
    <name><![CDATA[POTERIE 1------------]]></name>
    <trkseg>
      <trkpt lat="48.60629" lon="1.94992">
        <ele>14.56</ele>
        <time>2016-02-02T08:21:21Z</time>
      </trkpt>
      <trkpt lat="48.60628" lon="1.94996">
        <ele>14.56</ele>
        <time>2016-02-02T08:21:22Z</time>
      </trkpt>
      <trkpt lat="48.60653" lon="1.94985">
        <ele>14.08</ele>
        <time>2016-02-02T08:21:35Z</time>
      </trkpt>
      <trkpt lat="48.60658" lon="1.94984">
        <ele>14.56</ele>
        <time>2016-02-02T08:21:50Z</time>
      </trkpt>
      <trkpt lat="48.60658" lon="1.94984">
        <ele>17.44</ele>
        <time>2016-02-02T08:21:51Z</time>
      </trkpt>
      <trkpt lat="48.60657" lon="1.94984">
        <ele>23.69</ele>
        <time>2016-02-02T08:21:53Z</time>
      </trkpt>
      <trkpt lat="48.60657" lon="1.94984">
        <ele>28.98</ele>
        <time>2016-02-02T08:21:55Z</time>
      </trkpt>
      <trkpt lat="48.60658" lon="1.94984">
        <ele>34.26</ele>
        <time>2016-02-02T08:21:57Z</time>
      </trkpt>
      <trkpt lat="48.60658" lon="1.94984">
        <ele>38.59</ele>
        <time>2016-02-02T08:21:59Z</time>
      </trkpt>
      <trkpt lat="48.60657" lon="1.94984">
        <ele>43.4</ele>
        <time>2016-02-02T08:22:01Z</time>
      </trkpt>
      <trkpt lat="48.60657" lon="1.94985">
        <ele>47.72</ele>
        <time>2016-02-02T08:22:03Z</time>
      </trkpt>
      <trkpt lat="48.60657" lon="1.94985">
        <ele>51.57</ele>
        <time>2016-02-02T08:22:05Z</time>
      </trkpt>
      <trkpt lat="48.60658" lon="1.94985">
        <ele>55.41</ele>
        <time>2016-02-02T08:22:07Z</time>
      </trkpt>
      <trkpt lat="48.60658" lon="1.94984">
        <ele>61.18</ele>
        <time>2016-02-02T08:22:10Z</time>
      </trkpt>
      <trkpt lat="48.6066" lon="1.94982">
        <ele>64.55</ele>
        <time>2016-02-02T08:22:13Z</time>
      </trkpt>
      <trkpt lat="48.6066" lon="1.94981">
        <ele>67.91</ele>
        <time>2016-02-02T08:22:15Z</time>
      </trkpt>
      <trkpt lat="48.60662" lon="1.9498">
        <ele>73.2</ele>
        <time>2016-02-02T08:22:19Z</time>
      </trkpt>
      <trkpt lat="48.60666" lon="1.94983">
        <ele>77.04</ele>
        <time>2016-02-02T08:22:23Z</time>
      </trkpt>
      <trkpt lat="48.60667" lon="1.94991">
        <ele>80.41</ele>
        <time>2016-02-02T08:22:27Z</time>
      </trkpt>
      <trkpt lat="48.60667" lon="1.94998">
        <ele>83.77</ele>
        <time>2016-02-02T08:22:30Z</time>
      </trkpt>
      <trkpt lat="48.60666" lon="1.94998">
        <ele>86.66</ele>
        <time>2016-02-02T08:22:33Z</time>
      </trkpt>
      <trkpt lat="48.60667" lon="1.94998">
        <ele>86.66</ele>
        <time>2016-02-02T08:22:34Z</time>
      </trkpt>
      <trkpt lat="48.60667" lon="1.95">
        <ele>90.5</ele>
        <time>2016-02-02T08:22:38Z</time>
      </trkpt>
      <trkpt lat="48.60667" lon="1.95001">
        <ele>92.9</ele>
        <time>2016-02-02T08:22:42Z</time>
      </trkpt>
      <trkpt lat="48.60667" lon="1.95001">
        <ele>96.75</ele>
        <time>2016-02-02T08:22:46Z</time>
      </trkpt>
      <trkpt lat="48.60667" lon="1.95">
        <ele>98.19</ele>
        <time>2016-02-02T08:22:48Z</time>
      </trkpt>
      <trkpt lat="48.60666" lon="1.94997">
        <ele>102.04</ele>
        <time>2016-02-02T08:22:55Z</time>
      </trkpt>
      <trkpt lat="48.60665" lon="1.94994">
        <ele>104.92</ele>
        <time>2016-02-02T08:23:04Z</time>
      </trkpt>
      <trkpt lat="48.60665" lon="1.94995">
        <ele>106.84</ele>
        <time>2016-02-02T08:23:07Z</time>
      </trkpt>
      <trkpt lat="48.60665" lon="1.94995">
        <ele>107.81</ele>
        <time>2016-02-02T08:23:15Z</time>
      </trkpt>
      <trkpt lat="48.60662" lon="1.94994">
        <ele>109.25</ele>
        <time>2016-02-02T08:23:24Z</time>
      </trkpt>
      <trkpt lat="48.6066" lon="1.94994">
        <ele>110.69</ele>
        <time>2016-02-02T08:23:32Z</time>
      </trkpt>
      <trkpt lat="48.60659" lon="1.94998">
        <ele>113.09</ele>
        <time>2016-02-02T08:23:42Z</time>
      </trkpt>
      <trkpt lat="48.60656" lon="1.95008">
        <ele>114.53</ele>
        <time>2016-02-02T08:23:52Z</time>
      </trkpt>
      <trkpt lat="48.60654" lon="1.95018">
        <ele>115.01</ele>
        <time>2016-02-02T08:23:59Z</time>
      </trkpt>
      <trkpt lat="48.60649" lon="1.95026">
        <ele>115.5</ele>
        <time>2016-02-02T08:24:09Z</time>
      </trkpt>
      <trkpt lat="48.60647" lon="1.95031">
        <ele>115.01</ele>
        <time>2016-02-02T08:24:12Z</time>
      </trkpt>
      <trkpt lat="48.60639" lon="1.9505">
        <ele>115.01</ele>
        <time>2016-02-02T08:24:23Z</time>
      </trkpt>
      <trkpt lat="48.60634" lon="1.95056">
        <ele>114.53</ele>
        <time>2016-02-02T08:24:32Z</time>
      </trkpt>
      <trkpt lat="48.60626" lon="1.95075">
        <ele>115.5</ele>
        <time>2016-02-02T08:24:42Z</time>
      </trkpt>
      <trkpt lat="48.60625" lon="1.95083">
        <ele>115.01</ele>
        <time>2016-02-02T08:24:45Z</time>
      </trkpt>
      <trkpt lat="48.60621" lon="1.95091">
        <ele>115.5</ele>
        <time>2016-02-02T08:24:50Z</time>
      </trkpt>
      <trkpt lat="48.60611" lon="1.95107">
        <ele>115.98</ele>
        <time>2016-02-02T08:25:03Z</time>
      </trkpt>
      <trkpt lat="48.60606" lon="1.9512">
        <ele>115.5</ele>
        <time>2016-02-02T08:25:12Z</time>
      </trkpt>
      <trkpt lat="48.60599" lon="1.9514">
        <ele>115.01</ele>
        <time>2016-02-02T08:25:21Z</time>
      </trkpt>
      <trkpt lat="48.60597" lon="1.95143">
        <ele>115.01</ele>
        <time>2016-02-02T08:25:23Z</time>
      </trkpt>
      <trkpt lat="48.6059" lon="1.95165">
        <ele>114.53</ele>
        <time>2016-02-02T08:25:33Z</time>
      </trkpt>
      <trkpt lat="48.60581" lon="1.95183">
        <ele>115.01</ele>
        <time>2016-02-02T08:25:45Z</time>
      </trkpt>
      <trkpt lat="48.60574" lon="1.95203">
        <ele>114.53</ele>
        <time>2016-02-02T08:25:55Z</time>
      </trkpt>
      <trkpt lat="48.60563" lon="1.95223">
        <ele>114.05</ele>
        <time>2016-02-02T08:26:05Z</time>
      </trkpt>
      <trkpt lat="48.60556" lon="1.95234">
        <ele>113.57</ele>
        <time>2016-02-02T08:26:14Z</time>
      </trkpt>
      <trkpt lat="48.60549" lon="1.95247">
        <ele>114.05</ele>
        <time>2016-02-02T08:26:23Z</time>
      </trkpt>
      <trkpt lat="48.60542" lon="1.95264">
        <ele>114.05</ele>
        <time>2016-02-02T08:26:34Z</time>
      </trkpt>
      <trkpt lat="48.60534" lon="1.95279">
        <ele>114.05</ele>
        <time>2016-02-02T08:26:42Z</time>
      </trkpt>
      <trkpt lat="48.60529" lon="1.95297">
        <ele>114.05</ele>
        <time>2016-02-02T08:26:52Z</time>
      </trkpt>
      <trkpt lat="48.60521" lon="1.95317">
        <ele>113.57</ele>
        <time>2016-02-02T08:27:02Z</time>
      </trkpt>
      <trkpt lat="48.60515" lon="1.9533">
        <ele>113.09</ele>
        <time>2016-02-02T08:27:10Z</time>
      </trkpt>
      <trkpt lat="48.60507" lon="1.95344">
        <ele>113.09</ele>
        <time>2016-02-02T08:27:19Z</time>
      </trkpt>
      <trkpt lat="48.60499" lon="1.95358">
        <ele>113.57</ele>
        <time>2016-02-02T08:27:29Z</time>
      </trkpt>
      <trkpt lat="48.60495" lon="1.95372">
        <ele>114.05</ele>
        <time>2016-02-02T08:27:35Z</time>
      </trkpt>
      <trkpt lat="48.60483" lon="1.95389">
        <ele>113.57</ele>
        <time>2016-02-02T08:27:46Z</time>
      </trkpt>
      <trkpt lat="48.60477" lon="1.95409">
        <ele>114.05</ele>
        <time>2016-02-02T08:27:56Z</time>
      </trkpt>
      <trkpt lat="48.60469" lon="1.95426">
        <ele>113.09</ele>
        <time>2016-02-02T08:28:06Z</time>
      </trkpt>
      <trkpt lat="48.60462" lon="1.95443">
        <ele>112.61</ele>
        <time>2016-02-02T08:28:15Z</time>
      </trkpt>
      <trkpt lat="48.60454" lon="1.95457">
        <ele>112.61</ele>
        <time>2016-02-02T08:28:23Z</time>
      </trkpt>
      <trkpt lat="48.60447" lon="1.95471">
        <ele>112.61</ele>
        <time>2016-02-02T08:28:33Z</time>
      </trkpt>
      <trkpt lat="48.60438" lon="1.95482">
        <ele>112.61</ele>
        <time>2016-02-02T08:28:43Z</time>
      </trkpt>
      <trkpt lat="48.60431" lon="1.95496">
        <ele>112.61</ele>
        <time>2016-02-02T08:28:49Z</time>
      </trkpt>
      <trkpt lat="48.60424" lon="1.95505">
        <ele>112.13</ele>
        <time>2016-02-02T08:28:57Z</time>
      </trkpt>
      <trkpt lat="48.60419" lon="1.95519">
        <ele>112.13</ele>
        <time>2016-02-02T08:29:07Z</time>
      </trkpt>
      <trkpt lat="48.60415" lon="1.95533">
        <ele>111.65</ele>
        <time>2016-02-02T08:29:17Z</time>
      </trkpt>
      <trkpt lat="48.60405" lon="1.95555">
        <ele>110.69</ele>
        <time>2016-02-02T08:29:26Z</time>
      </trkpt>
      <trkpt lat="48.60395" lon="1.95574">
        <ele>111.17</ele>
        <time>2016-02-02T08:29:36Z</time>
      </trkpt>
      <trkpt lat="48.60389" lon="1.95589">
        <ele>110.21</ele>
        <time>2016-02-02T08:29:46Z</time>
      </trkpt>
      <trkpt lat="48.60384" lon="1.95608">
        <ele>110.69</ele>
        <time>2016-02-02T08:29:56Z</time>
      </trkpt>
      <trkpt lat="48.60388" lon="1.95619">
        <ele>110.21</ele>
        <time>2016-02-02T08:30:03Z</time>
      </trkpt>
      <trkpt lat="48.604" lon="1.95628">
        <ele>109.73</ele>
        <time>2016-02-02T08:30:14Z</time>
      </trkpt>
      <trkpt lat="48.60413" lon="1.9564">
        <ele>109.73</ele>
        <time>2016-02-02T08:30:26Z</time>
      </trkpt>
      <trkpt lat="48.60419" lon="1.95648">
        <ele>109.73</ele>
        <time>2016-02-02T08:30:34Z</time>
      </trkpt>
      <trkpt lat="48.60425" lon="1.95655">
        <ele>109.25</ele>
        <time>2016-02-02T08:30:39Z</time>
      </trkpt>
      <trkpt lat="48.60432" lon="1.95672">
        <ele>108.77</ele>
        <time>2016-02-02T08:30:51Z</time>
      </trkpt>
      <trkpt lat="48.6045" lon="1.95686">
        <ele>108.77</ele>
        <time>2016-02-02T08:31:02Z</time>
      </trkpt>
      <trkpt lat="48.60467" lon="1.95696">
        <ele>108.77</ele>
        <time>2016-02-02T08:31:11Z</time>
      </trkpt>
      <trkpt lat="48.6048" lon="1.95711">
        <ele>108.29</ele>
        <time>2016-02-02T08:31:22Z</time>
      </trkpt>
      <trkpt lat="48.60491" lon="1.95724">
        <ele>108.77</ele>
        <time>2016-02-02T08:31:31Z</time>
      </trkpt>
      <trkpt lat="48.60501" lon="1.95737">
        <ele>108.29</ele>
        <time>2016-02-02T08:31:41Z</time>
      </trkpt>
      <trkpt lat="48.60512" lon="1.95751">
        <ele>108.77</ele>
        <time>2016-02-02T08:31:51Z</time>
      </trkpt>
      <trkpt lat="48.60525" lon="1.95766">
        <ele>107.81</ele>
        <time>2016-02-02T08:32:02Z</time>
      </trkpt>
      <trkpt lat="48.60535" lon="1.95779">
        <ele>106.36</ele>
        <time>2016-02-02T08:32:11Z</time>
      </trkpt>
      <trkpt lat="48.60545" lon="1.95792">
        <ele>105.4</ele>
        <time>2016-02-02T08:32:22Z</time>
      </trkpt>
      <trkpt lat="48.60552" lon="1.95807">
        <ele>105.88</ele>
        <time>2016-02-02T08:32:32Z</time>
      </trkpt>
      <trkpt lat="48.60566" lon="1.95815">
        <ele>106.36</ele>
        <time>2016-02-02T08:32:42Z</time>
      </trkpt>
      <trkpt lat="48.60576" lon="1.9583">
        <ele>105.88</ele>
        <time>2016-02-02T08:32:54Z</time>
      </trkpt>
      <trkpt lat="48.60588" lon="1.95843">
        <ele>105.88</ele>
        <time>2016-02-02T08:33:05Z</time>
      </trkpt>
      <trkpt lat="48.60605" lon="1.95856">
        <ele>105.88</ele>
        <time>2016-02-02T08:33:17Z</time>
      </trkpt>
      <trkpt lat="48.60613" lon="1.95871">
        <ele>105.88</ele>
        <time>2016-02-02T08:33:28Z</time>
      </trkpt>
      <trkpt lat="48.60629" lon="1.95886">
        <ele>105.88</ele>
        <time>2016-02-02T08:33:39Z</time>
      </trkpt>
      <trkpt lat="48.60644" lon="1.95899">
        <ele>104.92</ele>
        <time>2016-02-02T08:33:49Z</time>
      </trkpt>
      <trkpt lat="48.60657" lon="1.95913">
        <ele>104.44</ele>
        <time>2016-02-02T08:33:58Z</time>
      </trkpt>
      <trkpt lat="48.60669" lon="1.95925">
        <ele>104.92</ele>
        <time>2016-02-02T08:34:08Z</time>
      </trkpt>
      <trkpt lat="48.60679" lon="1.95934">
        <ele>103.96</ele>
        <time>2016-02-02T08:34:19Z</time>
      </trkpt>
      <trkpt lat="48.60684" lon="1.95942">
        <ele>104.44</ele>
        <time>2016-02-02T08:34:28Z</time>
      </trkpt>
      <trkpt lat="48.60696" lon="1.9596">
        <ele>105.4</ele>
        <time>2016-02-02T08:34:39Z</time>
      </trkpt>
      <trkpt lat="48.60703" lon="1.95969">
        <ele>104.44</ele>
        <time>2016-02-02T08:34:47Z</time>
      </trkpt>
      <trkpt lat="48.60712" lon="1.95988">
        <ele>106.36</ele>
        <time>2016-02-02T08:34:58Z</time>
      </trkpt>
      <trkpt lat="48.60725" lon="1.96001">
        <ele>105.4</ele>
        <time>2016-02-02T08:35:09Z</time>
      </trkpt>
      <trkpt lat="48.60729" lon="1.96018">
        <ele>107.32</ele>
        <time>2016-02-02T08:35:18Z</time>
      </trkpt>
      <trkpt lat="48.60729" lon="1.96038">
        <ele>108.29</ele>
        <time>2016-02-02T08:35:28Z</time>
      </trkpt>
      <trkpt lat="48.60729" lon="1.96051">
        <ele>108.77</ele>
        <time>2016-02-02T08:35:35Z</time>
      </trkpt>
      <trkpt lat="48.60727" lon="1.96066">
        <ele>109.25</ele>
        <time>2016-02-02T08:35:43Z</time>
      </trkpt>
      <trkpt lat="48.60726" lon="1.96086">
        <ele>110.21</ele>
        <time>2016-02-02T08:35:53Z</time>
      </trkpt>
      <trkpt lat="48.60726" lon="1.96097">
        <ele>110.69</ele>
        <time>2016-02-02T08:35:58Z</time>
      </trkpt>
      <trkpt lat="48.60724" lon="1.96116">
        <ele>110.69</ele>
        <time>2016-02-02T08:36:07Z</time>
      </trkpt>
      <trkpt lat="48.60723" lon="1.96118">
        <ele>111.17</ele>
        <time>2016-02-02T08:36:08Z</time>
      </trkpt>
      <trkpt lat="48.60714" lon="1.9613">
        <ele>112.61</ele>
        <time>2016-02-02T08:36:16Z</time>
      </trkpt>
      <trkpt lat="48.60709" lon="1.96139">
        <ele>113.57</ele>
        <time>2016-02-02T08:36:23Z</time>
      </trkpt>
      <trkpt lat="48.60705" lon="1.96147">
        <ele>114.53</ele>
        <time>2016-02-02T08:36:28Z</time>
      </trkpt>
      <trkpt lat="48.60703" lon="1.96152">
        <ele>114.05</ele>
        <time>2016-02-02T08:36:31Z</time>
      </trkpt>
      <trkpt lat="48.60697" lon="1.96162">
        <ele>115.01</ele>
        <time>2016-02-02T08:36:39Z</time>
      </trkpt>
      <trkpt lat="48.60694" lon="1.96169">
        <ele>115.98</ele>
        <time>2016-02-02T08:36:46Z</time>
      </trkpt>
      <trkpt lat="48.60691" lon="1.96175">
        <ele>115.98</ele>
        <time>2016-02-02T08:36:51Z</time>
      </trkpt>
      <trkpt lat="48.60688" lon="1.96182">
        <ele>116.94</ele>
        <time>2016-02-02T08:36:57Z</time>
      </trkpt>
      <trkpt lat="48.60682" lon="1.96196">
        <ele>119.34</ele>
        <time>2016-02-02T08:37:06Z</time>
      </trkpt>
      <trkpt lat="48.60677" lon="1.96205">
        <ele>120.3</ele>
        <time>2016-02-02T08:37:12Z</time>
      </trkpt>
      <trkpt lat="48.60672" lon="1.96216">
        <ele>119.82</ele>
        <time>2016-02-02T08:37:19Z</time>
      </trkpt>
      <trkpt lat="48.60666" lon="1.96232">
        <ele>120.3</ele>
        <time>2016-02-02T08:37:28Z</time>
      </trkpt>
      <trkpt lat="48.60659" lon="1.96248">
        <ele>120.78</ele>
        <time>2016-02-02T08:37:38Z</time>
      </trkpt>
      <trkpt lat="48.60653" lon="1.96267">
        <ele>120.78</ele>
        <time>2016-02-02T08:37:48Z</time>
      </trkpt>
      <trkpt lat="48.60646" lon="1.96283">
        <ele>121.26</ele>
        <time>2016-02-02T08:37:58Z</time>
      </trkpt>
      <trkpt lat="48.60642" lon="1.96296">
        <ele>120.78</ele>
        <time>2016-02-02T08:38:06Z</time>
      </trkpt>
      <trkpt lat="48.60634" lon="1.9631">
        <ele>122.22</ele>
        <time>2016-02-02T08:38:14Z</time>
      </trkpt>
      <trkpt lat="48.60622" lon="1.96331">
        <ele>122.71</ele>
        <time>2016-02-02T08:38:25Z</time>
      </trkpt>
      <trkpt lat="48.60617" lon="1.9635">
        <ele>122.71</ele>
        <time>2016-02-02T08:38:36Z</time>
      </trkpt>
      <trkpt lat="48.6061" lon="1.96368">
        <ele>123.19</ele>
        <time>2016-02-02T08:38:47Z</time>
      </trkpt>
      <trkpt lat="48.60608" lon="1.9638">
        <ele>123.19</ele>
        <time>2016-02-02T08:38:55Z</time>
      </trkpt>
      <trkpt lat="48.60599" lon="1.96401">
        <ele>123.67</ele>
        <time>2016-02-02T08:39:05Z</time>
      </trkpt>
      <trkpt lat="48.60598" lon="1.96404">
        <ele>124.15</ele>
        <time>2016-02-02T08:39:07Z</time>
      </trkpt>
      <trkpt lat="48.60591" lon="1.96411">
        <ele>125.11</ele>
        <time>2016-02-02T08:39:13Z</time>
      </trkpt>
      <trkpt lat="48.60585" lon="1.96421">
        <ele>128.47</ele>
        <time>2016-02-02T08:39:22Z</time>
      </trkpt>
      <trkpt lat="48.60584" lon="1.96422">
        <ele>127.51</ele>
        <time>2016-02-02T08:39:23Z</time>
      </trkpt>
      <trkpt lat="48.6058" lon="1.96436">
        <ele>127.99</ele>
        <time>2016-02-02T08:39:32Z</time>
      </trkpt>
      <trkpt lat="48.60578" lon="1.96441">
        <ele>129.92</ele>
        <time>2016-02-02T08:39:35Z</time>
      </trkpt>
      <trkpt lat="48.60575" lon="1.96445">
        <ele>130.88</ele>
        <time>2016-02-02T08:39:41Z</time>
      </trkpt>
      <trkpt lat="48.60571" lon="1.96458">
        <ele>131.84</ele>
        <time>2016-02-02T08:39:49Z</time>
      </trkpt>
      <trkpt lat="48.60563" lon="1.96475">
        <ele>132.8</ele>
        <time>2016-02-02T08:39:56Z</time>
      </trkpt>
      <trkpt lat="48.60554" lon="1.96492">
        <ele>132.8</ele>
        <time>2016-02-02T08:40:04Z</time>
      </trkpt>
      <trkpt lat="48.60548" lon="1.96503">
        <ele>132.8</ele>
        <time>2016-02-02T08:40:09Z</time>
      </trkpt>
      <trkpt lat="48.6054" lon="1.96524">
        <ele>132.32</ele>
        <time>2016-02-02T08:40:21Z</time>
      </trkpt>
      <trkpt lat="48.60531" lon="1.96542">
        <ele>132.8</ele>
        <time>2016-02-02T08:40:32Z</time>
      </trkpt>
      <trkpt lat="48.60523" lon="1.96555">
        <ele>133.76</ele>
        <time>2016-02-02T08:40:40Z</time>
      </trkpt>
      <trkpt lat="48.60515" lon="1.96576">
        <ele>133.76</ele>
        <time>2016-02-02T08:40:51Z</time>
      </trkpt>
      <trkpt lat="48.60514" lon="1.96579">
        <ele>134.24</ele>
        <time>2016-02-02T08:40:59Z</time>
      </trkpt>
      <trkpt lat="48.6051" lon="1.96579">
        <ele>133.76</ele>
        <time>2016-02-02T08:41:12Z</time>
      </trkpt>
      <trkpt lat="48.60509" lon="1.96575">
        <ele>133.76</ele>
        <time>2016-02-02T08:41:26Z</time>
      </trkpt>
      <trkpt lat="48.60508" lon="1.96574">
        <ele>133.28</ele>
        <time>2016-02-02T08:41:41Z</time>
      </trkpt>
      <trkpt lat="48.60507" lon="1.96573">
        <ele>133.76</ele>
        <time>2016-02-02T08:41:51Z</time>
      </trkpt>
      <trkpt lat="48.60505" lon="1.96574">
        <ele>134.24</ele>
        <time>2016-02-02T08:41:59Z</time>
      </trkpt>
      <trkpt lat="48.60504" lon="1.96575">
        <ele>133.76</ele>
        <time>2016-02-02T08:42:13Z</time>
      </trkpt>
      <trkpt lat="48.60504" lon="1.96574">
        <ele>133.76</ele>
        <time>2016-02-02T08:42:25Z</time>
      </trkpt>
      <trkpt lat="48.60503" lon="1.96573">
        <ele>132.8</ele>
        <time>2016-02-02T08:42:39Z</time>
      </trkpt>
      <trkpt lat="48.60508" lon="1.96578">
        <ele>133.28</ele>
        <time>2016-02-02T08:42:48Z</time>
      </trkpt>
      <trkpt lat="48.60517" lon="1.96586">
        <ele>131.84</ele>
        <time>2016-02-02T08:42:57Z</time>
      </trkpt>
      <trkpt lat="48.60533" lon="1.96602">
        <ele>130.88</ele>
        <time>2016-02-02T08:43:08Z</time>
      </trkpt>
      <trkpt lat="48.60541" lon="1.96599">
        <ele>128.95</ele>
        <time>2016-02-02T08:43:18Z</time>
      </trkpt>
      <trkpt lat="48.60546" lon="1.96604">
        <ele>127.51</ele>
        <time>2016-02-02T08:43:28Z</time>
      </trkpt>
      <trkpt lat="48.60557" lon="1.96613">
        <ele>125.11</ele>
        <time>2016-02-02T08:43:38Z</time>
      </trkpt>
      <trkpt lat="48.60561" lon="1.96617">
        <ele>124.15</ele>
        <time>2016-02-02T08:43:43Z</time>
      </trkpt>
      <trkpt lat="48.60571" lon="1.96636">
        <ele>121.74</ele>
        <time>2016-02-02T08:43:54Z</time>
      </trkpt>
      <trkpt lat="48.60585" lon="1.96643">
        <ele>120.3</ele>
        <time>2016-02-02T08:44:04Z</time>
      </trkpt>
      <trkpt lat="48.60595" lon="1.96656">
        <ele>118.38</ele>
        <time>2016-02-02T08:44:15Z</time>
      </trkpt>
      <trkpt lat="48.60598" lon="1.96657">
        <ele>118.38</ele>
        <time>2016-02-02T08:44:16Z</time>
      </trkpt>
      <trkpt lat="48.60616" lon="1.96669">
        <ele>116.94</ele>
        <time>2016-02-02T08:44:28Z</time>
      </trkpt>
      <trkpt lat="48.60625" lon="1.9668">
        <ele>116.46</ele>
        <time>2016-02-02T08:44:37Z</time>
      </trkpt>
      <trkpt lat="48.60633" lon="1.96694">
        <ele>115.5</ele>
        <time>2016-02-02T08:44:47Z</time>
      </trkpt>
      <trkpt lat="48.60641" lon="1.96713">
        <ele>115.01</ele>
        <time>2016-02-02T08:44:57Z</time>
      </trkpt>
      <trkpt lat="48.60649" lon="1.96723">
        <ele>114.53</ele>
        <time>2016-02-02T08:45:07Z</time>
      </trkpt>
      <trkpt lat="48.60668" lon="1.96729">
        <ele>113.57</ele>
        <time>2016-02-02T08:45:18Z</time>
      </trkpt>
      <trkpt lat="48.60676" lon="1.96738">
        <ele>113.09</ele>
        <time>2016-02-02T08:45:27Z</time>
      </trkpt>
      <trkpt lat="48.60678" lon="1.96743">
        <ele>112.13</ele>
        <time>2016-02-02T08:45:31Z</time>
      </trkpt>
      <trkpt lat="48.60683" lon="1.96748">
        <ele>112.61</ele>
        <time>2016-02-02T08:45:35Z</time>
      </trkpt>
      <trkpt lat="48.60696" lon="1.96761">
        <ele>112.13</ele>
        <time>2016-02-02T08:45:44Z</time>
      </trkpt>
      <trkpt lat="48.60704" lon="1.96769">
        <ele>111.17</ele>
        <time>2016-02-02T08:45:51Z</time>
      </trkpt>
      <trkpt lat="48.60719" lon="1.96778">
        <ele>110.69</ele>
        <time>2016-02-02T08:46:00Z</time>
      </trkpt>
      <trkpt lat="48.60723" lon="1.96781">
        <ele>110.69</ele>
        <time>2016-02-02T08:46:03Z</time>
      </trkpt>
      <trkpt lat="48.60723" lon="1.96799">
        <ele>110.21</ele>
        <time>2016-02-02T08:46:12Z</time>
      </trkpt>
      <trkpt lat="48.60714" lon="1.96826">
        <ele>110.21</ele>
        <time>2016-02-02T08:46:21Z</time>
      </trkpt>
      <trkpt lat="48.60708" lon="1.96841">
        <ele>109.73</ele>
        <time>2016-02-02T08:46:29Z</time>
      </trkpt>
      <trkpt lat="48.60704" lon="1.96864">
        <ele>109.73</ele>
        <time>2016-02-02T08:46:40Z</time>
      </trkpt>
      <trkpt lat="48.60703" lon="1.96882">
        <ele>110.21</ele>
        <time>2016-02-02T08:46:47Z</time>
      </trkpt>
      <trkpt lat="48.60697" lon="1.96906">
        <ele>109.73</ele>
        <time>2016-02-02T08:46:57Z</time>
      </trkpt>
      <trkpt lat="48.60693" lon="1.96917">
        <ele>110.21</ele>
        <time>2016-02-02T08:47:04Z</time>
      </trkpt>
      <trkpt lat="48.60688" lon="1.96932">
        <ele>110.69</ele>
        <time>2016-02-02T08:47:12Z</time>
      </trkpt>
      <trkpt lat="48.60681" lon="1.96954">
        <ele>109.73</ele>
        <time>2016-02-02T08:47:21Z</time>
      </trkpt>
      <trkpt lat="48.60674" lon="1.9697">
        <ele>110.69</ele>
        <time>2016-02-02T08:47:30Z</time>
      </trkpt>
      <trkpt lat="48.60671" lon="1.9698">
        <ele>111.17</ele>
        <time>2016-02-02T08:47:38Z</time>
      </trkpt>
      <trkpt lat="48.60671" lon="1.96995">
        <ele>110.69</ele>
        <time>2016-02-02T08:47:48Z</time>
      </trkpt>
      <trkpt lat="48.60668" lon="1.97016">
        <ele>110.69</ele>
        <time>2016-02-02T08:47:58Z</time>
      </trkpt>
      <trkpt lat="48.60668" lon="1.97037">
        <ele>110.21</ele>
        <time>2016-02-02T08:48:07Z</time>
      </trkpt>
      <trkpt lat="48.60669" lon="1.97045">
        <ele>109.73</ele>
        <time>2016-02-02T08:48:12Z</time>
      </trkpt>
      <trkpt lat="48.60676" lon="1.97066">
        <ele>109.25</ele>
        <time>2016-02-02T08:48:23Z</time>
      </trkpt>
      <trkpt lat="48.60688" lon="1.97078">
        <ele>108.29</ele>
        <time>2016-02-02T08:48:33Z</time>
      </trkpt>
      <trkpt lat="48.60691" lon="1.9708">
        <ele>107.81</ele>
        <time>2016-02-02T08:48:35Z</time>
      </trkpt>
      <trkpt lat="48.60701" lon="1.97089">
        <ele>107.32</ele>
        <time>2016-02-02T08:48:45Z</time>
      </trkpt>
      <trkpt lat="48.60713" lon="1.97107">
        <ele>106.36</ele>
        <time>2016-02-02T08:48:55Z</time>
      </trkpt>
      <trkpt lat="48.60719" lon="1.97128">
        <ele>105.88</ele>
        <time>2016-02-02T08:49:06Z</time>
      </trkpt>
      <trkpt lat="48.60719" lon="1.9714">
        <ele>104.92</ele>
        <time>2016-02-02T08:49:13Z</time>
      </trkpt>
      <trkpt lat="48.60721" lon="1.9716">
        <ele>104.44</ele>
        <time>2016-02-02T08:49:21Z</time>
      </trkpt>
      <trkpt lat="48.60722" lon="1.97178">
        <ele>104.44</ele>
        <time>2016-02-02T08:49:30Z</time>
      </trkpt>
      <trkpt lat="48.6072" lon="1.97189">
        <ele>104.92</ele>
        <time>2016-02-02T08:49:37Z</time>
      </trkpt>
      <trkpt lat="48.60713" lon="1.97212">
        <ele>103.96</ele>
        <time>2016-02-02T08:49:47Z</time>
      </trkpt>
      <trkpt lat="48.60709" lon="1.97228">
        <ele>103.96</ele>
        <time>2016-02-02T08:49:56Z</time>
      </trkpt>
      <trkpt lat="48.60708" lon="1.97238">
        <ele>103</ele>
        <time>2016-02-02T08:50:05Z</time>
      </trkpt>
      <trkpt lat="48.60709" lon="1.9726">
        <ele>103.48</ele>
        <time>2016-02-02T08:50:11Z</time>
      </trkpt>
      <trkpt lat="48.60711" lon="1.97279">
        <ele>103.48</ele>
        <time>2016-02-02T08:50:20Z</time>
      </trkpt>
      <trkpt lat="48.60717" lon="1.97299">
        <ele>102.52</ele>
        <time>2016-02-02T08:50:31Z</time>
      </trkpt>
      <trkpt lat="48.60721" lon="1.97319">
        <ele>102.52</ele>
        <time>2016-02-02T08:50:40Z</time>
      </trkpt>
      <trkpt lat="48.60724" lon="1.97335">
        <ele>101.56</ele>
        <time>2016-02-02T08:50:49Z</time>
      </trkpt>
      <trkpt lat="48.60729" lon="1.97356">
        <ele>102.52</ele>
        <time>2016-02-02T08:50:59Z</time>
      </trkpt>
      <trkpt lat="48.60732" lon="1.97376">
        <ele>102.04</ele>
        <time>2016-02-02T08:51:09Z</time>
      </trkpt>
      <trkpt lat="48.60734" lon="1.97401">
        <ele>101.56</ele>
        <time>2016-02-02T08:51:19Z</time>
      </trkpt>
      <trkpt lat="48.60745" lon="1.97412">
        <ele>101.08</ele>
        <time>2016-02-02T08:51:29Z</time>
      </trkpt>
      <trkpt lat="48.60751" lon="1.97427">
        <ele>100.6</ele>
        <time>2016-02-02T08:51:38Z</time>
      </trkpt>
      <trkpt lat="48.60762" lon="1.97435">
        <ele>100.11</ele>
        <time>2016-02-02T08:51:47Z</time>
      </trkpt>
      <trkpt lat="48.60763" lon="1.97438">
        <ele>100.11</ele>
        <time>2016-02-02T08:51:49Z</time>
      </trkpt>
      <trkpt lat="48.60773" lon="1.97446">
        <ele>99.63</ele>
        <time>2016-02-02T08:51:59Z</time>
      </trkpt>
      <trkpt lat="48.60787" lon="1.97444">
        <ele>99.63</ele>
        <time>2016-02-02T08:52:09Z</time>
      </trkpt>
      <trkpt lat="48.60792" lon="1.97444">
        <ele>98.67</ele>
        <time>2016-02-02T08:52:18Z</time>
      </trkpt>
      <trkpt lat="48.6079" lon="1.97445">
        <ele>98.67</ele>
        <time>2016-02-02T08:52:23Z</time>
      </trkpt>
      <trkpt lat="48.6079" lon="1.97445">
        <ele>98.67</ele>
        <time>2016-02-02T08:52:36Z</time>
      </trkpt>
      <trkpt lat="48.6079" lon="1.97448">
        <ele>98.19</ele>
        <time>2016-02-02T08:52:44Z</time>
      </trkpt>
      <trkpt lat="48.60789" lon="1.97456">
        <ele>98.67</ele>
        <time>2016-02-02T08:52:51Z</time>
      </trkpt>
      <trkpt lat="48.60793" lon="1.97475">
        <ele>98.67</ele>
        <time>2016-02-02T08:53:00Z</time>
      </trkpt>
      <trkpt lat="48.60804" lon="1.9749">
        <ele>97.71</ele>
        <time>2016-02-02T08:53:09Z</time>
      </trkpt>
      <trkpt lat="48.60807" lon="1.97504">
        <ele>97.71</ele>
        <time>2016-02-02T08:53:18Z</time>
      </trkpt>
      <trkpt lat="48.60812" lon="1.97522">
        <ele>97.23</ele>
        <time>2016-02-02T08:53:29Z</time>
      </trkpt>
      <trkpt lat="48.60823" lon="1.97541">
        <ele>97.23</ele>
        <time>2016-02-02T08:53:40Z</time>
      </trkpt>
      <trkpt lat="48.60828" lon="1.97559">
        <ele>97.23</ele>
        <time>2016-02-02T08:53:49Z</time>
      </trkpt>
      <trkpt lat="48.60835" lon="1.97577">
        <ele>96.75</ele>
        <time>2016-02-02T08:54:00Z</time>
      </trkpt>
      <trkpt lat="48.60836" lon="1.97607">
        <ele>96.27</ele>
        <time>2016-02-02T08:54:11Z</time>
      </trkpt>
      <trkpt lat="48.60838" lon="1.97615">
        <ele>97.23</ele>
        <time>2016-02-02T08:54:21Z</time>
      </trkpt>
      <trkpt lat="48.60851" lon="1.97631">
        <ele>96.75</ele>
        <time>2016-02-02T08:54:32Z</time>
      </trkpt>
      <trkpt lat="48.60851" lon="1.97656">
        <ele>96.75</ele>
        <time>2016-02-02T08:54:42Z</time>
      </trkpt>
      <trkpt lat="48.60851" lon="1.97676">
        <ele>95.79</ele>
        <time>2016-02-02T08:54:53Z</time>
      </trkpt>
      <trkpt lat="48.6085" lon="1.97697">
        <ele>95.31</ele>
        <time>2016-02-02T08:55:01Z</time>
      </trkpt>
      <trkpt lat="48.60848" lon="1.97718">
        <ele>95.79</ele>
        <time>2016-02-02T08:55:11Z</time>
      </trkpt>
      <trkpt lat="48.60845" lon="1.97739">
        <ele>95.31</ele>
        <time>2016-02-02T08:55:21Z</time>
      </trkpt>
      <trkpt lat="48.60839" lon="1.97761">
        <ele>94.83</ele>
        <time>2016-02-02T08:55:29Z</time>
      </trkpt>
      <trkpt lat="48.60839" lon="1.97771">
        <ele>94.35</ele>
        <time>2016-02-02T08:55:38Z</time>
      </trkpt>
      <trkpt lat="48.60838" lon="1.978">
        <ele>94.83</ele>
        <time>2016-02-02T08:55:49Z</time>
      </trkpt>
      <trkpt lat="48.60839" lon="1.97814">
        <ele>94.35</ele>
        <time>2016-02-02T08:55:58Z</time>
      </trkpt>
      <trkpt lat="48.60839" lon="1.97828">
        <ele>94.35</ele>
        <time>2016-02-02T08:56:05Z</time>
      </trkpt>
      <trkpt lat="48.60837" lon="1.97848">
        <ele>94.35</ele>
        <time>2016-02-02T08:56:16Z</time>
      </trkpt>
      <trkpt lat="48.60837" lon="1.97867">
        <ele>94.83</ele>
        <time>2016-02-02T08:56:27Z</time>
      </trkpt>
      <trkpt lat="48.60835" lon="1.9789">
        <ele>94.35</ele>
        <time>2016-02-02T08:56:38Z</time>
      </trkpt>
      <trkpt lat="48.60826" lon="1.97919">
        <ele>95.31</ele>
        <time>2016-02-02T08:56:49Z</time>
      </trkpt>
      <trkpt lat="48.60826" lon="1.97939">
        <ele>95.79</ele>
        <time>2016-02-02T08:57:00Z</time>
      </trkpt>
      <trkpt lat="48.60824" lon="1.9795">
        <ele>96.27</ele>
        <time>2016-02-02T08:57:09Z</time>
      </trkpt>
      <trkpt lat="48.60814" lon="1.97965">
        <ele>96.27</ele>
        <time>2016-02-02T08:57:15Z</time>
      </trkpt>
      <trkpt lat="48.60812" lon="1.97966">
        <ele>95.79</ele>
        <time>2016-02-02T08:57:16Z</time>
      </trkpt>
      <trkpt lat="48.60797" lon="1.97968">
        <ele>95.79</ele>
        <time>2016-02-02T08:57:25Z</time>
      </trkpt>
      <trkpt lat="48.60786" lon="1.9796">
        <ele>97.71</ele>
        <time>2016-02-02T08:57:35Z</time>
      </trkpt>
      <trkpt lat="48.60778" lon="1.97953">
        <ele>97.23</ele>
        <time>2016-02-02T08:57:43Z</time>
      </trkpt>
      <trkpt lat="48.60772" lon="1.97949">
        <ele>97.23</ele>
        <time>2016-02-02T08:57:52Z</time>
      </trkpt>
      <trkpt lat="48.60768" lon="1.97945">
        <ele>98.19</ele>
        <time>2016-02-02T08:57:56Z</time>
      </trkpt>
      <trkpt lat="48.60763" lon="1.97941">
        <ele>97.23</ele>
        <time>2016-02-02T08:58:00Z</time>
      </trkpt>
      <trkpt lat="48.60752" lon="1.97933">
        <ele>98.19</ele>
        <time>2016-02-02T08:58:09Z</time>
      </trkpt>
      <trkpt lat="48.60743" lon="1.97926">
        <ele>98.19</ele>
        <time>2016-02-02T08:58:18Z</time>
      </trkpt>
      <trkpt lat="48.60742" lon="1.97925">
        <ele>97.71</ele>
        <time>2016-02-02T08:58:19Z</time>
      </trkpt>
      <trkpt lat="48.60735" lon="1.97918">
        <ele>99.15</ele>
        <time>2016-02-02T08:58:27Z</time>
      </trkpt>
      <trkpt lat="48.60726" lon="1.97911">
        <ele>99.15</ele>
        <time>2016-02-02T08:58:36Z</time>
      </trkpt>
      <trkpt lat="48.6072" lon="1.979">
        <ele>99.15</ele>
        <time>2016-02-02T08:58:44Z</time>
      </trkpt>
      <trkpt lat="48.60718" lon="1.97897">
        <ele>98.19</ele>
        <time>2016-02-02T08:58:46Z</time>
      </trkpt>
      <trkpt lat="48.60709" lon="1.97885">
        <ele>98.19</ele>
        <time>2016-02-02T08:58:54Z</time>
      </trkpt>
      <trkpt lat="48.60703" lon="1.97876">
        <ele>98.19</ele>
        <time>2016-02-02T08:59:02Z</time>
      </trkpt>
      <trkpt lat="48.6069" lon="1.97867">
        <ele>99.15</ele>
        <time>2016-02-02T08:59:11Z</time>
      </trkpt>
      <trkpt lat="48.6068" lon="1.97857">
        <ele>99.15</ele>
        <time>2016-02-02T08:59:19Z</time>
      </trkpt>
      <trkpt lat="48.60671" lon="1.97846">
        <ele>98.19</ele>
        <time>2016-02-02T08:59:27Z</time>
      </trkpt>
      <trkpt lat="48.60659" lon="1.97836">
        <ele>99.15</ele>
        <time>2016-02-02T08:59:36Z</time>
      </trkpt>
      <trkpt lat="48.60649" lon="1.97828">
        <ele>100.11</ele>
        <time>2016-02-02T08:59:44Z</time>
      </trkpt>
      <trkpt lat="48.60645" lon="1.97825">
        <ele>99.15</ele>
        <time>2016-02-02T08:59:47Z</time>
      </trkpt>
      <trkpt lat="48.60635" lon="1.97813">
        <ele>100.11</ele>
        <time>2016-02-02T08:59:57Z</time>
      </trkpt>
      <trkpt lat="48.60634" lon="1.97807">
        <ele>99.63</ele>
        <time>2016-02-02T09:00:00Z</time>
      </trkpt>
      <trkpt lat="48.6062" lon="1.97795">
        <ele>100.6</ele>
        <time>2016-02-02T09:00:10Z</time>
      </trkpt>
      <trkpt lat="48.6061" lon="1.97786">
        <ele>100.11</ele>
        <time>2016-02-02T09:00:19Z</time>
      </trkpt>
      <trkpt lat="48.60606" lon="1.97782">
        <ele>101.08</ele>
        <time>2016-02-02T09:00:23Z</time>
      </trkpt>
      <trkpt lat="48.60596" lon="1.97772">
        <ele>101.08</ele>
        <time>2016-02-02T09:00:31Z</time>
      </trkpt>
      <trkpt lat="48.60589" lon="1.97764">
        <ele>101.08</ele>
        <time>2016-02-02T09:00:37Z</time>
      </trkpt>
      <trkpt lat="48.60581" lon="1.97758">
        <ele>103</ele>
        <time>2016-02-02T09:00:43Z</time>
      </trkpt>
      <trkpt lat="48.60574" lon="1.97749">
        <ele>102.52</ele>
        <time>2016-02-02T09:00:50Z</time>
      </trkpt>
      <trkpt lat="48.60566" lon="1.97741">
        <ele>102.52</ele>
        <time>2016-02-02T09:00:57Z</time>
      </trkpt>
      <trkpt lat="48.60557" lon="1.97733">
        <ele>102.52</ele>
        <time>2016-02-02T09:01:05Z</time>
      </trkpt>
      <trkpt lat="48.60546" lon="1.97724">
        <ele>102.52</ele>
        <time>2016-02-02T09:01:13Z</time>
      </trkpt>
      <trkpt lat="48.60541" lon="1.97719">
        <ele>103</ele>
        <time>2016-02-02T09:01:19Z</time>
      </trkpt>
      <trkpt lat="48.60533" lon="1.97713">
        <ele>103</ele>
        <time>2016-02-02T09:01:26Z</time>
      </trkpt>
      <trkpt lat="48.60525" lon="1.97705">
        <ele>103.96</ele>
        <time>2016-02-02T09:01:32Z</time>
      </trkpt>
      <trkpt lat="48.60519" lon="1.97702">
        <ele>104.92</ele>
        <time>2016-02-02T09:01:36Z</time>
      </trkpt>
      <trkpt lat="48.60511" lon="1.97695">
        <ele>105.4</ele>
        <time>2016-02-02T09:01:42Z</time>
      </trkpt>
      <trkpt lat="48.60511" lon="1.97693">
        <ele>105.88</ele>
        <time>2016-02-02T09:01:43Z</time>
      </trkpt>
      <trkpt lat="48.6051" lon="1.97691">
        <ele>105.4</ele>
        <time>2016-02-02T09:01:45Z</time>
      </trkpt>
      <trkpt lat="48.60502" lon="1.97682">
        <ele>105.4</ele>
        <time>2016-02-02T09:01:52Z</time>
      </trkpt>
      <trkpt lat="48.60494" lon="1.97674">
        <ele>105.88</ele>
        <time>2016-02-02T09:01:59Z</time>
      </trkpt>
      <trkpt lat="48.60487" lon="1.97666">
        <ele>106.36</ele>
        <time>2016-02-02T09:02:05Z</time>
      </trkpt>
      <trkpt lat="48.60476" lon="1.97657">
        <ele>106.84</ele>
        <time>2016-02-02T09:02:14Z</time>
      </trkpt>
      <trkpt lat="48.60468" lon="1.97649">
        <ele>108.29</ele>
        <time>2016-02-02T09:02:21Z</time>
      </trkpt>
      <trkpt lat="48.60467" lon="1.97647">
        <ele>108.29</ele>
        <time>2016-02-02T09:02:22Z</time>
      </trkpt>
      <trkpt lat="48.60459" lon="1.97641">
        <ele>108.77</ele>
        <time>2016-02-02T09:02:28Z</time>
      </trkpt>
      <trkpt lat="48.60459" lon="1.97638">
        <ele>108.29</ele>
        <time>2016-02-02T09:02:30Z</time>
      </trkpt>
      <trkpt lat="48.60455" lon="1.97631">
        <ele>107.81</ele>
        <time>2016-02-02T09:02:34Z</time>
      </trkpt>
      <trkpt lat="48.60447" lon="1.97622">
        <ele>108.29</ele>
        <time>2016-02-02T09:02:41Z</time>
      </trkpt>
      <trkpt lat="48.60441" lon="1.97614">
        <ele>109.25</ele>
        <time>2016-02-02T09:02:46Z</time>
      </trkpt>
      <trkpt lat="48.60431" lon="1.97608">
        <ele>109.25</ele>
        <time>2016-02-02T09:02:53Z</time>
      </trkpt>
      <trkpt lat="48.6043" lon="1.97607">
        <ele>110.21</ele>
        <time>2016-02-02T09:02:54Z</time>
      </trkpt>
      <trkpt lat="48.60419" lon="1.97601">
        <ele>108.77</ele>
        <time>2016-02-02T09:03:01Z</time>
      </trkpt>
      <trkpt lat="48.60409" lon="1.97591">
        <ele>110.21</ele>
        <time>2016-02-02T09:03:10Z</time>
      </trkpt>
      <trkpt lat="48.60402" lon="1.97584">
        <ele>109.25</ele>
        <time>2016-02-02T09:03:16Z</time>
      </trkpt>
      <trkpt lat="48.60401" lon="1.9758">
        <ele>110.21</ele>
        <time>2016-02-02T09:03:18Z</time>
      </trkpt>
      <trkpt lat="48.60392" lon="1.97571">
        <ele>111.17</ele>
        <time>2016-02-02T09:03:25Z</time>
      </trkpt>
      <trkpt lat="48.60389" lon="1.97567">
        <ele>110.69</ele>
        <time>2016-02-02T09:03:28Z</time>
      </trkpt>
      <trkpt lat="48.60381" lon="1.97555">
        <ele>110.69</ele>
        <time>2016-02-02T09:03:36Z</time>
      </trkpt>
      <trkpt lat="48.60372" lon="1.97547">
        <ele>111.17</ele>
        <time>2016-02-02T09:03:43Z</time>
      </trkpt>
      <trkpt lat="48.60366" lon="1.97539">
        <ele>111.65</ele>
        <time>2016-02-02T09:03:50Z</time>
      </trkpt>
      <trkpt lat="48.60355" lon="1.97531">
        <ele>114.05</ele>
        <time>2016-02-02T09:03:58Z</time>
      </trkpt>
      <trkpt lat="48.60345" lon="1.97523">
        <ele>113.57</ele>
        <time>2016-02-02T09:04:06Z</time>
      </trkpt>
      <trkpt lat="48.60339" lon="1.97516">
        <ele>114.53</ele>
        <time>2016-02-02T09:04:12Z</time>
      </trkpt>
      <trkpt lat="48.60334" lon="1.97511">
        <ele>113.57</ele>
        <time>2016-02-02T09:04:16Z</time>
      </trkpt>
      <trkpt lat="48.60327" lon="1.97503">
        <ele>114.05</ele>
        <time>2016-02-02T09:04:22Z</time>
      </trkpt>
      <trkpt lat="48.60324" lon="1.97498">
        <ele>115.5</ele>
        <time>2016-02-02T09:04:25Z</time>
      </trkpt>
      <trkpt lat="48.60321" lon="1.97494">
        <ele>114.53</ele>
        <time>2016-02-02T09:04:29Z</time>
      </trkpt>
      <trkpt lat="48.60312" lon="1.97486">
        <ele>116.94</ele>
        <time>2016-02-02T09:04:37Z</time>
      </trkpt>
      <trkpt lat="48.60305" lon="1.97476">
        <ele>116.94</ele>
        <time>2016-02-02T09:04:46Z</time>
      </trkpt>
      <trkpt lat="48.60299" lon="1.97472">
        <ele>120.3</ele>
        <time>2016-02-02T09:04:52Z</time>
      </trkpt>
      <trkpt lat="48.60288" lon="1.97465">
        <ele>121.74</ele>
        <time>2016-02-02T09:05:02Z</time>
      </trkpt>
      <trkpt lat="48.6028" lon="1.97455">
        <ele>122.22</ele>
        <time>2016-02-02T09:05:10Z</time>
      </trkpt>
      <trkpt lat="48.60279" lon="1.97452">
        <ele>122.22</ele>
        <time>2016-02-02T09:05:12Z</time>
      </trkpt>
      <trkpt lat="48.60277" lon="1.97449">
        <ele>123.67</ele>
        <time>2016-02-02T09:05:14Z</time>
      </trkpt>
      <trkpt lat="48.60272" lon="1.97444">
        <ele>125.11</ele>
        <time>2016-02-02T09:05:19Z</time>
      </trkpt>
      <trkpt lat="48.6027" lon="1.97443">
        <ele>124.63</ele>
        <time>2016-02-02T09:05:21Z</time>
      </trkpt>
      <trkpt lat="48.60267" lon="1.97439">
        <ele>126.07</ele>
        <time>2016-02-02T09:05:24Z</time>
      </trkpt>
      <trkpt lat="48.60262" lon="1.97435">
        <ele>127.51</ele>
        <time>2016-02-02T09:05:31Z</time>
      </trkpt>
      <trkpt lat="48.6026" lon="1.97435">
        <ele>128.47</ele>
        <time>2016-02-02T09:05:33Z</time>
      </trkpt>
      <trkpt lat="48.60259" lon="1.97434">
        <ele>127.99</ele>
        <time>2016-02-02T09:05:34Z</time>
      </trkpt>
      <trkpt lat="48.60253" lon="1.97428">
        <ele>131.36</ele>
        <time>2016-02-02T09:05:40Z</time>
      </trkpt>
      <trkpt lat="48.60252" lon="1.97428">
        <ele>130.4</ele>
        <time>2016-02-02T09:05:41Z</time>
      </trkpt>
      <trkpt lat="48.60249" lon="1.97425">
        <ele>131.36</ele>
        <time>2016-02-02T09:05:45Z</time>
      </trkpt>
      <trkpt lat="48.60244" lon="1.97421">
        <ele>131.36</ele>
        <time>2016-02-02T09:05:50Z</time>
      </trkpt>
      <trkpt lat="48.60236" lon="1.97411">
        <ele>133.28</ele>
        <time>2016-02-02T09:05:58Z</time>
      </trkpt>
      <trkpt lat="48.6023" lon="1.97405">
        <ele>134.24</ele>
        <time>2016-02-02T09:06:05Z</time>
      </trkpt>
      <trkpt lat="48.60219" lon="1.97395">
        <ele>135.2</ele>
        <time>2016-02-02T09:06:14Z</time>
      </trkpt>
      <trkpt lat="48.60208" lon="1.97384">
        <ele>135.2</ele>
        <time>2016-02-02T09:06:24Z</time>
      </trkpt>
      <trkpt lat="48.60198" lon="1.97375">
        <ele>136.64</ele>
        <time>2016-02-02T09:06:32Z</time>
      </trkpt>
      <trkpt lat="48.60191" lon="1.97366">
        <ele>136.64</ele>
        <time>2016-02-02T09:06:40Z</time>
      </trkpt>
      <trkpt lat="48.60182" lon="1.97358">
        <ele>137.13</ele>
        <time>2016-02-02T09:06:47Z</time>
      </trkpt>
      <trkpt lat="48.6017" lon="1.97348">
        <ele>136.64</ele>
        <time>2016-02-02T09:06:56Z</time>
      </trkpt>
      <trkpt lat="48.60158" lon="1.97339">
        <ele>138.09</ele>
        <time>2016-02-02T09:07:05Z</time>
      </trkpt>
      <trkpt lat="48.60151" lon="1.97333">
        <ele>138.09</ele>
        <time>2016-02-02T09:07:15Z</time>
      </trkpt>
      <trkpt lat="48.6015" lon="1.97329">
        <ele>138.09</ele>
        <time>2016-02-02T09:07:25Z</time>
      </trkpt>
      <trkpt lat="48.60148" lon="1.97326">
        <ele>138.09</ele>
        <time>2016-02-02T09:07:33Z</time>
      </trkpt>
      <trkpt lat="48.60149" lon="1.97326">
        <ele>138.09</ele>
        <time>2016-02-02T09:07:49Z</time>
      </trkpt>
      <trkpt lat="48.6015" lon="1.97326">
        <ele>138.09</ele>
        <time>2016-02-02T09:08:02Z</time>
      </trkpt>
      <trkpt lat="48.60153" lon="1.97328">
        <ele>138.57</ele>
        <time>2016-02-02T09:08:10Z</time>
      </trkpt>
      <trkpt lat="48.60152" lon="1.97325">
        <ele>140.49</ele>
        <time>2016-02-02T09:08:18Z</time>
      </trkpt>
      <trkpt lat="48.60151" lon="1.97325">
        <ele>138.57</ele>
        <time>2016-02-02T09:08:33Z</time>
      </trkpt>
      <trkpt lat="48.60151" lon="1.97325">
        <ele>140.49</ele>
        <time>2016-02-02T09:08:44Z</time>
      </trkpt>
      <trkpt lat="48.60151" lon="1.97325">
        <ele>137.61</ele>
        <time>2016-02-02T09:08:45Z</time>
      </trkpt>
      <trkpt lat="48.60152" lon="1.97325">
        <ele>138.09</ele>
        <time>2016-02-02T09:08:52Z</time>
      </trkpt>
      <trkpt lat="48.60151" lon="1.97327">
        <ele>138.09</ele>
        <time>2016-02-02T09:09:01Z</time>
      </trkpt>
      <trkpt lat="48.60151" lon="1.9733">
        <ele>138.57</ele>
        <time>2016-02-02T09:09:11Z</time>
      </trkpt>
      <trkpt lat="48.6015" lon="1.97332">
        <ele>137.61</ele>
        <time>2016-02-02T09:09:16Z</time>
      </trkpt>
      <trkpt lat="48.60151" lon="1.97327">
        <ele>138.09</ele>
        <time>2016-02-02T09:09:24Z</time>
      </trkpt>
      <trkpt lat="48.60151" lon="1.97333">
        <ele>137.61</ele>
        <time>2016-02-02T09:09:31Z</time>
      </trkpt>
      <trkpt lat="48.60151" lon="1.97336">
        <ele>137.13</ele>
        <time>2016-02-02T09:09:36Z</time>
      </trkpt>
      <trkpt lat="48.6015" lon="1.97337">
        <ele>138.09</ele>
        <time>2016-02-02T09:09:38Z</time>
      </trkpt>
      <trkpt lat="48.60148" lon="1.97346">
        <ele>136.16</ele>
        <time>2016-02-02T09:09:43Z</time>
      </trkpt>
      <trkpt lat="48.60142" lon="1.97365">
        <ele>136.16</ele>
        <time>2016-02-02T09:09:50Z</time>
      </trkpt>
      <trkpt lat="48.60139" lon="1.97374">
        <ele>135.68</ele>
        <time>2016-02-02T09:09:56Z</time>
      </trkpt>
      <trkpt lat="48.60133" lon="1.97383">
        <ele>134.72</ele>
        <time>2016-02-02T09:10:04Z</time>
      </trkpt>
      <trkpt lat="48.60129" lon="1.97392">
        <ele>133.76</ele>
        <time>2016-02-02T09:10:11Z</time>
      </trkpt>
      <trkpt lat="48.60127" lon="1.97397">
        <ele>132.32</ele>
        <time>2016-02-02T09:10:16Z</time>
      </trkpt>
      <trkpt lat="48.60123" lon="1.97411">
        <ele>130.4</ele>
        <time>2016-02-02T09:10:25Z</time>
      </trkpt>
      <trkpt lat="48.60117" lon="1.97425">
        <ele>127.99</ele>
        <time>2016-02-02T09:10:33Z</time>
      </trkpt>
      <trkpt lat="48.60111" lon="1.97435">
        <ele>124.63</ele>
        <time>2016-02-02T09:10:42Z</time>
      </trkpt>
      <trkpt lat="48.60108" lon="1.97439">
        <ele>124.15</ele>
        <time>2016-02-02T09:10:45Z</time>
      </trkpt>
      <trkpt lat="48.60099" lon="1.97464">
        <ele>121.74</ele>
        <time>2016-02-02T09:10:55Z</time>
      </trkpt>
      <trkpt lat="48.60096" lon="1.97471">
        <ele>121.74</ele>
        <time>2016-02-02T09:10:58Z</time>
      </trkpt>
      <trkpt lat="48.60087" lon="1.97483">
        <ele>121.26</ele>
        <time>2016-02-02T09:11:05Z</time>
      </trkpt>
      <trkpt lat="48.60084" lon="1.9749">
        <ele>119.34</ele>
        <time>2016-02-02T09:11:10Z</time>
      </trkpt>
      <trkpt lat="48.60083" lon="1.97497">
        <ele>119.34</ele>
        <time>2016-02-02T09:11:15Z</time>
      </trkpt>
      <trkpt lat="48.60078" lon="1.97512">
        <ele>117.9</ele>
        <time>2016-02-02T09:11:24Z</time>
      </trkpt>
      <trkpt lat="48.60073" lon="1.97524">
        <ele>117.9</ele>
        <time>2016-02-02T09:11:32Z</time>
      </trkpt>
      <trkpt lat="48.60071" lon="1.97529">
        <ele>116.94</ele>
        <time>2016-02-02T09:11:34Z</time>
      </trkpt>
      <trkpt lat="48.60066" lon="1.97541">
        <ele>116.46</ele>
        <time>2016-02-02T09:11:40Z</time>
      </trkpt>
      <trkpt lat="48.60058" lon="1.97557">
        <ele>115.98</ele>
        <time>2016-02-02T09:11:49Z</time>
      </trkpt>
      <trkpt lat="48.60056" lon="1.9756">
        <ele>115.5</ele>
        <time>2016-02-02T09:11:51Z</time>
      </trkpt>
      <trkpt lat="48.60049" lon="1.97577">
        <ele>115.01</ele>
        <time>2016-02-02T09:11:59Z</time>
      </trkpt>
      <trkpt lat="48.60043" lon="1.9759">
        <ele>114.53</ele>
        <time>2016-02-02T09:12:07Z</time>
      </trkpt>
      <trkpt lat="48.6004" lon="1.97599">
        <ele>113.57</ele>
        <time>2016-02-02T09:12:12Z</time>
      </trkpt>
      <trkpt lat="48.6003" lon="1.97617">
        <ele>112.61</ele>
        <time>2016-02-02T09:12:23Z</time>
      </trkpt>
      <trkpt lat="48.60027" lon="1.97623">
        <ele>113.57</ele>
        <time>2016-02-02T09:12:26Z</time>
      </trkpt>
      <trkpt lat="48.60021" lon="1.97639">
        <ele>111.65</ele>
        <time>2016-02-02T09:12:34Z</time>
      </trkpt>
      <trkpt lat="48.60017" lon="1.97645">
        <ele>111.65</ele>
        <time>2016-02-02T09:12:39Z</time>
      </trkpt>
      <trkpt lat="48.60012" lon="1.97657">
        <ele>112.13</ele>
        <time>2016-02-02T09:12:45Z</time>
      </trkpt>
      <trkpt lat="48.60005" lon="1.97669">
        <ele>110.21</ele>
        <time>2016-02-02T09:12:52Z</time>
      </trkpt>
      <trkpt lat="48.60002" lon="1.97676">
        <ele>109.73</ele>
        <time>2016-02-02T09:12:56Z</time>
      </trkpt>
      <trkpt lat="48.59999" lon="1.97682">
        <ele>110.21</ele>
        <time>2016-02-02T09:12:59Z</time>
      </trkpt>
      <trkpt lat="48.59991" lon="1.97701">
        <ele>109.25</ele>
        <time>2016-02-02T09:13:08Z</time>
      </trkpt>
      <trkpt lat="48.59985" lon="1.97713">
        <ele>108.77</ele>
        <time>2016-02-02T09:13:18Z</time>
      </trkpt>
      <trkpt lat="48.59984" lon="1.97712">
        <ele>108.77</ele>
        <time>2016-02-02T09:13:23Z</time>
      </trkpt>
      <trkpt lat="48.59983" lon="1.97723">
        <ele>108.29</ele>
        <time>2016-02-02T09:13:29Z</time>
      </trkpt>
      <trkpt lat="48.59985" lon="1.97736">
        <ele>107.81</ele>
        <time>2016-02-02T09:13:35Z</time>
      </trkpt>
      <trkpt lat="48.59994" lon="1.97755">
        <ele>107.81</ele>
        <time>2016-02-02T09:13:45Z</time>
      </trkpt>
      <trkpt lat="48.60001" lon="1.97772">
        <ele>107.81</ele>
        <time>2016-02-02T09:13:54Z</time>
      </trkpt>
      <trkpt lat="48.60008" lon="1.97789">
        <ele>107.81</ele>
        <time>2016-02-02T09:14:04Z</time>
      </trkpt>
      <trkpt lat="48.60009" lon="1.97796">
        <ele>107.32</ele>
        <time>2016-02-02T09:14:08Z</time>
      </trkpt>
      <trkpt lat="48.6002" lon="1.97809">
        <ele>106.84</ele>
        <time>2016-02-02T09:14:17Z</time>
      </trkpt>
      <trkpt lat="48.60023" lon="1.97811">
        <ele>105.88</ele>
        <time>2016-02-02T09:14:19Z</time>
      </trkpt>
      <trkpt lat="48.60031" lon="1.97817">
        <ele>105.4</ele>
        <time>2016-02-02T09:14:24Z</time>
      </trkpt>
      <trkpt lat="48.60048" lon="1.97833">
        <ele>104.92</ele>
        <time>2016-02-02T09:14:34Z</time>
      </trkpt>
      <trkpt lat="48.60055" lon="1.97842">
        <ele>105.88</ele>
        <time>2016-02-02T09:14:42Z</time>
      </trkpt>
      <trkpt lat="48.60058" lon="1.97844">
        <ele>105.88</ele>
        <time>2016-02-02T09:14:44Z</time>
      </trkpt>
      <trkpt lat="48.60069" lon="1.97855">
        <ele>105.88</ele>
        <time>2016-02-02T09:14:54Z</time>
      </trkpt>
      <trkpt lat="48.60083" lon="1.97872">
        <ele>105.4</ele>
        <time>2016-02-02T09:15:04Z</time>
      </trkpt>
      <trkpt lat="48.60092" lon="1.97883">
        <ele>105.4</ele>
        <time>2016-02-02T09:15:11Z</time>
      </trkpt>
      <trkpt lat="48.60103" lon="1.97896">
        <ele>104.92</ele>
        <time>2016-02-02T09:15:20Z</time>
      </trkpt>
      <trkpt lat="48.60113" lon="1.97907">
        <ele>103.48</ele>
        <time>2016-02-02T09:15:30Z</time>
      </trkpt>
      <trkpt lat="48.60123" lon="1.97917">
        <ele>103.48</ele>
        <time>2016-02-02T09:15:38Z</time>
      </trkpt>
      <trkpt lat="48.6013" lon="1.97923">
        <ele>103</ele>
        <time>2016-02-02T09:15:43Z</time>
      </trkpt>
      <trkpt lat="48.6014" lon="1.97936">
        <ele>103</ele>
        <time>2016-02-02T09:15:52Z</time>
      </trkpt>
      <trkpt lat="48.60148" lon="1.97943">
        <ele>103</ele>
        <time>2016-02-02T09:15:59Z</time>
      </trkpt>
      <trkpt lat="48.60153" lon="1.9795">
        <ele>102.52</ele>
        <time>2016-02-02T09:16:03Z</time>
      </trkpt>
      <trkpt lat="48.60162" lon="1.97959">
        <ele>102.04</ele>
        <time>2016-02-02T09:16:12Z</time>
      </trkpt>
      <trkpt lat="48.60172" lon="1.97969">
        <ele>102.52</ele>
        <time>2016-02-02T09:16:21Z</time>
      </trkpt>
      <trkpt lat="48.60181" lon="1.9798">
        <ele>102.04</ele>
        <time>2016-02-02T09:16:29Z</time>
      </trkpt>
      <trkpt lat="48.60188" lon="1.97988">
        <ele>102.52</ele>
        <time>2016-02-02T09:16:35Z</time>
      </trkpt>
      <trkpt lat="48.60197" lon="1.97999">
        <ele>102.04</ele>
        <time>2016-02-02T09:16:44Z</time>
      </trkpt>
      <trkpt lat="48.60212" lon="1.98013">
        <ele>102.04</ele>
        <time>2016-02-02T09:16:54Z</time>
      </trkpt>
      <trkpt lat="48.6022" lon="1.98025">
        <ele>101.56</ele>
        <time>2016-02-02T09:17:03Z</time>
      </trkpt>
      <trkpt lat="48.6023" lon="1.98038">
        <ele>101.08</ele>
        <time>2016-02-02T09:17:13Z</time>
      </trkpt>
      <trkpt lat="48.60241" lon="1.98047">
        <ele>100.6</ele>
        <time>2016-02-02T09:17:22Z</time>
      </trkpt>
      <trkpt lat="48.60252" lon="1.9806">
        <ele>99.63</ele>
        <time>2016-02-02T09:17:31Z</time>
      </trkpt>
      <trkpt lat="48.60258" lon="1.98066">
        <ele>99.63</ele>
        <time>2016-02-02T09:17:37Z</time>
      </trkpt>
      <trkpt lat="48.60271" lon="1.98076">
        <ele>99.63</ele>
        <time>2016-02-02T09:17:46Z</time>
      </trkpt>
      <trkpt lat="48.60283" lon="1.98087">
        <ele>99.15</ele>
        <time>2016-02-02T09:17:55Z</time>
      </trkpt>
      <trkpt lat="48.60293" lon="1.98096">
        <ele>98.67</ele>
        <time>2016-02-02T09:18:03Z</time>
      </trkpt>
      <trkpt lat="48.60303" lon="1.98109">
        <ele>98.67</ele>
        <time>2016-02-02T09:18:12Z</time>
      </trkpt>
      <trkpt lat="48.60312" lon="1.98119">
        <ele>98.19</ele>
        <time>2016-02-02T09:18:20Z</time>
      </trkpt>
      <trkpt lat="48.60321" lon="1.98127">
        <ele>98.19</ele>
        <time>2016-02-02T09:18:28Z</time>
      </trkpt>
      <trkpt lat="48.60324" lon="1.9813">
        <ele>98.19</ele>
        <time>2016-02-02T09:18:30Z</time>
      </trkpt>
      <trkpt lat="48.60337" lon="1.98145">
        <ele>97.71</ele>
        <time>2016-02-02T09:18:41Z</time>
      </trkpt>
      <trkpt lat="48.60346" lon="1.98156">
        <ele>98.19</ele>
        <time>2016-02-02T09:18:49Z</time>
      </trkpt>
      <trkpt lat="48.60347" lon="1.98157">
        <ele>97.71</ele>
        <time>2016-02-02T09:18:50Z</time>
      </trkpt>
      <trkpt lat="48.60346" lon="1.98162">
        <ele>97.71</ele>
        <time>2016-02-02T09:18:57Z</time>
      </trkpt>
      <trkpt lat="48.60347" lon="1.98162">
        <ele>97.71</ele>
        <time>2016-02-02T09:19:05Z</time>
      </trkpt>
      <trkpt lat="48.60347" lon="1.98163">
        <ele>95.31</ele>
        <time>2016-02-02T09:19:16Z</time>
      </trkpt>
      <trkpt lat="48.60347" lon="1.98164">
        <ele>99.63</ele>
        <time>2016-02-02T09:19:17Z</time>
      </trkpt>
      <trkpt lat="48.60347" lon="1.98166">
        <ele>97.71</ele>
        <time>2016-02-02T09:19:18Z</time>
      </trkpt>
      <trkpt lat="48.60354" lon="1.98173">
        <ele>97.23</ele>
        <time>2016-02-02T09:19:24Z</time>
      </trkpt>
      <trkpt lat="48.60357" lon="1.9818">
        <ele>98.19</ele>
        <time>2016-02-02T09:19:29Z</time>
      </trkpt>
      <trkpt lat="48.60354" lon="1.98194">
        <ele>97.23</ele>
        <time>2016-02-02T09:19:38Z</time>
      </trkpt>
      <trkpt lat="48.60353" lon="1.98198">
        <ele>97.71</ele>
        <time>2016-02-02T09:19:43Z</time>
      </trkpt>
      <trkpt lat="48.6035" lon="1.98215">
        <ele>97.23</ele>
        <time>2016-02-02T09:19:53Z</time>
      </trkpt>
      <trkpt lat="48.60351" lon="1.98227">
        <ele>97.71</ele>
        <time>2016-02-02T09:20:02Z</time>
      </trkpt>
      <trkpt lat="48.6035" lon="1.98227">
        <ele>97.71</ele>
        <time>2016-02-02T09:20:03Z</time>
      </trkpt>
      <trkpt lat="48.60345" lon="1.98242">
        <ele>97.71</ele>
        <time>2016-02-02T09:20:10Z</time>
      </trkpt>
      <trkpt lat="48.60339" lon="1.9825">
        <ele>97.71</ele>
        <time>2016-02-02T09:20:15Z</time>
      </trkpt>
      <trkpt lat="48.60335" lon="1.98258">
        <ele>99.63</ele>
        <time>2016-02-02T09:20:19Z</time>
      </trkpt>
      <trkpt lat="48.60332" lon="1.98263">
        <ele>101.08</ele>
        <time>2016-02-02T09:20:23Z</time>
      </trkpt>
      <trkpt lat="48.60331" lon="1.98269">
        <ele>101.56</ele>
        <time>2016-02-02T09:20:27Z</time>
      </trkpt>
      <trkpt lat="48.60325" lon="1.98274">
        <ele>102.04</ele>
        <time>2016-02-02T09:20:35Z</time>
      </trkpt>
      <trkpt lat="48.60323" lon="1.98274">
        <ele>103.48</ele>
        <time>2016-02-02T09:20:38Z</time>
      </trkpt>
      <trkpt lat="48.60317" lon="1.98279">
        <ele>106.84</ele>
        <time>2016-02-02T09:20:47Z</time>
      </trkpt>
      <trkpt lat="48.60316" lon="1.98279">
        <ele>106.36</ele>
        <time>2016-02-02T09:20:48Z</time>
      </trkpt>
      <trkpt lat="48.60303" lon="1.98285">
        <ele>106.84</ele>
        <time>2016-02-02T09:20:56Z</time>
      </trkpt>
      <trkpt lat="48.603" lon="1.98287">
        <ele>106.36</ele>
        <time>2016-02-02T09:20:59Z</time>
      </trkpt>
      <trkpt lat="48.6029" lon="1.98296">
        <ele>107.32</ele>
        <time>2016-02-02T09:21:07Z</time>
      </trkpt>
      <trkpt lat="48.60285" lon="1.98298">
        <ele>108.29</ele>
        <time>2016-02-02T09:21:11Z</time>
      </trkpt>
      <trkpt lat="48.60275" lon="1.98303">
        <ele>109.25</ele>
        <time>2016-02-02T09:21:19Z</time>
      </trkpt>
      <trkpt lat="48.60266" lon="1.98302">
        <ele>109.73</ele>
        <time>2016-02-02T09:21:25Z</time>
      </trkpt>
      <trkpt lat="48.60256" lon="1.98306">
        <ele>109.25</ele>
        <time>2016-02-02T09:21:34Z</time>
      </trkpt>
      <trkpt lat="48.60245" lon="1.98313">
        <ele>109.73</ele>
        <time>2016-02-02T09:21:43Z</time>
      </trkpt>
      <trkpt lat="48.60235" lon="1.98324">
        <ele>108.29</ele>
        <time>2016-02-02T09:21:52Z</time>
      </trkpt>
      <trkpt lat="48.60227" lon="1.98332">
        <ele>107.32</ele>
        <time>2016-02-02T09:22:00Z</time>
      </trkpt>
      <trkpt lat="48.60217" lon="1.98346">
        <ele>106.84</ele>
        <time>2016-02-02T09:22:10Z</time>
      </trkpt>
      <trkpt lat="48.60207" lon="1.98359">
        <ele>105.88</ele>
        <time>2016-02-02T09:22:19Z</time>
      </trkpt>
      <trkpt lat="48.60199" lon="1.9836">
        <ele>104.92</ele>
        <time>2016-02-02T09:22:27Z</time>
      </trkpt>
      <trkpt lat="48.60194" lon="1.9836">
        <ele>104.92</ele>
        <time>2016-02-02T09:22:31Z</time>
      </trkpt>
      <trkpt lat="48.60189" lon="1.98362">
        <ele>104.92</ele>
        <time>2016-02-02T09:22:34Z</time>
      </trkpt>
      <trkpt lat="48.6018" lon="1.98359">
        <ele>105.88</ele>
        <time>2016-02-02T09:22:42Z</time>
      </trkpt>
      <trkpt lat="48.60175" lon="1.98364">
        <ele>105.88</ele>
        <time>2016-02-02T09:22:49Z</time>
      </trkpt>
      <trkpt lat="48.60164" lon="1.98367">
        <ele>106.36</ele>
        <time>2016-02-02T09:22:59Z</time>
      </trkpt>
      <trkpt lat="48.60155" lon="1.98363">
        <ele>108.29</ele>
        <time>2016-02-02T09:23:05Z</time>
      </trkpt>
      <trkpt lat="48.60145" lon="1.9837">
        <ele>107.81</ele>
        <time>2016-02-02T09:23:12Z</time>
      </trkpt>
      <trkpt lat="48.60138" lon="1.98381">
        <ele>107.81</ele>
        <time>2016-02-02T09:23:20Z</time>
      </trkpt>
      <trkpt lat="48.6013" lon="1.98389">
        <ele>110.21</ele>
        <time>2016-02-02T09:23:29Z</time>
      </trkpt>
      <trkpt lat="48.60123" lon="1.98399">
        <ele>110.21</ele>
        <time>2016-02-02T09:23:39Z</time>
      </trkpt>
      <trkpt lat="48.60122" lon="1.98402">
        <ele>109.73</ele>
        <time>2016-02-02T09:23:43Z</time>
      </trkpt>
      <trkpt lat="48.60118" lon="1.98412">
        <ele>109.25</ele>
        <time>2016-02-02T09:23:49Z</time>
      </trkpt>
      <trkpt lat="48.60105" lon="1.98414">
        <ele>111.17</ele>
        <time>2016-02-02T09:23:58Z</time>
      </trkpt>
      <trkpt lat="48.60099" lon="1.98421">
        <ele>112.13</ele>
        <time>2016-02-02T09:24:03Z</time>
      </trkpt>
      <trkpt lat="48.60092" lon="1.98429">
        <ele>112.61</ele>
        <time>2016-02-02T09:24:11Z</time>
      </trkpt>
      <trkpt lat="48.60085" lon="1.98429">
        <ele>113.09</ele>
        <time>2016-02-02T09:24:20Z</time>
      </trkpt>
      <trkpt lat="48.60077" lon="1.98434">
        <ele>112.61</ele>
        <time>2016-02-02T09:24:28Z</time>
      </trkpt>
      <trkpt lat="48.60076" lon="1.98435">
        <ele>112.13</ele>
        <time>2016-02-02T09:24:29Z</time>
      </trkpt>
      <trkpt lat="48.60067" lon="1.98445">
        <ele>111.65</ele>
        <time>2016-02-02T09:24:38Z</time>
      </trkpt>
      <trkpt lat="48.60062" lon="1.98449">
        <ele>111.65</ele>
        <time>2016-02-02T09:24:48Z</time>
      </trkpt>
      <trkpt lat="48.60041" lon="1.98465">
        <ele>111.17</ele>
        <time>2016-02-02T09:24:56Z</time>
      </trkpt>
      <trkpt lat="48.60028" lon="1.98482">
        <ele>109.73</ele>
        <time>2016-02-02T09:25:05Z</time>
      </trkpt>
      <trkpt lat="48.60027" lon="1.98484">
        <ele>109.73</ele>
        <time>2016-02-02T09:25:12Z</time>
      </trkpt>
      <trkpt lat="48.60023" lon="1.98483">
        <ele>110.21</ele>
        <time>2016-02-02T09:25:23Z</time>
      </trkpt>
      <trkpt lat="48.6002" lon="1.98481">
        <ele>111.65</ele>
        <time>2016-02-02T09:25:30Z</time>
      </trkpt>
      <trkpt lat="48.60019" lon="1.98481">
        <ele>109.73</ele>
        <time>2016-02-02T09:25:37Z</time>
      </trkpt>
      <trkpt lat="48.60019" lon="1.9848">
        <ele>108.29</ele>
        <time>2016-02-02T09:25:50Z</time>
      </trkpt>
      <trkpt lat="48.60018" lon="1.98483">
        <ele>108.77</ele>
        <time>2016-02-02T09:25:55Z</time>
      </trkpt>
      <trkpt lat="48.60016" lon="1.9848">
        <ele>108.77</ele>
        <time>2016-02-02T09:25:58Z</time>
      </trkpt>
      <trkpt lat="48.60012" lon="1.98472">
        <ele>109.25</ele>
        <time>2016-02-02T09:26:05Z</time>
      </trkpt>
      <trkpt lat="48.60002" lon="1.98461">
        <ele>110.21</ele>
        <time>2016-02-02T09:26:14Z</time>
      </trkpt>
      <trkpt lat="48.59998" lon="1.98456">
        <ele>109.73</ele>
        <time>2016-02-02T09:26:21Z</time>
      </trkpt>
      <trkpt lat="48.59997" lon="1.98453">
        <ele>111.17</ele>
        <time>2016-02-02T09:26:23Z</time>
      </trkpt>
      <trkpt lat="48.59994" lon="1.98449">
        <ele>110.69</ele>
        <time>2016-02-02T09:26:27Z</time>
      </trkpt>
      <trkpt lat="48.5999" lon="1.98445">
        <ele>111.17</ele>
        <time>2016-02-02T09:26:31Z</time>
      </trkpt>
      <trkpt lat="48.59983" lon="1.98433">
        <ele>111.17</ele>
        <time>2016-02-02T09:26:38Z</time>
      </trkpt>
      <trkpt lat="48.5997" lon="1.98423">
        <ele>110.69</ele>
        <time>2016-02-02T09:26:47Z</time>
      </trkpt>
      <trkpt lat="48.59964" lon="1.98417">
        <ele>112.13</ele>
        <time>2016-02-02T09:26:53Z</time>
      </trkpt>
      <trkpt lat="48.59955" lon="1.98404">
        <ele>112.61</ele>
        <time>2016-02-02T09:27:02Z</time>
      </trkpt>
      <trkpt lat="48.59954" lon="1.98401">
        <ele>112.61</ele>
        <time>2016-02-02T09:27:04Z</time>
      </trkpt>
      <trkpt lat="48.59948" lon="1.98383">
        <ele>112.61</ele>
        <time>2016-02-02T09:27:13Z</time>
      </trkpt>
      <trkpt lat="48.59944" lon="1.9837">
        <ele>112.61</ele>
        <time>2016-02-02T09:27:20Z</time>
      </trkpt>
      <trkpt lat="48.59937" lon="1.9836">
        <ele>114.05</ele>
        <time>2016-02-02T09:27:27Z</time>
      </trkpt>
      <trkpt lat="48.59928" lon="1.98349">
        <ele>115.01</ele>
        <time>2016-02-02T09:27:36Z</time>
      </trkpt>
      <trkpt lat="48.59918" lon="1.98339">
        <ele>115.98</ele>
        <time>2016-02-02T09:27:44Z</time>
      </trkpt>
      <trkpt lat="48.59917" lon="1.98337">
        <ele>115.5</ele>
        <time>2016-02-02T09:27:45Z</time>
      </trkpt>
      <trkpt lat="48.59916" lon="1.98331">
        <ele>115.01</ele>
        <time>2016-02-02T09:27:48Z</time>
      </trkpt>
      <trkpt lat="48.59913" lon="1.98324">
        <ele>115.98</ele>
        <time>2016-02-02T09:27:53Z</time>
      </trkpt>
      <trkpt lat="48.59908" lon="1.98317">
        <ele>116.94</ele>
        <time>2016-02-02T09:27:58Z</time>
      </trkpt>
      <trkpt lat="48.59898" lon="1.98307">
        <ele>116.94</ele>
        <time>2016-02-02T09:28:06Z</time>
      </trkpt>
      <trkpt lat="48.59891" lon="1.983">
        <ele>116.94</ele>
        <time>2016-02-02T09:28:13Z</time>
      </trkpt>
      <trkpt lat="48.59881" lon="1.98288">
        <ele>117.42</ele>
        <time>2016-02-02T09:28:20Z</time>
      </trkpt>
      <trkpt lat="48.59873" lon="1.98279">
        <ele>117.9</ele>
        <time>2016-02-02T09:28:27Z</time>
      </trkpt>
      <trkpt lat="48.59867" lon="1.98276">
        <ele>119.82</ele>
        <time>2016-02-02T09:28:32Z</time>
      </trkpt>
      <trkpt lat="48.5986" lon="1.98274">
        <ele>120.78</ele>
        <time>2016-02-02T09:28:38Z</time>
      </trkpt>
      <trkpt lat="48.59856" lon="1.98273">
        <ele>120.3</ele>
        <time>2016-02-02T09:28:42Z</time>
      </trkpt>
      <trkpt lat="48.59851" lon="1.98268">
        <ele>121.74</ele>
        <time>2016-02-02T09:28:48Z</time>
      </trkpt>
      <trkpt lat="48.59839" lon="1.98264">
        <ele>122.71</ele>
        <time>2016-02-02T09:28:56Z</time>
      </trkpt>
      <trkpt lat="48.59836" lon="1.98263">
        <ele>121.74</ele>
        <time>2016-02-02T09:28:58Z</time>
      </trkpt>
      <trkpt lat="48.59829" lon="1.98262">
        <ele>123.19</ele>
        <time>2016-02-02T09:29:03Z</time>
      </trkpt>
      <trkpt lat="48.59823" lon="1.9826">
        <ele>124.63</ele>
        <time>2016-02-02T09:29:07Z</time>
      </trkpt>
      <trkpt lat="48.59814" lon="1.98257">
        <ele>125.59</ele>
        <time>2016-02-02T09:29:15Z</time>
      </trkpt>
      <trkpt lat="48.59808" lon="1.98257">
        <ele>127.03</ele>
        <time>2016-02-02T09:29:19Z</time>
      </trkpt>
      <trkpt lat="48.59803" lon="1.98257">
        <ele>127.99</ele>
        <time>2016-02-02T09:29:24Z</time>
      </trkpt>
      <trkpt lat="48.59796" lon="1.98255">
        <ele>129.43</ele>
        <time>2016-02-02T09:29:31Z</time>
      </trkpt>
      <trkpt lat="48.59788" lon="1.9825">
        <ele>131.84</ele>
        <time>2016-02-02T09:29:38Z</time>
      </trkpt>
      <trkpt lat="48.59786" lon="1.98248">
        <ele>130.4</ele>
        <time>2016-02-02T09:29:39Z</time>
      </trkpt>
      <trkpt lat="48.59785" lon="1.98245">
        <ele>129.43</ele>
        <time>2016-02-02T09:29:41Z</time>
      </trkpt>
      <trkpt lat="48.59783" lon="1.98242">
        <ele>130.88</ele>
        <time>2016-02-02T09:29:44Z</time>
      </trkpt>
      <trkpt lat="48.5978" lon="1.98232">
        <ele>132.8</ele>
        <time>2016-02-02T09:29:50Z</time>
      </trkpt>
      <trkpt lat="48.59779" lon="1.98229">
        <ele>131.84</ele>
        <time>2016-02-02T09:29:52Z</time>
      </trkpt>
      <trkpt lat="48.59777" lon="1.98225">
        <ele>133.28</ele>
        <time>2016-02-02T09:29:55Z</time>
      </trkpt>
      <trkpt lat="48.5977" lon="1.98221">
        <ele>133.28</ele>
        <time>2016-02-02T09:30:00Z</time>
      </trkpt>
      <trkpt lat="48.59763" lon="1.98218">
        <ele>134.24</ele>
        <time>2016-02-02T09:30:06Z</time>
      </trkpt>
      <trkpt lat="48.59762" lon="1.98218">
        <ele>133.76</ele>
        <time>2016-02-02T09:30:07Z</time>
      </trkpt>
      <trkpt lat="48.59757" lon="1.98215">
        <ele>135.68</ele>
        <time>2016-02-02T09:30:11Z</time>
      </trkpt>
      <trkpt lat="48.59746" lon="1.98214">
        <ele>135.2</ele>
        <time>2016-02-02T09:30:18Z</time>
      </trkpt>
      <trkpt lat="48.59736" lon="1.98211">
        <ele>135.68</ele>
        <time>2016-02-02T09:30:25Z</time>
      </trkpt>
      <trkpt lat="48.59734" lon="1.9821">
        <ele>136.16</ele>
        <time>2016-02-02T09:30:27Z</time>
      </trkpt>
      <trkpt lat="48.59732" lon="1.98208">
        <ele>137.13</ele>
        <time>2016-02-02T09:30:29Z</time>
      </trkpt>
      <trkpt lat="48.59731" lon="1.98206">
        <ele>136.16</ele>
        <time>2016-02-02T09:30:31Z</time>
      </trkpt>
      <trkpt lat="48.59725" lon="1.98203">
        <ele>138.57</ele>
        <time>2016-02-02T09:30:40Z</time>
      </trkpt>
      <trkpt lat="48.59723" lon="1.98202">
        <ele>137.61</ele>
        <time>2016-02-02T09:30:42Z</time>
      </trkpt>
      <trkpt lat="48.59717" lon="1.98201">
        <ele>138.09</ele>
        <time>2016-02-02T09:30:46Z</time>
      </trkpt>
      <trkpt lat="48.59715" lon="1.982">
        <ele>139.53</ele>
        <time>2016-02-02T09:30:49Z</time>
      </trkpt>
      <trkpt lat="48.59713" lon="1.98198">
        <ele>138.57</ele>
        <time>2016-02-02T09:30:51Z</time>
      </trkpt>
      <trkpt lat="48.59707" lon="1.98193">
        <ele>139.53</ele>
        <time>2016-02-02T09:30:57Z</time>
      </trkpt>
      <trkpt lat="48.59703" lon="1.98189">
        <ele>139.05</ele>
        <time>2016-02-02T09:31:01Z</time>
      </trkpt>
      <trkpt lat="48.59691" lon="1.98184">
        <ele>141.45</ele>
        <time>2016-02-02T09:31:10Z</time>
      </trkpt>
      <trkpt lat="48.59688" lon="1.98179">
        <ele>142.41</ele>
        <time>2016-02-02T09:31:14Z</time>
      </trkpt>
      <trkpt lat="48.59684" lon="1.98175">
        <ele>141.45</ele>
        <time>2016-02-02T09:31:18Z</time>
      </trkpt>
      <trkpt lat="48.59678" lon="1.98161">
        <ele>141.93</ele>
        <time>2016-02-02T09:31:26Z</time>
      </trkpt>
      <trkpt lat="48.5967" lon="1.98152">
        <ele>142.41</ele>
        <time>2016-02-02T09:31:33Z</time>
      </trkpt>
      <trkpt lat="48.59665" lon="1.98146">
        <ele>143.85</ele>
        <time>2016-02-02T09:31:38Z</time>
      </trkpt>
      <trkpt lat="48.59665" lon="1.98144">
        <ele>143.85</ele>
        <time>2016-02-02T09:31:39Z</time>
      </trkpt>
      <trkpt lat="48.59657" lon="1.98133">
        <ele>144.34</ele>
        <time>2016-02-02T09:31:47Z</time>
      </trkpt>
      <trkpt lat="48.59656" lon="1.98128">
        <ele>144.34</ele>
        <time>2016-02-02T09:31:50Z</time>
      </trkpt>
      <trkpt lat="48.59649" lon="1.9812">
        <ele>144.34</ele>
        <time>2016-02-02T09:31:56Z</time>
      </trkpt>
      <trkpt lat="48.59643" lon="1.98113">
        <ele>144.34</ele>
        <time>2016-02-02T09:32:02Z</time>
      </trkpt>
      <trkpt lat="48.59636" lon="1.98101">
        <ele>144.82</ele>
        <time>2016-02-02T09:32:11Z</time>
      </trkpt>
      <trkpt lat="48.59629" lon="1.98091">
        <ele>145.3</ele>
        <time>2016-02-02T09:32:19Z</time>
      </trkpt>
      <trkpt lat="48.59622" lon="1.98079">
        <ele>145.3</ele>
        <time>2016-02-02T09:32:28Z</time>
      </trkpt>
      <trkpt lat="48.59611" lon="1.98067">
        <ele>144.82</ele>
        <time>2016-02-02T09:32:38Z</time>
      </trkpt>
      <trkpt lat="48.59609" lon="1.98066">
        <ele>145.3</ele>
        <time>2016-02-02T09:32:39Z</time>
      </trkpt>
      <trkpt lat="48.59603" lon="1.98054">
        <ele>146.74</ele>
        <time>2016-02-02T09:32:47Z</time>
      </trkpt>
      <trkpt lat="48.59599" lon="1.98043">
        <ele>147.22</ele>
        <time>2016-02-02T09:32:54Z</time>
      </trkpt>
      <trkpt lat="48.59594" lon="1.98038">
        <ele>147.7</ele>
        <time>2016-02-02T09:32:59Z</time>
      </trkpt>
      <trkpt lat="48.5958" lon="1.98038">
        <ele>148.18</ele>
        <time>2016-02-02T09:33:09Z</time>
      </trkpt>
      <trkpt lat="48.59564" lon="1.98034">
        <ele>148.66</ele>
        <time>2016-02-02T09:33:20Z</time>
      </trkpt>
      <trkpt lat="48.59551" lon="1.98025">
        <ele>149.62</ele>
        <time>2016-02-02T09:33:30Z</time>
      </trkpt>
      <trkpt lat="48.59543" lon="1.98017">
        <ele>149.62</ele>
        <time>2016-02-02T09:33:38Z</time>
      </trkpt>
      <trkpt lat="48.59534" lon="1.98006">
        <ele>150.1</ele>
        <time>2016-02-02T09:33:47Z</time>
      </trkpt>
      <trkpt lat="48.59524" lon="1.97997">
        <ele>150.1</ele>
        <time>2016-02-02T09:33:56Z</time>
      </trkpt>
      <trkpt lat="48.59523" lon="1.97995">
        <ele>150.1</ele>
        <time>2016-02-02T09:34:05Z</time>
      </trkpt>
      <trkpt lat="48.59523" lon="1.97996">
        <ele>150.1</ele>
        <time>2016-02-02T09:34:19Z</time>
      </trkpt>
      <trkpt lat="48.59523" lon="1.97998">
        <ele>149.62</ele>
        <time>2016-02-02T09:34:31Z</time>
      </trkpt>
      <trkpt lat="48.59526" lon="1.97998">
        <ele>150.1</ele>
        <time>2016-02-02T09:34:42Z</time>
      </trkpt>
      <trkpt lat="48.59526" lon="1.97997">
        <ele>150.1</ele>
        <time>2016-02-02T09:34:56Z</time>
      </trkpt>
      <trkpt lat="48.59524" lon="1.97999">
        <ele>150.1</ele>
        <time>2016-02-02T09:35:11Z</time>
      </trkpt>
      <trkpt lat="48.59525" lon="1.97999">
        <ele>150.1</ele>
        <time>2016-02-02T09:35:25Z</time>
      </trkpt>
      <trkpt lat="48.59525" lon="1.97998">
        <ele>149.62</ele>
        <time>2016-02-02T09:35:35Z</time>
      </trkpt>
      <trkpt lat="48.59525" lon="1.98001">
        <ele>149.14</ele>
        <time>2016-02-02T09:35:46Z</time>
      </trkpt>
      <trkpt lat="48.59525" lon="1.98001">
        <ele>149.62</ele>
        <time>2016-02-02T09:35:58Z</time>
      </trkpt>
      <trkpt lat="48.59522" lon="1.97997">
        <ele>149.62</ele>
        <time>2016-02-02T09:36:10Z</time>
      </trkpt>
      <trkpt lat="48.5952" lon="1.97993">
        <ele>149.62</ele>
        <time>2016-02-02T09:36:20Z</time>
      </trkpt>
      <trkpt lat="48.5952" lon="1.97993">
        <ele>149.14</ele>
        <time>2016-02-02T09:36:31Z</time>
      </trkpt>
      <trkpt lat="48.59523" lon="1.97989">
        <ele>149.14</ele>
        <time>2016-02-02T09:36:39Z</time>
      </trkpt>
      <trkpt lat="48.59527" lon="1.97991">
        <ele>149.14</ele>
        <time>2016-02-02T09:36:52Z</time>
      </trkpt>
      <trkpt lat="48.59518" lon="1.97979">
        <ele>149.14</ele>
        <time>2016-02-02T09:37:02Z</time>
      </trkpt>
      <trkpt lat="48.59513" lon="1.97967">
        <ele>149.62</ele>
        <time>2016-02-02T09:37:09Z</time>
      </trkpt>
      <trkpt lat="48.59508" lon="1.97954">
        <ele>149.62</ele>
        <time>2016-02-02T09:37:16Z</time>
      </trkpt>
      <trkpt lat="48.59505" lon="1.97937">
        <ele>149.62</ele>
        <time>2016-02-02T09:37:24Z</time>
      </trkpt>
      <trkpt lat="48.59499" lon="1.97918">
        <ele>150.1</ele>
        <time>2016-02-02T09:37:34Z</time>
      </trkpt>
      <trkpt lat="48.59495" lon="1.97897">
        <ele>149.62</ele>
        <time>2016-02-02T09:37:44Z</time>
      </trkpt>
      <trkpt lat="48.59493" lon="1.97885">
        <ele>149.62</ele>
        <time>2016-02-02T09:37:51Z</time>
      </trkpt>
      <trkpt lat="48.59489" lon="1.97875">
        <ele>150.1</ele>
        <time>2016-02-02T09:37:56Z</time>
      </trkpt>
      <trkpt lat="48.59481" lon="1.9786">
        <ele>150.1</ele>
        <time>2016-02-02T09:38:05Z</time>
      </trkpt>
      <trkpt lat="48.59472" lon="1.97843">
        <ele>150.1</ele>
        <time>2016-02-02T09:38:14Z</time>
      </trkpt>
      <trkpt lat="48.59463" lon="1.97825">
        <ele>150.58</ele>
        <time>2016-02-02T09:38:25Z</time>
      </trkpt>
      <trkpt lat="48.59459" lon="1.9781">
        <ele>150.1</ele>
        <time>2016-02-02T09:38:33Z</time>
      </trkpt>
      <trkpt lat="48.59455" lon="1.97796">
        <ele>149.62</ele>
        <time>2016-02-02T09:38:41Z</time>
      </trkpt>
      <trkpt lat="48.59452" lon="1.97782">
        <ele>149.62</ele>
        <time>2016-02-02T09:38:49Z</time>
      </trkpt>
      <trkpt lat="48.59448" lon="1.97769">
        <ele>149.14</ele>
        <time>2016-02-02T09:38:57Z</time>
      </trkpt>
      <trkpt lat="48.59445" lon="1.97748">
        <ele>147.7</ele>
        <time>2016-02-02T09:39:06Z</time>
      </trkpt>
      <trkpt lat="48.59444" lon="1.97744">
        <ele>148.18</ele>
        <time>2016-02-02T09:39:09Z</time>
      </trkpt>
      <trkpt lat="48.59443" lon="1.97739">
        <ele>148.18</ele>
        <time>2016-02-02T09:39:11Z</time>
      </trkpt>
      <trkpt lat="48.59439" lon="1.97725">
        <ele>147.7</ele>
        <time>2016-02-02T09:39:19Z</time>
      </trkpt>
      <trkpt lat="48.59436" lon="1.97713">
        <ele>146.26</ele>
        <time>2016-02-02T09:39:26Z</time>
      </trkpt>
      <trkpt lat="48.59433" lon="1.97701">
        <ele>145.3</ele>
        <time>2016-02-02T09:39:35Z</time>
      </trkpt>
      <trkpt lat="48.59432" lon="1.97696">
        <ele>144.34</ele>
        <time>2016-02-02T09:39:38Z</time>
      </trkpt>
      <trkpt lat="48.59434" lon="1.97681">
        <ele>144.34</ele>
        <time>2016-02-02T09:39:46Z</time>
      </trkpt>
      <trkpt lat="48.59432" lon="1.97661">
        <ele>142.89</ele>
        <time>2016-02-02T09:39:53Z</time>
      </trkpt>
      <trkpt lat="48.59431" lon="1.97648">
        <ele>141.45</ele>
        <time>2016-02-02T09:40:00Z</time>
      </trkpt>
      <trkpt lat="48.59433" lon="1.97633">
        <ele>140.49</ele>
        <time>2016-02-02T09:40:08Z</time>
      </trkpt>
      <trkpt lat="48.59433" lon="1.97632">
        <ele>140.49</ele>
        <time>2016-02-02T09:40:09Z</time>
      </trkpt>
      <trkpt lat="48.59433" lon="1.9762">
        <ele>139.53</ele>
        <time>2016-02-02T09:40:17Z</time>
      </trkpt>
      <trkpt lat="48.59437" lon="1.97605">
        <ele>139.05</ele>
        <time>2016-02-02T09:40:25Z</time>
      </trkpt>
      <trkpt lat="48.59441" lon="1.97591">
        <ele>136.64</ele>
        <time>2016-02-02T09:40:32Z</time>
      </trkpt>
      <trkpt lat="48.59443" lon="1.97587">
        <ele>137.13</ele>
        <time>2016-02-02T09:40:34Z</time>
      </trkpt>
      <trkpt lat="48.59451" lon="1.97566">
        <ele>135.68</ele>
        <time>2016-02-02T09:40:45Z</time>
      </trkpt>
      <trkpt lat="48.59457" lon="1.9756">
        <ele>135.68</ele>
        <time>2016-02-02T09:40:50Z</time>
      </trkpt>
      <trkpt lat="48.59465" lon="1.97549">
        <ele>136.16</ele>
        <time>2016-02-02T09:40:59Z</time>
      </trkpt>
      <trkpt lat="48.59473" lon="1.97535">
        <ele>134.72</ele>
        <time>2016-02-02T09:41:07Z</time>
      </trkpt>
      <trkpt lat="48.59478" lon="1.97522">
        <ele>132.8</ele>
        <time>2016-02-02T09:41:15Z</time>
      </trkpt>
      <trkpt lat="48.59481" lon="1.97508">
        <ele>133.28</ele>
        <time>2016-02-02T09:41:24Z</time>
      </trkpt>
      <trkpt lat="48.59481" lon="1.97504">
        <ele>133.28</ele>
        <time>2016-02-02T09:41:26Z</time>
      </trkpt>
      <trkpt lat="48.59478" lon="1.97489">
        <ele>132.32</ele>
        <time>2016-02-02T09:41:36Z</time>
      </trkpt>
      <trkpt lat="48.59477" lon="1.97483">
        <ele>131.84</ele>
        <time>2016-02-02T09:41:38Z</time>
      </trkpt>
      <trkpt lat="48.59475" lon="1.97466">
        <ele>131.36</ele>
        <time>2016-02-02T09:41:47Z</time>
      </trkpt>
      <trkpt lat="48.59478" lon="1.97447">
        <ele>130.88</ele>
        <time>2016-02-02T09:41:57Z</time>
      </trkpt>
      <trkpt lat="48.5948" lon="1.97433">
        <ele>131.36</ele>
        <time>2016-02-02T09:42:06Z</time>
      </trkpt>
      <trkpt lat="48.59483" lon="1.97424">
        <ele>130.88</ele>
        <time>2016-02-02T09:42:17Z</time>
      </trkpt>
      <trkpt lat="48.59487" lon="1.97418">
        <ele>130.4</ele>
        <time>2016-02-02T09:42:24Z</time>
      </trkpt>
      <trkpt lat="48.5949" lon="1.97407">
        <ele>131.36</ele>
        <time>2016-02-02T09:42:33Z</time>
      </trkpt>
      <trkpt lat="48.59491" lon="1.97404">
        <ele>131.84</ele>
        <time>2016-02-02T09:42:35Z</time>
      </trkpt>
      <trkpt lat="48.59496" lon="1.97392">
        <ele>131.84</ele>
        <time>2016-02-02T09:42:43Z</time>
      </trkpt>
      <trkpt lat="48.59503" lon="1.97383">
        <ele>131.84</ele>
        <time>2016-02-02T09:42:50Z</time>
      </trkpt>
      <trkpt lat="48.5951" lon="1.97378">
        <ele>130.88</ele>
        <time>2016-02-02T09:42:59Z</time>
      </trkpt>
      <trkpt lat="48.59514" lon="1.97369">
        <ele>130.88</ele>
        <time>2016-02-02T09:43:07Z</time>
      </trkpt>
      <trkpt lat="48.59514" lon="1.97368">
        <ele>130.88</ele>
        <time>2016-02-02T09:43:08Z</time>
      </trkpt>
      <trkpt lat="48.59516" lon="1.97367">
        <ele>130.4</ele>
        <time>2016-02-02T09:43:16Z</time>
      </trkpt>
      <trkpt lat="48.59521" lon="1.97366">
        <ele>130.4</ele>
        <time>2016-02-02T09:43:22Z</time>
      </trkpt>
      <trkpt lat="48.59523" lon="1.97364">
        <ele>129.92</ele>
        <time>2016-02-02T09:43:25Z</time>
      </trkpt>
      <trkpt lat="48.59529" lon="1.97359">
        <ele>129.92</ele>
        <time>2016-02-02T09:43:32Z</time>
      </trkpt>
      <trkpt lat="48.59531" lon="1.97356">
        <ele>129.92</ele>
        <time>2016-02-02T09:43:38Z</time>
      </trkpt>
      <trkpt lat="48.59533" lon="1.97353">
        <ele>128.95</ele>
        <time>2016-02-02T09:43:43Z</time>
      </trkpt>
      <trkpt lat="48.5954" lon="1.97349">
        <ele>129.92</ele>
        <time>2016-02-02T09:43:53Z</time>
      </trkpt>
      <trkpt lat="48.59551" lon="1.97346">
        <ele>128.95</ele>
        <time>2016-02-02T09:43:58Z</time>
      </trkpt>
      <trkpt lat="48.59558" lon="1.97342">
        <ele>130.4</ele>
        <time>2016-02-02T09:44:02Z</time>
      </trkpt>
      <trkpt lat="48.59569" lon="1.97338">
        <ele>128.95</ele>
        <time>2016-02-02T09:44:11Z</time>
      </trkpt>
      <trkpt lat="48.59579" lon="1.97333">
        <ele>129.43</ele>
        <time>2016-02-02T09:44:21Z</time>
      </trkpt>
      <trkpt lat="48.59586" lon="1.97329">
        <ele>128.95</ele>
        <time>2016-02-02T09:44:29Z</time>
      </trkpt>
      <trkpt lat="48.59591" lon="1.97325">
        <ele>129.43</ele>
        <time>2016-02-02T09:44:32Z</time>
      </trkpt>
      <trkpt lat="48.59608" lon="1.97318">
        <ele>128.47</ele>
        <time>2016-02-02T09:44:42Z</time>
      </trkpt>
      <trkpt lat="48.59622" lon="1.97313">
        <ele>128.47</ele>
        <time>2016-02-02T09:44:51Z</time>
      </trkpt>
      <trkpt lat="48.59631" lon="1.97307">
        <ele>127.99</ele>
        <time>2016-02-02T09:45:00Z</time>
      </trkpt>
      <trkpt lat="48.59636" lon="1.973">
        <ele>126.07</ele>
        <time>2016-02-02T09:45:05Z</time>
      </trkpt>
      <trkpt lat="48.59645" lon="1.97296">
        <ele>125.59</ele>
        <time>2016-02-02T09:45:15Z</time>
      </trkpt>
      <trkpt lat="48.59653" lon="1.97291">
        <ele>124.63</ele>
        <time>2016-02-02T09:45:25Z</time>
      </trkpt>
      <trkpt lat="48.59664" lon="1.97283">
        <ele>124.63</ele>
        <time>2016-02-02T09:45:32Z</time>
      </trkpt>
      <trkpt lat="48.5967" lon="1.97279">
        <ele>123.19</ele>
        <time>2016-02-02T09:45:42Z</time>
      </trkpt>
      <trkpt lat="48.59692" lon="1.97268">
        <ele>121.74</ele>
        <time>2016-02-02T09:45:54Z</time>
      </trkpt>
      <trkpt lat="48.59702" lon="1.9726">
        <ele>123.19</ele>
        <time>2016-02-02T09:46:03Z</time>
      </trkpt>
      <trkpt lat="48.59714" lon="1.97254">
        <ele>123.19</ele>
        <time>2016-02-02T09:46:12Z</time>
      </trkpt>
      <trkpt lat="48.59716" lon="1.97253">
        <ele>123.67</ele>
        <time>2016-02-02T09:46:18Z</time>
      </trkpt>
      <trkpt lat="48.59722" lon="1.97251">
        <ele>125.11</ele>
        <time>2016-02-02T09:46:21Z</time>
      </trkpt>
      <trkpt lat="48.59741" lon="1.97243">
        <ele>126.55</ele>
        <time>2016-02-02T09:46:33Z</time>
      </trkpt>
      <trkpt lat="48.59749" lon="1.97236">
        <ele>126.07</ele>
        <time>2016-02-02T09:46:44Z</time>
      </trkpt>
      <trkpt lat="48.59747" lon="1.97234">
        <ele>126.07</ele>
        <time>2016-02-02T09:46:51Z</time>
      </trkpt>
      <trkpt lat="48.59746" lon="1.9722">
        <ele>126.07</ele>
        <time>2016-02-02T09:46:57Z</time>
      </trkpt>
      <trkpt lat="48.59744" lon="1.9721">
        <ele>126.07</ele>
        <time>2016-02-02T09:47:02Z</time>
      </trkpt>
      <trkpt lat="48.59743" lon="1.97193">
        <ele>126.07</ele>
        <time>2016-02-02T09:47:11Z</time>
      </trkpt>
      <trkpt lat="48.59737" lon="1.9718">
        <ele>127.03</ele>
        <time>2016-02-02T09:47:20Z</time>
      </trkpt>
      <trkpt lat="48.59737" lon="1.97178">
        <ele>127.03</ele>
        <time>2016-02-02T09:47:21Z</time>
      </trkpt>
      <trkpt lat="48.59735" lon="1.97169">
        <ele>126.55</ele>
        <time>2016-02-02T09:47:29Z</time>
      </trkpt>
      <trkpt lat="48.59731" lon="1.97152">
        <ele>126.55</ele>
        <time>2016-02-02T09:47:36Z</time>
      </trkpt>
      <trkpt lat="48.59726" lon="1.97136">
        <ele>127.99</ele>
        <time>2016-02-02T09:47:45Z</time>
      </trkpt>
      <trkpt lat="48.59725" lon="1.97133">
        <ele>127.03</ele>
        <time>2016-02-02T09:47:46Z</time>
      </trkpt>
      <trkpt lat="48.59721" lon="1.97118">
        <ele>127.51</ele>
        <time>2016-02-02T09:47:52Z</time>
      </trkpt>
      <trkpt lat="48.59715" lon="1.97106">
        <ele>127.99</ele>
        <time>2016-02-02T09:47:59Z</time>
      </trkpt>
      <trkpt lat="48.59713" lon="1.97094">
        <ele>126.55</ele>
        <time>2016-02-02T09:48:07Z</time>
      </trkpt>
      <trkpt lat="48.59706" lon="1.97081">
        <ele>127.03</ele>
        <time>2016-02-02T09:48:16Z</time>
      </trkpt>
      <trkpt lat="48.59695" lon="1.97064">
        <ele>126.55</ele>
        <time>2016-02-02T09:48:27Z</time>
      </trkpt>
      <trkpt lat="48.59685" lon="1.97048">
        <ele>127.03</ele>
        <time>2016-02-02T09:48:37Z</time>
      </trkpt>
      <trkpt lat="48.59681" lon="1.97041">
        <ele>127.03</ele>
        <time>2016-02-02T09:48:42Z</time>
      </trkpt>
      <trkpt lat="48.59681" lon="1.97024">
        <ele>127.51</ele>
        <time>2016-02-02T09:48:51Z</time>
      </trkpt>
      <trkpt lat="48.59689" lon="1.9701">
        <ele>126.55</ele>
        <time>2016-02-02T09:49:01Z</time>
      </trkpt>
      <trkpt lat="48.59695" lon="1.96998">
        <ele>127.99</ele>
        <time>2016-02-02T09:49:09Z</time>
      </trkpt>
      <trkpt lat="48.59704" lon="1.96981">
        <ele>129.92</ele>
        <time>2016-02-02T09:49:19Z</time>
      </trkpt>
      <trkpt lat="48.5971" lon="1.96967">
        <ele>128.95</ele>
        <time>2016-02-02T09:49:29Z</time>
      </trkpt>
      <trkpt lat="48.59712" lon="1.96959">
        <ele>129.92</ele>
        <time>2016-02-02T09:49:34Z</time>
      </trkpt>
      <trkpt lat="48.59712" lon="1.96958">
        <ele>129.43</ele>
        <time>2016-02-02T09:49:35Z</time>
      </trkpt>
      <trkpt lat="48.59715" lon="1.96947">
        <ele>130.88</ele>
        <time>2016-02-02T09:49:43Z</time>
      </trkpt>
      <trkpt lat="48.59718" lon="1.96938">
        <ele>131.84</ele>
        <time>2016-02-02T09:49:50Z</time>
      </trkpt>
      <trkpt lat="48.59721" lon="1.96934">
        <ele>132.32</ele>
        <time>2016-02-02T09:49:53Z</time>
      </trkpt>
      <trkpt lat="48.59721" lon="1.96931">
        <ele>132.32</ele>
        <time>2016-02-02T09:49:55Z</time>
      </trkpt>
      <trkpt lat="48.59726" lon="1.96923">
        <ele>132.8</ele>
        <time>2016-02-02T09:50:02Z</time>
      </trkpt>
      <trkpt lat="48.59731" lon="1.96913">
        <ele>133.76</ele>
        <time>2016-02-02T09:50:12Z</time>
      </trkpt>
      <trkpt lat="48.59734" lon="1.96907">
        <ele>134.24</ele>
        <time>2016-02-02T09:50:18Z</time>
      </trkpt>
      <trkpt lat="48.59735" lon="1.96906">
        <ele>134.72</ele>
        <time>2016-02-02T09:50:24Z</time>
      </trkpt>
      <trkpt lat="48.59737" lon="1.96903">
        <ele>134.24</ele>
        <time>2016-02-02T09:50:29Z</time>
      </trkpt>
      <trkpt lat="48.59741" lon="1.96901">
        <ele>133.76</ele>
        <time>2016-02-02T09:50:36Z</time>
      </trkpt>
      <trkpt lat="48.59742" lon="1.96898">
        <ele>134.24</ele>
        <time>2016-02-02T09:50:40Z</time>
      </trkpt>
      <trkpt lat="48.59748" lon="1.96884">
        <ele>135.2</ele>
        <time>2016-02-02T09:50:48Z</time>
      </trkpt>
      <trkpt lat="48.59752" lon="1.96876">
        <ele>135.68</ele>
        <time>2016-02-02T09:50:52Z</time>
      </trkpt>
      <trkpt lat="48.59754" lon="1.96871">
        <ele>135.2</ele>
        <time>2016-02-02T09:50:54Z</time>
      </trkpt>
      <trkpt lat="48.59758" lon="1.96858">
        <ele>135.2</ele>
        <time>2016-02-02T09:51:01Z</time>
      </trkpt>
      <trkpt lat="48.59759" lon="1.96856">
        <ele>136.16</ele>
        <time>2016-02-02T09:51:03Z</time>
      </trkpt>
      <trkpt lat="48.59765" lon="1.96846">
        <ele>138.57</ele>
        <time>2016-02-02T09:51:10Z</time>
      </trkpt>
      <trkpt lat="48.59766" lon="1.96845">
        <ele>138.09</ele>
        <time>2016-02-02T09:51:11Z</time>
      </trkpt>
      <trkpt lat="48.59772" lon="1.96833">
        <ele>138.09</ele>
        <time>2016-02-02T09:51:18Z</time>
      </trkpt>
      <trkpt lat="48.59773" lon="1.9683">
        <ele>138.57</ele>
        <time>2016-02-02T09:51:20Z</time>
      </trkpt>
      <trkpt lat="48.59777" lon="1.96824">
        <ele>140.01</ele>
        <time>2016-02-02T09:51:25Z</time>
      </trkpt>
      <trkpt lat="48.59779" lon="1.96819">
        <ele>141.45</ele>
        <time>2016-02-02T09:51:28Z</time>
      </trkpt>
      <trkpt lat="48.59781" lon="1.96817">
        <ele>141.45</ele>
        <time>2016-02-02T09:51:29Z</time>
      </trkpt>
      <trkpt lat="48.59783" lon="1.96815">
        <ele>141.45</ele>
        <time>2016-02-02T09:51:31Z</time>
      </trkpt>
      <trkpt lat="48.59786" lon="1.96809">
        <ele>143.37</ele>
        <time>2016-02-02T09:51:37Z</time>
      </trkpt>
      <trkpt lat="48.5979" lon="1.96799">
        <ele>143.37</ele>
        <time>2016-02-02T09:51:45Z</time>
      </trkpt>
      <trkpt lat="48.59794" lon="1.96787">
        <ele>145.78</ele>
        <time>2016-02-02T09:51:52Z</time>
      </trkpt>
      <trkpt lat="48.59797" lon="1.96775">
        <ele>146.74</ele>
        <time>2016-02-02T09:51:59Z</time>
      </trkpt>
      <trkpt lat="48.59799" lon="1.9677">
        <ele>145.78</ele>
        <time>2016-02-02T09:52:01Z</time>
      </trkpt>
      <trkpt lat="48.59801" lon="1.96766">
        <ele>147.22</ele>
        <time>2016-02-02T09:52:04Z</time>
      </trkpt>
      <trkpt lat="48.59807" lon="1.96754">
        <ele>146.26</ele>
        <time>2016-02-02T09:52:12Z</time>
      </trkpt>
      <trkpt lat="48.59811" lon="1.96743">
        <ele>147.7</ele>
        <time>2016-02-02T09:52:20Z</time>
      </trkpt>
      <trkpt lat="48.59814" lon="1.96739">
        <ele>148.66</ele>
        <time>2016-02-02T09:52:23Z</time>
      </trkpt>
      <trkpt lat="48.59815" lon="1.96735">
        <ele>148.18</ele>
        <time>2016-02-02T09:52:25Z</time>
      </trkpt>
      <trkpt lat="48.59821" lon="1.96719">
        <ele>147.22</ele>
        <time>2016-02-02T09:52:33Z</time>
      </trkpt>
      <trkpt lat="48.59823" lon="1.96713">
        <ele>147.7</ele>
        <time>2016-02-02T09:52:37Z</time>
      </trkpt>
      <trkpt lat="48.59825" lon="1.96708">
        <ele>148.66</ele>
        <time>2016-02-02T09:52:40Z</time>
      </trkpt>
      <trkpt lat="48.59827" lon="1.96703">
        <ele>148.18</ele>
        <time>2016-02-02T09:52:42Z</time>
      </trkpt>
      <trkpt lat="48.5983" lon="1.96697">
        <ele>148.18</ele>
        <time>2016-02-02T09:52:46Z</time>
      </trkpt>
      <trkpt lat="48.59833" lon="1.96691">
        <ele>148.18</ele>
        <time>2016-02-02T09:52:50Z</time>
      </trkpt>
      <trkpt lat="48.59838" lon="1.96683">
        <ele>148.66</ele>
        <time>2016-02-02T09:52:55Z</time>
      </trkpt>
      <trkpt lat="48.59843" lon="1.96673">
        <ele>149.14</ele>
        <time>2016-02-02T09:53:01Z</time>
      </trkpt>
      <trkpt lat="48.59843" lon="1.96672">
        <ele>148.66</ele>
        <time>2016-02-02T09:53:02Z</time>
      </trkpt>
      <trkpt lat="48.59851" lon="1.96658">
        <ele>148.18</ele>
        <time>2016-02-02T09:53:11Z</time>
      </trkpt>
      <trkpt lat="48.59857" lon="1.96647">
        <ele>147.7</ele>
        <time>2016-02-02T09:53:18Z</time>
      </trkpt>
      <trkpt lat="48.59858" lon="1.96645">
        <ele>148.66</ele>
        <time>2016-02-02T09:53:20Z</time>
      </trkpt>
      <trkpt lat="48.59862" lon="1.96637">
        <ele>146.26</ele>
        <time>2016-02-02T09:53:24Z</time>
      </trkpt>
      <trkpt lat="48.59867" lon="1.96628">
        <ele>147.22</ele>
        <time>2016-02-02T09:53:30Z</time>
      </trkpt>
      <trkpt lat="48.59872" lon="1.96621">
        <ele>148.18</ele>
        <time>2016-02-02T09:53:34Z</time>
      </trkpt>
      <trkpt lat="48.59878" lon="1.96607">
        <ele>147.7</ele>
        <time>2016-02-02T09:53:43Z</time>
      </trkpt>
      <trkpt lat="48.59881" lon="1.96592">
        <ele>147.22</ele>
        <time>2016-02-02T09:53:51Z</time>
      </trkpt>
      <trkpt lat="48.59876" lon="1.96577">
        <ele>146.74</ele>
        <time>2016-02-02T09:53:59Z</time>
      </trkpt>
      <trkpt lat="48.59875" lon="1.96575">
        <ele>148.18</ele>
        <time>2016-02-02T09:54:01Z</time>
      </trkpt>
      <trkpt lat="48.59868" lon="1.9657">
        <ele>147.7</ele>
        <time>2016-02-02T09:54:08Z</time>
      </trkpt>
      <trkpt lat="48.59856" lon="1.9656">
        <ele>147.7</ele>
        <time>2016-02-02T09:54:17Z</time>
      </trkpt>
      <trkpt lat="48.59849" lon="1.96554">
        <ele>148.66</ele>
        <time>2016-02-02T09:54:22Z</time>
      </trkpt>
      <trkpt lat="48.59843" lon="1.9655">
        <ele>147.7</ele>
        <time>2016-02-02T09:54:26Z</time>
      </trkpt>
      <trkpt lat="48.59841" lon="1.96547">
        <ele>149.14</ele>
        <time>2016-02-02T09:54:29Z</time>
      </trkpt>
      <trkpt lat="48.59831" lon="1.96537">
        <ele>150.58</ele>
        <time>2016-02-02T09:54:36Z</time>
      </trkpt>
      <trkpt lat="48.5983" lon="1.96537">
        <ele>150.1</ele>
        <time>2016-02-02T09:54:37Z</time>
      </trkpt>
      <trkpt lat="48.59819" lon="1.96523">
        <ele>150.1</ele>
        <time>2016-02-02T09:54:47Z</time>
      </trkpt>
      <trkpt lat="48.59817" lon="1.96522">
        <ele>149.14</ele>
        <time>2016-02-02T09:54:49Z</time>
      </trkpt>
      <trkpt lat="48.59814" lon="1.9652">
        <ele>148.66</ele>
        <time>2016-02-02T09:54:51Z</time>
      </trkpt>
      <trkpt lat="48.59803" lon="1.96505">
        <ele>151.54</ele>
        <time>2016-02-02T09:55:01Z</time>
      </trkpt>
      <trkpt lat="48.59802" lon="1.96504">
        <ele>151.06</ele>
        <time>2016-02-02T09:55:02Z</time>
      </trkpt>
      <trkpt lat="48.598" lon="1.96502">
        <ele>150.58</ele>
        <time>2016-02-02T09:55:04Z</time>
      </trkpt>
      <trkpt lat="48.59792" lon="1.96498">
        <ele>152.03</ele>
        <time>2016-02-02T09:55:09Z</time>
      </trkpt>
      <trkpt lat="48.59784" lon="1.9649">
        <ele>152.03</ele>
        <time>2016-02-02T09:55:16Z</time>
      </trkpt>
      <trkpt lat="48.59774" lon="1.96481">
        <ele>151.54</ele>
        <time>2016-02-02T09:55:23Z</time>
      </trkpt>
      <trkpt lat="48.59766" lon="1.96471">
        <ele>151.06</ele>
        <time>2016-02-02T09:55:32Z</time>
      </trkpt>
      <trkpt lat="48.59762" lon="1.96462">
        <ele>151.54</ele>
        <time>2016-02-02T09:55:38Z</time>
      </trkpt>
      <trkpt lat="48.59755" lon="1.96448">
        <ele>152.03</ele>
        <time>2016-02-02T09:55:47Z</time>
      </trkpt>
      <trkpt lat="48.59745" lon="1.96435">
        <ele>151.54</ele>
        <time>2016-02-02T09:55:56Z</time>
      </trkpt>
      <trkpt lat="48.59734" lon="1.96423">
        <ele>152.03</ele>
        <time>2016-02-02T09:56:05Z</time>
      </trkpt>
      <trkpt lat="48.59729" lon="1.96416">
        <ele>152.99</ele>
        <time>2016-02-02T09:56:11Z</time>
      </trkpt>
      <trkpt lat="48.59725" lon="1.96412">
        <ele>152.03</ele>
        <time>2016-02-02T09:56:14Z</time>
      </trkpt>
      <trkpt lat="48.59714" lon="1.96405">
        <ele>152.51</ele>
        <time>2016-02-02T09:56:22Z</time>
      </trkpt>
      <trkpt lat="48.59701" lon="1.96394">
        <ele>152.51</ele>
        <time>2016-02-02T09:56:31Z</time>
      </trkpt>
      <trkpt lat="48.5969" lon="1.96383">
        <ele>151.06</ele>
        <time>2016-02-02T09:56:41Z</time>
      </trkpt>
      <trkpt lat="48.59686" lon="1.96379">
        <ele>152.51</ele>
        <time>2016-02-02T09:56:44Z</time>
      </trkpt>
      <trkpt lat="48.59671" lon="1.96364">
        <ele>152.51</ele>
        <time>2016-02-02T09:56:55Z</time>
      </trkpt>
      <trkpt lat="48.59661" lon="1.96354">
        <ele>152.51</ele>
        <time>2016-02-02T09:57:04Z</time>
      </trkpt>
      <trkpt lat="48.59653" lon="1.96342">
        <ele>151.54</ele>
        <time>2016-02-02T09:57:13Z</time>
      </trkpt>
      <trkpt lat="48.59652" lon="1.96341">
        <ele>151.54</ele>
        <time>2016-02-02T09:57:14Z</time>
      </trkpt>
      <trkpt lat="48.59639" lon="1.96328">
        <ele>151.06</ele>
        <time>2016-02-02T09:57:23Z</time>
      </trkpt>
      <trkpt lat="48.59631" lon="1.96317">
        <ele>150.58</ele>
        <time>2016-02-02T09:57:31Z</time>
      </trkpt>
      <trkpt lat="48.59622" lon="1.96309">
        <ele>151.06</ele>
        <time>2016-02-02T09:57:38Z</time>
      </trkpt>
      <trkpt lat="48.59621" lon="1.96307">
        <ele>151.06</ele>
        <time>2016-02-02T09:57:40Z</time>
      </trkpt>
      <trkpt lat="48.59612" lon="1.963">
        <ele>148.18</ele>
        <time>2016-02-02T09:57:48Z</time>
      </trkpt>
      <trkpt lat="48.59611" lon="1.96298">
        <ele>148.18</ele>
        <time>2016-02-02T09:57:50Z</time>
      </trkpt>
      <trkpt lat="48.59605" lon="1.96292">
        <ele>146.74</ele>
        <time>2016-02-02T09:57:55Z</time>
      </trkpt>
      <trkpt lat="48.59599" lon="1.96288">
        <ele>146.26</ele>
        <time>2016-02-02T09:58:03Z</time>
      </trkpt>
      <trkpt lat="48.59593" lon="1.96283">
        <ele>143.85</ele>
        <time>2016-02-02T09:58:12Z</time>
      </trkpt>
      <trkpt lat="48.59594" lon="1.96282">
        <ele>144.34</ele>
        <time>2016-02-02T09:58:13Z</time>
      </trkpt>
      <trkpt lat="48.59597" lon="1.96274">
        <ele>142.41</ele>
        <time>2016-02-02T09:58:18Z</time>
      </trkpt>
      <trkpt lat="48.59598" lon="1.96273">
        <ele>144.34</ele>
        <time>2016-02-02T09:58:19Z</time>
      </trkpt>
      <trkpt lat="48.596" lon="1.96267">
        <ele>142.89</ele>
        <time>2016-02-02T09:58:22Z</time>
      </trkpt>
      <trkpt lat="48.59606" lon="1.96254">
        <ele>142.41</ele>
        <time>2016-02-02T09:58:30Z</time>
      </trkpt>
      <trkpt lat="48.59608" lon="1.96249">
        <ele>141.45</ele>
        <time>2016-02-02T09:58:33Z</time>
      </trkpt>
      <trkpt lat="48.59612" lon="1.96239">
        <ele>140.49</ele>
        <time>2016-02-02T09:58:39Z</time>
      </trkpt>
      <trkpt lat="48.59616" lon="1.96224">
        <ele>139.05</ele>
        <time>2016-02-02T09:58:48Z</time>
      </trkpt>
      <trkpt lat="48.59621" lon="1.96217">
        <ele>138.09</ele>
        <time>2016-02-02T09:58:55Z</time>
      </trkpt>
      <trkpt lat="48.59627" lon="1.96202">
        <ele>134.72</ele>
        <time>2016-02-02T09:59:03Z</time>
      </trkpt>
      <trkpt lat="48.59635" lon="1.96186">
        <ele>134.72</ele>
        <time>2016-02-02T09:59:13Z</time>
      </trkpt>
      <trkpt lat="48.59642" lon="1.96175">
        <ele>133.28</ele>
        <time>2016-02-02T09:59:20Z</time>
      </trkpt>
      <trkpt lat="48.59647" lon="1.9616">
        <ele>130.88</ele>
        <time>2016-02-02T09:59:29Z</time>
      </trkpt>
      <trkpt lat="48.5965" lon="1.96155">
        <ele>130.88</ele>
        <time>2016-02-02T09:59:33Z</time>
      </trkpt>
      <trkpt lat="48.59659" lon="1.96142">
        <ele>128.47</ele>
        <time>2016-02-02T09:59:41Z</time>
      </trkpt>
      <trkpt lat="48.59663" lon="1.96132">
        <ele>128.47</ele>
        <time>2016-02-02T09:59:47Z</time>
      </trkpt>
      <trkpt lat="48.59669" lon="1.96121">
        <ele>127.99</ele>
        <time>2016-02-02T09:59:55Z</time>
      </trkpt>
      <trkpt lat="48.59679" lon="1.96108">
        <ele>127.51</ele>
        <time>2016-02-02T10:00:05Z</time>
      </trkpt>
      <trkpt lat="48.59681" lon="1.96097">
        <ele>125.59</ele>
        <time>2016-02-02T10:00:11Z</time>
      </trkpt>
      <trkpt lat="48.59689" lon="1.9608">
        <ele>125.11</ele>
        <time>2016-02-02T10:00:20Z</time>
      </trkpt>
      <trkpt lat="48.59695" lon="1.96071">
        <ele>124.63</ele>
        <time>2016-02-02T10:00:27Z</time>
      </trkpt>
      <trkpt lat="48.59697" lon="1.96067">
        <ele>123.67</ele>
        <time>2016-02-02T10:00:29Z</time>
      </trkpt>
      <trkpt lat="48.59702" lon="1.96051">
        <ele>122.71</ele>
        <time>2016-02-02T10:00:38Z</time>
      </trkpt>
      <trkpt lat="48.59708" lon="1.96037">
        <ele>121.26</ele>
        <time>2016-02-02T10:00:46Z</time>
      </trkpt>
      <trkpt lat="48.59712" lon="1.96031">
        <ele>122.71</ele>
        <time>2016-02-02T10:00:50Z</time>
      </trkpt>
      <trkpt lat="48.59719" lon="1.96014">
        <ele>121.26</ele>
        <time>2016-02-02T10:01:00Z</time>
      </trkpt>
      <trkpt lat="48.5972" lon="1.9601">
        <ele>120.78</ele>
        <time>2016-02-02T10:01:02Z</time>
      </trkpt>
      <trkpt lat="48.59729" lon="1.95993">
        <ele>120.3</ele>
        <time>2016-02-02T10:01:12Z</time>
      </trkpt>
      <trkpt lat="48.59729" lon="1.95992">
        <ele>119.82</ele>
        <time>2016-02-02T10:01:14Z</time>
      </trkpt>
      <trkpt lat="48.59732" lon="1.95983">
        <ele>120.3</ele>
        <time>2016-02-02T10:01:19Z</time>
      </trkpt>
      <trkpt lat="48.5974" lon="1.95966">
        <ele>119.82</ele>
        <time>2016-02-02T10:01:29Z</time>
      </trkpt>
      <trkpt lat="48.59745" lon="1.95955">
        <ele>119.82</ele>
        <time>2016-02-02T10:01:36Z</time>
      </trkpt>
      <trkpt lat="48.59751" lon="1.95946">
        <ele>119.82</ele>
        <time>2016-02-02T10:01:44Z</time>
      </trkpt>
      <trkpt lat="48.59755" lon="1.95942">
        <ele>118.86</ele>
        <time>2016-02-02T10:01:50Z</time>
      </trkpt>
      <trkpt lat="48.59756" lon="1.95939">
        <ele>118.86</ele>
        <time>2016-02-02T10:01:52Z</time>
      </trkpt>
      <trkpt lat="48.59761" lon="1.95931">
        <ele>118.38</ele>
        <time>2016-02-02T10:01:59Z</time>
      </trkpt>
      <trkpt lat="48.59762" lon="1.95928">
        <ele>118.38</ele>
        <time>2016-02-02T10:02:04Z</time>
      </trkpt>
      <trkpt lat="48.5977" lon="1.95912">
        <ele>117.42</ele>
        <time>2016-02-02T10:02:12Z</time>
      </trkpt>
      <trkpt lat="48.59772" lon="1.95904">
        <ele>117.42</ele>
        <time>2016-02-02T10:02:17Z</time>
      </trkpt>
      <trkpt lat="48.59778" lon="1.95893">
        <ele>117.42</ele>
        <time>2016-02-02T10:02:23Z</time>
      </trkpt>
      <trkpt lat="48.59784" lon="1.95875">
        <ele>117.9</ele>
        <time>2016-02-02T10:02:31Z</time>
      </trkpt>
      <trkpt lat="48.59791" lon="1.95861">
        <ele>116.46</ele>
        <time>2016-02-02T10:02:39Z</time>
      </trkpt>
      <trkpt lat="48.59791" lon="1.95859">
        <ele>116.46</ele>
        <time>2016-02-02T10:02:40Z</time>
      </trkpt>
      <trkpt lat="48.59795" lon="1.95854">
        <ele>115.98</ele>
        <time>2016-02-02T10:02:43Z</time>
      </trkpt>
      <trkpt lat="48.59802" lon="1.95836">
        <ele>116.46</ele>
        <time>2016-02-02T10:02:52Z</time>
      </trkpt>
      <trkpt lat="48.59806" lon="1.95822">
        <ele>116.46</ele>
        <time>2016-02-02T10:02:58Z</time>
      </trkpt>
      <trkpt lat="48.59814" lon="1.95805">
        <ele>115.98</ele>
        <time>2016-02-02T10:03:07Z</time>
      </trkpt>
      <trkpt lat="48.59823" lon="1.95788">
        <ele>115.98</ele>
        <time>2016-02-02T10:03:16Z</time>
      </trkpt>
      <trkpt lat="48.59833" lon="1.95775">
        <ele>115.5</ele>
        <time>2016-02-02T10:03:24Z</time>
      </trkpt>
      <trkpt lat="48.59839" lon="1.95765">
        <ele>114.05</ele>
        <time>2016-02-02T10:03:32Z</time>
      </trkpt>
      <trkpt lat="48.59844" lon="1.95755">
        <ele>115.01</ele>
        <time>2016-02-02T10:03:38Z</time>
      </trkpt>
      <trkpt lat="48.59845" lon="1.95753">
        <ele>115.01</ele>
        <time>2016-02-02T10:03:41Z</time>
      </trkpt>
      <trkpt lat="48.5985" lon="1.95738">
        <ele>115.5</ele>
        <time>2016-02-02T10:03:50Z</time>
      </trkpt>
      <trkpt lat="48.59855" lon="1.95725">
        <ele>115.01</ele>
        <time>2016-02-02T10:03:58Z</time>
      </trkpt>
      <trkpt lat="48.59861" lon="1.95712">
        <ele>115.01</ele>
        <time>2016-02-02T10:04:05Z</time>
      </trkpt>
      <trkpt lat="48.59861" lon="1.95711">
        <ele>114.53</ele>
        <time>2016-02-02T10:04:06Z</time>
      </trkpt>
      <trkpt lat="48.59868" lon="1.95699">
        <ele>114.53</ele>
        <time>2016-02-02T10:04:15Z</time>
      </trkpt>
      <trkpt lat="48.59869" lon="1.95697">
        <ele>111.17</ele>
        <time>2016-02-02T10:04:17Z</time>
      </trkpt>
      <trkpt lat="48.5987" lon="1.95696">
        <ele>117.42</ele>
        <time>2016-02-02T10:04:18Z</time>
      </trkpt>
      <trkpt lat="48.59871" lon="1.95696">
        <ele>114.05</ele>
        <time>2016-02-02T10:04:19Z</time>
      </trkpt>
      <trkpt lat="48.59872" lon="1.95694">
        <ele>115.01</ele>
        <time>2016-02-02T10:04:28Z</time>
      </trkpt>
      <trkpt lat="48.59871" lon="1.95691">
        <ele>116.46</ele>
        <time>2016-02-02T10:04:38Z</time>
      </trkpt>
      <trkpt lat="48.59872" lon="1.95688">
        <ele>114.53</ele>
        <time>2016-02-02T10:04:45Z</time>
      </trkpt>
      <trkpt lat="48.59874" lon="1.95685">
        <ele>114.53</ele>
        <time>2016-02-02T10:04:51Z</time>
      </trkpt>
      <trkpt lat="48.59878" lon="1.95681">
        <ele>115.01</ele>
        <time>2016-02-02T10:04:58Z</time>
      </trkpt>
      <trkpt lat="48.59883" lon="1.95668">
        <ele>114.05</ele>
        <time>2016-02-02T10:05:04Z</time>
      </trkpt>
      <trkpt lat="48.59887" lon="1.95659">
        <ele>113.57</ele>
        <time>2016-02-02T10:05:08Z</time>
      </trkpt>
      <trkpt lat="48.59895" lon="1.95643">
        <ele>114.05</ele>
        <time>2016-02-02T10:05:17Z</time>
      </trkpt>
      <trkpt lat="48.59902" lon="1.95627">
        <ele>113.57</ele>
        <time>2016-02-02T10:05:24Z</time>
      </trkpt>
      <trkpt lat="48.59906" lon="1.95614">
        <ele>114.53</ele>
        <time>2016-02-02T10:05:31Z</time>
      </trkpt>
      <trkpt lat="48.59907" lon="1.95607">
        <ele>113.57</ele>
        <time>2016-02-02T10:05:34Z</time>
      </trkpt>
      <trkpt lat="48.59913" lon="1.95594">
        <ele>114.53</ele>
        <time>2016-02-02T10:05:40Z</time>
      </trkpt>
      <trkpt lat="48.59915" lon="1.95589">
        <ele>114.05</ele>
        <time>2016-02-02T10:05:43Z</time>
      </trkpt>
      <trkpt lat="48.59918" lon="1.9558">
        <ele>114.53</ele>
        <time>2016-02-02T10:05:48Z</time>
      </trkpt>
      <trkpt lat="48.59925" lon="1.95565">
        <ele>113.57</ele>
        <time>2016-02-02T10:05:56Z</time>
      </trkpt>
      <trkpt lat="48.5993" lon="1.95552">
        <ele>113.09</ele>
        <time>2016-02-02T10:06:03Z</time>
      </trkpt>
      <trkpt lat="48.59934" lon="1.95544">
        <ele>113.57</ele>
        <time>2016-02-02T10:06:08Z</time>
      </trkpt>
      <trkpt lat="48.59939" lon="1.95535">
        <ele>113.09</ele>
        <time>2016-02-02T10:06:13Z</time>
      </trkpt>
      <trkpt lat="48.59945" lon="1.95527">
        <ele>112.13</ele>
        <time>2016-02-02T10:06:20Z</time>
      </trkpt>
      <trkpt lat="48.59951" lon="1.95515">
        <ele>110.69</ele>
        <time>2016-02-02T10:06:27Z</time>
      </trkpt>
      <trkpt lat="48.59958" lon="1.95499">
        <ele>109.73</ele>
        <time>2016-02-02T10:06:36Z</time>
      </trkpt>
      <trkpt lat="48.59962" lon="1.95489">
        <ele>109.25</ele>
        <time>2016-02-02T10:06:43Z</time>
      </trkpt>
      <trkpt lat="48.59964" lon="1.95484">
        <ele>109.25</ele>
        <time>2016-02-02T10:06:46Z</time>
      </trkpt>
      <trkpt lat="48.59969" lon="1.95473">
        <ele>109.25</ele>
        <time>2016-02-02T10:06:52Z</time>
      </trkpt>
      <trkpt lat="48.59973" lon="1.95467">
        <ele>107.81</ele>
        <time>2016-02-02T10:06:56Z</time>
      </trkpt>
      <trkpt lat="48.59979" lon="1.95455">
        <ele>108.29</ele>
        <time>2016-02-02T10:07:05Z</time>
      </trkpt>
      <trkpt lat="48.59982" lon="1.95448">
        <ele>107.81</ele>
        <time>2016-02-02T10:07:09Z</time>
      </trkpt>
      <trkpt lat="48.59989" lon="1.95433">
        <ele>107.32</ele>
        <time>2016-02-02T10:07:18Z</time>
      </trkpt>
      <trkpt lat="48.59994" lon="1.95425">
        <ele>106.84</ele>
        <time>2016-02-02T10:07:22Z</time>
      </trkpt>
      <trkpt lat="48.6" lon="1.95405">
        <ele>107.81</ele>
        <time>2016-02-02T10:07:32Z</time>
      </trkpt>
      <trkpt lat="48.60006" lon="1.95393">
        <ele>105.88</ele>
        <time>2016-02-02T10:07:39Z</time>
      </trkpt>
      <trkpt lat="48.60012" lon="1.95375">
        <ele>105.4</ele>
        <time>2016-02-02T10:07:48Z</time>
      </trkpt>
      <trkpt lat="48.60019" lon="1.95361">
        <ele>107.81</ele>
        <time>2016-02-02T10:07:56Z</time>
      </trkpt>
      <trkpt lat="48.60027" lon="1.95345">
        <ele>108.77</ele>
        <time>2016-02-02T10:08:06Z</time>
      </trkpt>
      <trkpt lat="48.60033" lon="1.95336">
        <ele>108.29</ele>
        <time>2016-02-02T10:08:13Z</time>
      </trkpt>
      <trkpt lat="48.60035" lon="1.95331">
        <ele>107.81</ele>
        <time>2016-02-02T10:08:16Z</time>
      </trkpt>
      <trkpt lat="48.60042" lon="1.95318">
        <ele>106.36</ele>
        <time>2016-02-02T10:08:24Z</time>
      </trkpt>
      <trkpt lat="48.6005" lon="1.95308">
        <ele>105.88</ele>
        <time>2016-02-02T10:08:33Z</time>
      </trkpt>
      <trkpt lat="48.60058" lon="1.95304">
        <ele>106.36</ele>
        <time>2016-02-02T10:08:40Z</time>
      </trkpt>
      <trkpt lat="48.60067" lon="1.95292">
        <ele>105.88</ele>
        <time>2016-02-02T10:08:48Z</time>
      </trkpt>
      <trkpt lat="48.60072" lon="1.95284">
        <ele>106.36</ele>
        <time>2016-02-02T10:08:55Z</time>
      </trkpt>
      <trkpt lat="48.60074" lon="1.95284">
        <ele>106.84</ele>
        <time>2016-02-02T10:09:06Z</time>
      </trkpt>
      <trkpt lat="48.60076" lon="1.95284">
        <ele>106.36</ele>
        <time>2016-02-02T10:09:08Z</time>
      </trkpt>
      <trkpt lat="48.60086" lon="1.95294">
        <ele>106.36</ele>
        <time>2016-02-02T10:09:17Z</time>
      </trkpt>
      <trkpt lat="48.60094" lon="1.95301">
        <ele>106.36</ele>
        <time>2016-02-02T10:09:26Z</time>
      </trkpt>
      <trkpt lat="48.60095" lon="1.95302">
        <ele>105.88</ele>
        <time>2016-02-02T10:09:27Z</time>
      </trkpt>
      <trkpt lat="48.60099" lon="1.95307">
        <ele>106.36</ele>
        <time>2016-02-02T10:09:31Z</time>
      </trkpt>
      <trkpt lat="48.60114" lon="1.95318">
        <ele>105.88</ele>
        <time>2016-02-02T10:09:38Z</time>
      </trkpt>
      <trkpt lat="48.60125" lon="1.95329">
        <ele>105.4</ele>
        <time>2016-02-02T10:09:49Z</time>
      </trkpt>
      <trkpt lat="48.6013" lon="1.95338">
        <ele>105.4</ele>
        <time>2016-02-02T10:09:56Z</time>
      </trkpt>
      <trkpt lat="48.60138" lon="1.95348">
        <ele>105.4</ele>
        <time>2016-02-02T10:10:04Z</time>
      </trkpt>
      <trkpt lat="48.60138" lon="1.95349">
        <ele>105.4</ele>
        <time>2016-02-02T10:10:05Z</time>
      </trkpt>
      <trkpt lat="48.60151" lon="1.95361">
        <ele>105.4</ele>
        <time>2016-02-02T10:10:14Z</time>
      </trkpt>
      <trkpt lat="48.60165" lon="1.9537">
        <ele>105.4</ele>
        <time>2016-02-02T10:10:21Z</time>
      </trkpt>
      <trkpt lat="48.6017" lon="1.95378">
        <ele>104.44</ele>
        <time>2016-02-02T10:10:26Z</time>
      </trkpt>
      <trkpt lat="48.60177" lon="1.95385">
        <ele>104.44</ele>
        <time>2016-02-02T10:10:31Z</time>
      </trkpt>
      <trkpt lat="48.60183" lon="1.95398">
        <ele>104.44</ele>
        <time>2016-02-02T10:10:39Z</time>
      </trkpt>
      <trkpt lat="48.60185" lon="1.95399">
        <ele>103.96</ele>
        <time>2016-02-02T10:10:41Z</time>
      </trkpt>
      <trkpt lat="48.60197" lon="1.95409">
        <ele>104.44</ele>
        <time>2016-02-02T10:10:49Z</time>
      </trkpt>
      <trkpt lat="48.60208" lon="1.95422">
        <ele>104.92</ele>
        <time>2016-02-02T10:10:59Z</time>
      </trkpt>
      <trkpt lat="48.60214" lon="1.95431">
        <ele>105.4</ele>
        <time>2016-02-02T10:11:07Z</time>
      </trkpt>
      <trkpt lat="48.60216" lon="1.95433">
        <ele>104.92</ele>
        <time>2016-02-02T10:11:09Z</time>
      </trkpt>
      <trkpt lat="48.6023" lon="1.95446">
        <ele>105.4</ele>
        <time>2016-02-02T10:11:20Z</time>
      </trkpt>
      <trkpt lat="48.60231" lon="1.95448">
        <ele>104.92</ele>
        <time>2016-02-02T10:11:21Z</time>
      </trkpt>
      <trkpt lat="48.60238" lon="1.95457">
        <ele>104.44</ele>
        <time>2016-02-02T10:11:29Z</time>
      </trkpt>
      <trkpt lat="48.60244" lon="1.95461">
        <ele>104.92</ele>
        <time>2016-02-02T10:11:33Z</time>
      </trkpt>
      <trkpt lat="48.60256" lon="1.95473">
        <ele>103.96</ele>
        <time>2016-02-02T10:11:42Z</time>
      </trkpt>
      <trkpt lat="48.60258" lon="1.95477">
        <ele>103.96</ele>
        <time>2016-02-02T10:11:44Z</time>
      </trkpt>
      <trkpt lat="48.60266" lon="1.95495">
        <ele>102.52</ele>
        <time>2016-02-02T10:11:52Z</time>
      </trkpt>
      <trkpt lat="48.60275" lon="1.95503">
        <ele>104.92</ele>
        <time>2016-02-02T10:12:01Z</time>
      </trkpt>
      <trkpt lat="48.60277" lon="1.95504">
        <ele>103.96</ele>
        <time>2016-02-02T10:12:03Z</time>
      </trkpt>
      <trkpt lat="48.60282" lon="1.95503">
        <ele>104.44</ele>
        <time>2016-02-02T10:12:07Z</time>
      </trkpt>
      <trkpt lat="48.60293" lon="1.95507">
        <ele>104.44</ele>
        <time>2016-02-02T10:12:15Z</time>
      </trkpt>
      <trkpt lat="48.603" lon="1.95521">
        <ele>104.44</ele>
        <time>2016-02-02T10:12:23Z</time>
      </trkpt>
      <trkpt lat="48.60303" lon="1.95525">
        <ele>104.44</ele>
        <time>2016-02-02T10:12:26Z</time>
      </trkpt>
      <trkpt lat="48.60311" lon="1.95533">
        <ele>104.44</ele>
        <time>2016-02-02T10:12:35Z</time>
      </trkpt>
      <trkpt lat="48.60311" lon="1.95536">
        <ele>105.4</ele>
        <time>2016-02-02T10:12:36Z</time>
      </trkpt>
      <trkpt lat="48.60321" lon="1.95548">
        <ele>105.4</ele>
        <time>2016-02-02T10:12:45Z</time>
      </trkpt>
      <trkpt lat="48.60327" lon="1.95555">
        <ele>105.4</ele>
        <time>2016-02-02T10:12:51Z</time>
      </trkpt>
      <trkpt lat="48.60333" lon="1.95565">
        <ele>105.88</ele>
        <time>2016-02-02T10:12:58Z</time>
      </trkpt>
      <trkpt lat="48.60338" lon="1.9557">
        <ele>105.4</ele>
        <time>2016-02-02T10:13:04Z</time>
      </trkpt>
      <trkpt lat="48.60344" lon="1.95576">
        <ele>105.88</ele>
        <time>2016-02-02T10:13:11Z</time>
      </trkpt>
      <trkpt lat="48.60348" lon="1.95581">
        <ele>104.92</ele>
        <time>2016-02-02T10:13:16Z</time>
      </trkpt>
      <trkpt lat="48.60355" lon="1.95587">
        <ele>104.92</ele>
        <time>2016-02-02T10:13:23Z</time>
      </trkpt>
      <trkpt lat="48.60363" lon="1.95597">
        <ele>105.4</ele>
        <time>2016-02-02T10:13:32Z</time>
      </trkpt>
      <trkpt lat="48.60365" lon="1.95597">
        <ele>105.4</ele>
        <time>2016-02-02T10:13:42Z</time>
      </trkpt>
      <trkpt lat="48.60366" lon="1.95598">
        <ele>105.4</ele>
        <time>2016-02-02T10:13:51Z</time>
      </trkpt>
      <trkpt lat="48.60362" lon="1.95604">
        <ele>105.88</ele>
        <time>2016-02-02T10:14:01Z</time>
      </trkpt>
      <trkpt lat="48.60359" lon="1.95611">
        <ele>105.4</ele>
        <time>2016-02-02T10:14:06Z</time>
      </trkpt>
      <trkpt lat="48.60351" lon="1.95632">
        <ele>104.92</ele>
        <time>2016-02-02T10:14:15Z</time>
      </trkpt>
      <trkpt lat="48.60349" lon="1.95639">
        <ele>104.44</ele>
        <time>2016-02-02T10:14:19Z</time>
      </trkpt>
      <trkpt lat="48.60342" lon="1.95667">
        <ele>105.4</ele>
        <time>2016-02-02T10:14:28Z</time>
      </trkpt>
      <trkpt lat="48.60333" lon="1.95687">
        <ele>105.4</ele>
        <time>2016-02-02T10:14:37Z</time>
      </trkpt>
      <trkpt lat="48.60321" lon="1.95704">
        <ele>104.92</ele>
        <time>2016-02-02T10:14:48Z</time>
      </trkpt>
      <trkpt lat="48.60314" lon="1.95718">
        <ele>104.92</ele>
        <time>2016-02-02T10:14:56Z</time>
      </trkpt>
      <trkpt lat="48.60308" lon="1.95734">
        <ele>105.4</ele>
        <time>2016-02-02T10:15:04Z</time>
      </trkpt>
      <trkpt lat="48.60305" lon="1.9574">
        <ele>105.88</ele>
        <time>2016-02-02T10:15:07Z</time>
      </trkpt>
      <trkpt lat="48.60295" lon="1.95751">
        <ele>105.88</ele>
        <time>2016-02-02T10:15:16Z</time>
      </trkpt>
      <trkpt lat="48.60294" lon="1.95753">
        <ele>105.88</ele>
        <time>2016-02-02T10:15:17Z</time>
      </trkpt>
      <trkpt lat="48.60289" lon="1.95767">
        <ele>106.84</ele>
        <time>2016-02-02T10:15:25Z</time>
      </trkpt>
      <trkpt lat="48.60285" lon="1.95777">
        <ele>106.36</ele>
        <time>2016-02-02T10:15:33Z</time>
      </trkpt>
      <trkpt lat="48.6028" lon="1.95787">
        <ele>106.84</ele>
        <time>2016-02-02T10:15:41Z</time>
      </trkpt>
      <trkpt lat="48.60279" lon="1.95791">
        <ele>106.36</ele>
        <time>2016-02-02T10:15:43Z</time>
      </trkpt>
      <trkpt lat="48.60271" lon="1.95813">
        <ele>106.36</ele>
        <time>2016-02-02T10:15:53Z</time>
      </trkpt>
      <trkpt lat="48.60262" lon="1.95832">
        <ele>107.32</ele>
        <time>2016-02-02T10:16:01Z</time>
      </trkpt>
      <trkpt lat="48.60256" lon="1.95842">
        <ele>107.81</ele>
        <time>2016-02-02T10:16:08Z</time>
      </trkpt>
      <trkpt lat="48.60249" lon="1.95853">
        <ele>107.81</ele>
        <time>2016-02-02T10:16:16Z</time>
      </trkpt>
      <trkpt lat="48.60245" lon="1.95868">
        <ele>107.32</ele>
        <time>2016-02-02T10:16:23Z</time>
      </trkpt>
      <trkpt lat="48.60242" lon="1.95873">
        <ele>109.25</ele>
        <time>2016-02-02T10:16:26Z</time>
      </trkpt>
      <trkpt lat="48.60236" lon="1.95883">
        <ele>109.73</ele>
        <time>2016-02-02T10:16:35Z</time>
      </trkpt>
      <trkpt lat="48.60229" lon="1.95894">
        <ele>111.17</ele>
        <time>2016-02-02T10:16:42Z</time>
      </trkpt>
      <trkpt lat="48.60221" lon="1.95908">
        <ele>112.13</ele>
        <time>2016-02-02T10:16:50Z</time>
      </trkpt>
      <trkpt lat="48.60215" lon="1.95923">
        <ele>113.09</ele>
        <time>2016-02-02T10:16:59Z</time>
      </trkpt>
      <trkpt lat="48.60209" lon="1.95936">
        <ele>115.98</ele>
        <time>2016-02-02T10:17:07Z</time>
      </trkpt>
      <trkpt lat="48.60202" lon="1.95947">
        <ele>116.46</ele>
        <time>2016-02-02T10:17:14Z</time>
      </trkpt>
      <trkpt lat="48.60196" lon="1.95959">
        <ele>116.94</ele>
        <time>2016-02-02T10:17:21Z</time>
      </trkpt>
      <trkpt lat="48.60193" lon="1.95967">
        <ele>118.38</ele>
        <time>2016-02-02T10:17:26Z</time>
      </trkpt>
      <trkpt lat="48.60192" lon="1.9597">
        <ele>117.9</ele>
        <time>2016-02-02T10:17:28Z</time>
      </trkpt>
      <trkpt lat="48.60187" lon="1.95981">
        <ele>120.3</ele>
        <time>2016-02-02T10:17:36Z</time>
      </trkpt>
      <trkpt lat="48.60186" lon="1.95982">
        <ele>118.86</ele>
        <time>2016-02-02T10:17:40Z</time>
      </trkpt>
      <trkpt lat="48.60183" lon="1.9599">
        <ele>118.86</ele>
        <time>2016-02-02T10:17:48Z</time>
      </trkpt>
      <trkpt lat="48.60177" lon="1.95999">
        <ele>118.86</ele>
        <time>2016-02-02T10:17:57Z</time>
      </trkpt>
      <trkpt lat="48.60174" lon="1.96006">
        <ele>118.86</ele>
        <time>2016-02-02T10:18:02Z</time>
      </trkpt>
      <trkpt lat="48.60167" lon="1.96016">
        <ele>118.38</ele>
        <time>2016-02-02T10:18:11Z</time>
      </trkpt>
      <trkpt lat="48.60161" lon="1.96031">
        <ele>117.42</ele>
        <time>2016-02-02T10:18:17Z</time>
      </trkpt>
      <trkpt lat="48.60159" lon="1.96036">
        <ele>116.94</ele>
        <time>2016-02-02T10:18:20Z</time>
      </trkpt>
      <trkpt lat="48.60157" lon="1.96044">
        <ele>116.46</ele>
        <time>2016-02-02T10:18:29Z</time>
      </trkpt>
      <trkpt lat="48.60152" lon="1.96051">
        <ele>116.46</ele>
        <time>2016-02-02T10:18:37Z</time>
      </trkpt>
      <trkpt lat="48.60149" lon="1.96051">
        <ele>116.46</ele>
        <time>2016-02-02T10:18:46Z</time>
      </trkpt>
      <trkpt lat="48.60147" lon="1.9606">
        <ele>117.42</ele>
        <time>2016-02-02T10:18:55Z</time>
      </trkpt>
      <trkpt lat="48.60147" lon="1.96061">
        <ele>116.94</ele>
        <time>2016-02-02T10:19:07Z</time>
      </trkpt>
      <trkpt lat="48.60149" lon="1.96065">
        <ele>116.94</ele>
        <time>2016-02-02T10:19:16Z</time>
      </trkpt>
      <trkpt lat="48.6015" lon="1.96079">
        <ele>117.42</ele>
        <time>2016-02-02T10:19:24Z</time>
      </trkpt>
      <trkpt lat="48.60151" lon="1.96083">
        <ele>117.9</ele>
        <time>2016-02-02T10:19:26Z</time>
      </trkpt>
      <trkpt lat="48.60151" lon="1.96089">
        <ele>118.38</ele>
        <time>2016-02-02T10:19:30Z</time>
      </trkpt>
      <trkpt lat="48.60151" lon="1.96099">
        <ele>118.86</ele>
        <time>2016-02-02T10:19:36Z</time>
      </trkpt>
      <trkpt lat="48.60151" lon="1.961">
        <ele>119.82</ele>
        <time>2016-02-02T10:19:37Z</time>
      </trkpt>
      <trkpt lat="48.6015" lon="1.96109">
        <ele>119.34</ele>
        <time>2016-02-02T10:19:43Z</time>
      </trkpt>
      <trkpt lat="48.60152" lon="1.96114">
        <ele>119.82</ele>
        <time>2016-02-02T10:19:45Z</time>
      </trkpt>
      <trkpt lat="48.60154" lon="1.96118">
        <ele>119.82</ele>
        <time>2016-02-02T10:19:48Z</time>
      </trkpt>
      <trkpt lat="48.60155" lon="1.96134">
        <ele>120.3</ele>
        <time>2016-02-02T10:19:56Z</time>
      </trkpt>
      <trkpt lat="48.60155" lon="1.96141">
        <ele>120.78</ele>
        <time>2016-02-02T10:20:00Z</time>
      </trkpt>
      <trkpt lat="48.60156" lon="1.96152">
        <ele>119.82</ele>
        <time>2016-02-02T10:20:07Z</time>
      </trkpt>
      <trkpt lat="48.60155" lon="1.96154">
        <ele>122.22</ele>
        <time>2016-02-02T10:20:09Z</time>
      </trkpt>
      <trkpt lat="48.60154" lon="1.96164">
        <ele>121.26</ele>
        <time>2016-02-02T10:20:14Z</time>
      </trkpt>
      <trkpt lat="48.60153" lon="1.96172">
        <ele>121.74</ele>
        <time>2016-02-02T10:20:18Z</time>
      </trkpt>
      <trkpt lat="48.60154" lon="1.9618">
        <ele>121.74</ele>
        <time>2016-02-02T10:20:21Z</time>
      </trkpt>
      <trkpt lat="48.60153" lon="1.96186">
        <ele>121.74</ele>
        <time>2016-02-02T10:20:24Z</time>
      </trkpt>
      <trkpt lat="48.60152" lon="1.962">
        <ele>122.71</ele>
        <time>2016-02-02T10:20:31Z</time>
      </trkpt>
      <trkpt lat="48.60153" lon="1.96222">
        <ele>123.67</ele>
        <time>2016-02-02T10:20:40Z</time>
      </trkpt>
      <trkpt lat="48.60151" lon="1.96232">
        <ele>124.63</ele>
        <time>2016-02-02T10:20:45Z</time>
      </trkpt>
      <trkpt lat="48.60153" lon="1.96244">
        <ele>125.11</ele>
        <time>2016-02-02T10:20:52Z</time>
      </trkpt>
      <trkpt lat="48.60161" lon="1.96259">
        <ele>126.55</ele>
        <time>2016-02-02T10:21:00Z</time>
      </trkpt>
      <trkpt lat="48.60166" lon="1.96264">
        <ele>127.51</ele>
        <time>2016-02-02T10:21:06Z</time>
      </trkpt>
      <trkpt lat="48.60167" lon="1.96269">
        <ele>127.51</ele>
        <time>2016-02-02T10:21:09Z</time>
      </trkpt>
      <trkpt lat="48.60168" lon="1.96272">
        <ele>127.99</ele>
        <time>2016-02-02T10:21:11Z</time>
      </trkpt>
      <trkpt lat="48.60175" lon="1.96287">
        <ele>128.47</ele>
        <time>2016-02-02T10:21:21Z</time>
      </trkpt>
      <trkpt lat="48.60181" lon="1.96302">
        <ele>129.43</ele>
        <time>2016-02-02T10:21:29Z</time>
      </trkpt>
      <trkpt lat="48.60181" lon="1.96306">
        <ele>130.4</ele>
        <time>2016-02-02T10:21:31Z</time>
      </trkpt>
      <trkpt lat="48.60185" lon="1.96319">
        <ele>130.88</ele>
        <time>2016-02-02T10:21:38Z</time>
      </trkpt>
      <trkpt lat="48.60186" lon="1.96336">
        <ele>131.36</ele>
        <time>2016-02-02T10:21:46Z</time>
      </trkpt>
      <trkpt lat="48.60186" lon="1.9634">
        <ele>131.84</ele>
        <time>2016-02-02T10:21:48Z</time>
      </trkpt>
      <trkpt lat="48.60188" lon="1.96353">
        <ele>132.32</ele>
        <time>2016-02-02T10:21:54Z</time>
      </trkpt>
      <trkpt lat="48.60192" lon="1.96366">
        <ele>132.8</ele>
        <time>2016-02-02T10:22:01Z</time>
      </trkpt>
      <trkpt lat="48.60198" lon="1.96379">
        <ele>132.32</ele>
        <time>2016-02-02T10:22:09Z</time>
      </trkpt>
      <trkpt lat="48.602" lon="1.96381">
        <ele>133.28</ele>
        <time>2016-02-02T10:22:11Z</time>
      </trkpt>
      <trkpt lat="48.60201" lon="1.96397">
        <ele>132.8</ele>
        <time>2016-02-02T10:22:19Z</time>
      </trkpt>
      <trkpt lat="48.60202" lon="1.96402">
        <ele>132.32</ele>
        <time>2016-02-02T10:22:21Z</time>
      </trkpt>
      <trkpt lat="48.60202" lon="1.9642">
        <ele>131.84</ele>
        <time>2016-02-02T10:22:30Z</time>
      </trkpt>
      <trkpt lat="48.60202" lon="1.96426">
        <ele>131.84</ele>
        <time>2016-02-02T10:22:33Z</time>
      </trkpt>
      <trkpt lat="48.60203" lon="1.96436">
        <ele>131.84</ele>
        <time>2016-02-02T10:22:37Z</time>
      </trkpt>
      <trkpt lat="48.60205" lon="1.9645">
        <ele>130.88</ele>
        <time>2016-02-02T10:22:43Z</time>
      </trkpt>
      <trkpt lat="48.60206" lon="1.96451">
        <ele>130.88</ele>
        <time>2016-02-02T10:22:44Z</time>
      </trkpt>
      <trkpt lat="48.60208" lon="1.96459">
        <ele>130.88</ele>
        <time>2016-02-02T10:22:48Z</time>
      </trkpt>
      <trkpt lat="48.60214" lon="1.96477">
        <ele>130.4</ele>
        <time>2016-02-02T10:22:58Z</time>
      </trkpt>
      <trkpt lat="48.60215" lon="1.96479">
        <ele>130.4</ele>
        <time>2016-02-02T10:22:59Z</time>
      </trkpt>
      <trkpt lat="48.60215" lon="1.96484">
        <ele>130.4</ele>
        <time>2016-02-02T10:23:01Z</time>
      </trkpt>
      <trkpt lat="48.60216" lon="1.96504">
        <ele>129.43</ele>
        <time>2016-02-02T10:23:09Z</time>
      </trkpt>
      <trkpt lat="48.60214" lon="1.96512">
        <ele>129.43</ele>
        <time>2016-02-02T10:23:14Z</time>
      </trkpt>
      <trkpt lat="48.60213" lon="1.96529">
        <ele>129.43</ele>
        <time>2016-02-02T10:23:22Z</time>
      </trkpt>
      <trkpt lat="48.60212" lon="1.96543">
        <ele>128.47</ele>
        <time>2016-02-02T10:23:29Z</time>
      </trkpt>
      <trkpt lat="48.60213" lon="1.96549">
        <ele>127.99</ele>
        <time>2016-02-02T10:23:32Z</time>
      </trkpt>
      <trkpt lat="48.60214" lon="1.96555">
        <ele>127.51</ele>
        <time>2016-02-02T10:23:35Z</time>
      </trkpt>
      <trkpt lat="48.60213" lon="1.96571">
        <ele>127.51</ele>
        <time>2016-02-02T10:23:44Z</time>
      </trkpt>
      <trkpt lat="48.60213" lon="1.96573">
        <ele>127.51</ele>
        <time>2016-02-02T10:23:45Z</time>
      </trkpt>
      <trkpt lat="48.6021" lon="1.96596">
        <ele>126.55</ele>
        <time>2016-02-02T10:23:54Z</time>
      </trkpt>
      <trkpt lat="48.60207" lon="1.96613">
        <ele>126.07</ele>
        <time>2016-02-02T10:24:03Z</time>
      </trkpt>
      <trkpt lat="48.60206" lon="1.96615">
        <ele>126.07</ele>
        <time>2016-02-02T10:24:04Z</time>
      </trkpt>
      <trkpt lat="48.60204" lon="1.96631">
        <ele>125.59</ele>
        <time>2016-02-02T10:24:12Z</time>
      </trkpt>
      <trkpt lat="48.60204" lon="1.96645">
        <ele>125.59</ele>
        <time>2016-02-02T10:24:19Z</time>
      </trkpt>
      <trkpt lat="48.60204" lon="1.96661">
        <ele>125.59</ele>
        <time>2016-02-02T10:24:27Z</time>
      </trkpt>
      <trkpt lat="48.60203" lon="1.96663">
        <ele>125.59</ele>
        <time>2016-02-02T10:24:28Z</time>
      </trkpt>
      <trkpt lat="48.60203" lon="1.96667">
        <ele>125.11</ele>
        <time>2016-02-02T10:24:30Z</time>
      </trkpt>
      <trkpt lat="48.60206" lon="1.96692">
        <ele>124.63</ele>
        <time>2016-02-02T10:24:40Z</time>
      </trkpt>
      <trkpt lat="48.60207" lon="1.96711">
        <ele>123.67</ele>
        <time>2016-02-02T10:24:49Z</time>
      </trkpt>
      <trkpt lat="48.60211" lon="1.96723">
        <ele>123.19</ele>
        <time>2016-02-02T10:24:56Z</time>
      </trkpt>
      <trkpt lat="48.60212" lon="1.9674">
        <ele>123.19</ele>
        <time>2016-02-02T10:25:04Z</time>
      </trkpt>
      <trkpt lat="48.60217" lon="1.96756">
        <ele>122.71</ele>
        <time>2016-02-02T10:25:13Z</time>
      </trkpt>
      <trkpt lat="48.60217" lon="1.96777">
        <ele>122.71</ele>
        <time>2016-02-02T10:25:22Z</time>
      </trkpt>
      <trkpt lat="48.6022" lon="1.96792">
        <ele>122.22</ele>
        <time>2016-02-02T10:25:30Z</time>
      </trkpt>
      <trkpt lat="48.60225" lon="1.96804">
        <ele>122.22</ele>
        <time>2016-02-02T10:25:34Z</time>
      </trkpt>
      <trkpt lat="48.6023" lon="1.9682">
        <ele>121.74</ele>
        <time>2016-02-02T10:25:41Z</time>
      </trkpt>
      <trkpt lat="48.60234" lon="1.96832">
        <ele>121.74</ele>
        <time>2016-02-02T10:25:48Z</time>
      </trkpt>
      <trkpt lat="48.60242" lon="1.96857">
        <ele>120.3</ele>
        <time>2016-02-02T10:26:00Z</time>
      </trkpt>
      <trkpt lat="48.60243" lon="1.96859">
        <ele>120.3</ele>
        <time>2016-02-02T10:26:01Z</time>
      </trkpt>
      <trkpt lat="48.60247" lon="1.96869">
        <ele>119.82</ele>
        <time>2016-02-02T10:26:06Z</time>
      </trkpt>
      <trkpt lat="48.60251" lon="1.96882">
        <ele>119.34</ele>
        <time>2016-02-02T10:26:12Z</time>
      </trkpt>
      <trkpt lat="48.60254" lon="1.96894">
        <ele>118.86</ele>
        <time>2016-02-02T10:26:20Z</time>
      </trkpt>
      <trkpt lat="48.60255" lon="1.96902">
        <ele>118.86</ele>
        <time>2016-02-02T10:26:25Z</time>
      </trkpt>
      <trkpt lat="48.6026" lon="1.96917">
        <ele>118.86</ele>
        <time>2016-02-02T10:26:33Z</time>
      </trkpt>
      <trkpt lat="48.60264" lon="1.96927">
        <ele>118.38</ele>
        <time>2016-02-02T10:26:38Z</time>
      </trkpt>
      <trkpt lat="48.60271" lon="1.96942">
        <ele>118.38</ele>
        <time>2016-02-02T10:26:46Z</time>
      </trkpt>
      <trkpt lat="48.60272" lon="1.96944">
        <ele>117.9</ele>
        <time>2016-02-02T10:26:47Z</time>
      </trkpt>
      <trkpt lat="48.60276" lon="1.9695">
        <ele>117.42</ele>
        <time>2016-02-02T10:26:50Z</time>
      </trkpt>
      <trkpt lat="48.6028" lon="1.96961">
        <ele>117.42</ele>
        <time>2016-02-02T10:26:55Z</time>
      </trkpt>
      <trkpt lat="48.60286" lon="1.96976">
        <ele>117.42</ele>
        <time>2016-02-02T10:27:03Z</time>
      </trkpt>
      <trkpt lat="48.60289" lon="1.96982">
        <ele>116.94</ele>
        <time>2016-02-02T10:27:06Z</time>
      </trkpt>
      <trkpt lat="48.60297" lon="1.97001">
        <ele>116.46</ele>
        <time>2016-02-02T10:27:14Z</time>
      </trkpt>
      <trkpt lat="48.603" lon="1.97011">
        <ele>116.46</ele>
        <time>2016-02-02T10:27:22Z</time>
      </trkpt>
      <trkpt lat="48.60299" lon="1.97011">
        <ele>116.46</ele>
        <time>2016-02-02T10:27:31Z</time>
      </trkpt>
      <trkpt lat="48.60298" lon="1.97011">
        <ele>116.46</ele>
        <time>2016-02-02T10:27:47Z</time>
      </trkpt>
      <trkpt lat="48.60299" lon="1.9701">
        <ele>116.46</ele>
        <time>2016-02-02T10:27:48Z</time>
      </trkpt>
      <trkpt lat="48.60301" lon="1.97011">
        <ele>116.46</ele>
        <time>2016-02-02T10:27:50Z</time>
      </trkpt>
      <trkpt lat="48.60306" lon="1.9702">
        <ele>116.94</ele>
        <time>2016-02-02T10:27:58Z</time>
      </trkpt>
      <trkpt lat="48.60306" lon="1.97021">
        <ele>116.46</ele>
        <time>2016-02-02T10:28:12Z</time>
      </trkpt>
      <trkpt lat="48.60305" lon="1.97021">
        <ele>116.94</ele>
        <time>2016-02-02T10:28:29Z</time>
      </trkpt>
      <trkpt lat="48.60305" lon="1.97021">
        <ele>116.94</ele>
        <time>2016-02-02T10:28:44Z</time>
      </trkpt>
      <trkpt lat="48.60305" lon="1.97021">
        <ele>116.46</ele>
        <time>2016-02-02T10:28:55Z</time>
      </trkpt>
      <trkpt lat="48.60304" lon="1.97013">
        <ele>117.42</ele>
        <time>2016-02-02T10:29:00Z</time>
      </trkpt>
      <trkpt lat="48.60308" lon="1.96989">
        <ele>117.42</ele>
        <time>2016-02-02T10:29:10Z</time>
      </trkpt>
      <trkpt lat="48.60309" lon="1.96985">
        <ele>117.42</ele>
        <time>2016-02-02T10:29:13Z</time>
      </trkpt>
      <trkpt lat="48.60315" lon="1.96967">
        <ele>119.34</ele>
        <time>2016-02-02T10:29:22Z</time>
      </trkpt>
      <trkpt lat="48.60323" lon="1.96951">
        <ele>120.3</ele>
        <time>2016-02-02T10:29:31Z</time>
      </trkpt>
      <trkpt lat="48.60324" lon="1.96948">
        <ele>120.3</ele>
        <time>2016-02-02T10:29:33Z</time>
      </trkpt>
      <trkpt lat="48.60333" lon="1.96928">
        <ele>122.71</ele>
        <time>2016-02-02T10:29:44Z</time>
      </trkpt>
      <trkpt lat="48.6034" lon="1.96917">
        <ele>123.67</ele>
        <time>2016-02-02T10:29:52Z</time>
      </trkpt>
      <trkpt lat="48.60342" lon="1.96914">
        <ele>124.63</ele>
        <time>2016-02-02T10:29:54Z</time>
      </trkpt>
      <trkpt lat="48.60349" lon="1.96901">
        <ele>126.07</ele>
        <time>2016-02-02T10:30:01Z</time>
      </trkpt>
      <trkpt lat="48.60353" lon="1.96893">
        <ele>127.03</ele>
        <time>2016-02-02T10:30:06Z</time>
      </trkpt>
      <trkpt lat="48.60357" lon="1.96885">
        <ele>129.43</ele>
        <time>2016-02-02T10:30:11Z</time>
      </trkpt>
      <trkpt lat="48.60361" lon="1.96874">
        <ele>130.88</ele>
        <time>2016-02-02T10:30:19Z</time>
      </trkpt>
      <trkpt lat="48.60363" lon="1.9687">
        <ele>132.32</ele>
        <time>2016-02-02T10:30:22Z</time>
      </trkpt>
      <trkpt lat="48.60368" lon="1.96855">
        <ele>134.72</ele>
        <time>2016-02-02T10:30:30Z</time>
      </trkpt>
      <trkpt lat="48.60368" lon="1.96853">
        <ele>134.72</ele>
        <time>2016-02-02T10:30:31Z</time>
      </trkpt>
      <trkpt lat="48.60372" lon="1.96846">
        <ele>135.68</ele>
        <time>2016-02-02T10:30:36Z</time>
      </trkpt>
      <trkpt lat="48.60378" lon="1.96837">
        <ele>137.13</ele>
        <time>2016-02-02T10:30:43Z</time>
      </trkpt>
      <trkpt lat="48.60385" lon="1.96826">
        <ele>137.61</ele>
        <time>2016-02-02T10:30:50Z</time>
      </trkpt>
      <trkpt lat="48.60393" lon="1.96812">
        <ele>138.09</ele>
        <time>2016-02-02T10:31:00Z</time>
      </trkpt>
      <trkpt lat="48.60398" lon="1.96798">
        <ele>138.09</ele>
        <time>2016-02-02T10:31:09Z</time>
      </trkpt>
      <trkpt lat="48.60403" lon="1.96785">
        <ele>138.09</ele>
        <time>2016-02-02T10:31:17Z</time>
      </trkpt>
      <trkpt lat="48.60404" lon="1.96778">
        <ele>138.57</ele>
        <time>2016-02-02T10:31:21Z</time>
      </trkpt>
      <trkpt lat="48.60411" lon="1.96761">
        <ele>138.57</ele>
        <time>2016-02-02T10:31:30Z</time>
      </trkpt>
      <trkpt lat="48.60411" lon="1.96752">
        <ele>138.57</ele>
        <time>2016-02-02T10:31:34Z</time>
      </trkpt>
      <trkpt lat="48.60418" lon="1.96734">
        <ele>138.09</ele>
        <time>2016-02-02T10:31:45Z</time>
      </trkpt>
      <trkpt lat="48.60424" lon="1.96725">
        <ele>137.61</ele>
        <time>2016-02-02T10:31:53Z</time>
      </trkpt>
      <trkpt lat="48.60432" lon="1.96713">
        <ele>137.61</ele>
        <time>2016-02-02T10:32:01Z</time>
      </trkpt>
      <trkpt lat="48.60438" lon="1.967">
        <ele>136.64</ele>
        <time>2016-02-02T10:32:08Z</time>
      </trkpt>
      <trkpt lat="48.60446" lon="1.96683">
        <ele>136.16</ele>
        <time>2016-02-02T10:32:18Z</time>
      </trkpt>
      <trkpt lat="48.60448" lon="1.96679">
        <ele>136.16</ele>
        <time>2016-02-02T10:32:20Z</time>
      </trkpt>
      <trkpt lat="48.60453" lon="1.96663">
        <ele>135.68</ele>
        <time>2016-02-02T10:32:29Z</time>
      </trkpt>
      <trkpt lat="48.60459" lon="1.9665">
        <ele>135.2</ele>
        <time>2016-02-02T10:32:37Z</time>
      </trkpt>
      <trkpt lat="48.60465" lon="1.96644">
        <ele>135.2</ele>
        <time>2016-02-02T10:32:45Z</time>
      </trkpt>
      <trkpt lat="48.6047" lon="1.96636">
        <ele>135.2</ele>
        <time>2016-02-02T10:32:50Z</time>
      </trkpt>
      <trkpt lat="48.60477" lon="1.96619">
        <ele>134.72</ele>
        <time>2016-02-02T10:33:00Z</time>
      </trkpt>
      <trkpt lat="48.60483" lon="1.96606">
        <ele>135.2</ele>
        <time>2016-02-02T10:33:08Z</time>
      </trkpt>
      <trkpt lat="48.60492" lon="1.96588">
        <ele>134.72</ele>
        <time>2016-02-02T10:33:18Z</time>
      </trkpt>
      <trkpt lat="48.60494" lon="1.96578">
        <ele>134.72</ele>
        <time>2016-02-02T10:33:27Z</time>
      </trkpt>
      <trkpt lat="48.60495" lon="1.96577">
        <ele>134.72</ele>
        <time>2016-02-02T10:33:28Z</time>
      </trkpt>
      <trkpt lat="48.60502" lon="1.96559">
        <ele>134.24</ele>
        <time>2016-02-02T10:33:37Z</time>
      </trkpt>
      <trkpt lat="48.60513" lon="1.96532">
        <ele>133.28</ele>
        <time>2016-02-02T10:33:48Z</time>
      </trkpt>
      <trkpt lat="48.60519" lon="1.96525">
        <ele>132.8</ele>
        <time>2016-02-02T10:33:54Z</time>
      </trkpt>
      <trkpt lat="48.60525" lon="1.9651">
        <ele>132.8</ele>
        <time>2016-02-02T10:34:03Z</time>
      </trkpt>
      <trkpt lat="48.60531" lon="1.96493">
        <ele>133.28</ele>
        <time>2016-02-02T10:34:11Z</time>
      </trkpt>
      <trkpt lat="48.60533" lon="1.96489">
        <ele>133.76</ele>
        <time>2016-02-02T10:34:14Z</time>
      </trkpt>
      <trkpt lat="48.60537" lon="1.96478">
        <ele>133.28</ele>
        <time>2016-02-02T10:34:19Z</time>
      </trkpt>
      <trkpt lat="48.60547" lon="1.96463">
        <ele>133.76</ele>
        <time>2016-02-02T10:34:29Z</time>
      </trkpt>
      <trkpt lat="48.60552" lon="1.96453">
        <ele>132.8</ele>
        <time>2016-02-02T10:34:36Z</time>
      </trkpt>
      <trkpt lat="48.60555" lon="1.96442">
        <ele>131.36</ele>
        <time>2016-02-02T10:34:43Z</time>
      </trkpt>
      <trkpt lat="48.60558" lon="1.96434">
        <ele>130.88</ele>
        <time>2016-02-02T10:34:50Z</time>
      </trkpt>
      <trkpt lat="48.60562" lon="1.9642">
        <ele>129.92</ele>
        <time>2016-02-02T10:34:59Z</time>
      </trkpt>
      <trkpt lat="48.60571" lon="1.96405">
        <ele>127.51</ele>
        <time>2016-02-02T10:35:10Z</time>
      </trkpt>
      <trkpt lat="48.60576" lon="1.96394">
        <ele>125.59</ele>
        <time>2016-02-02T10:35:20Z</time>
      </trkpt>
      <trkpt lat="48.60582" lon="1.96383">
        <ele>124.15</ele>
        <time>2016-02-02T10:35:28Z</time>
      </trkpt>
      <trkpt lat="48.60586" lon="1.96371">
        <ele>123.19</ele>
        <time>2016-02-02T10:35:34Z</time>
      </trkpt>
      <trkpt lat="48.60592" lon="1.96356">
        <ele>123.19</ele>
        <time>2016-02-02T10:35:42Z</time>
      </trkpt>
      <trkpt lat="48.60599" lon="1.96344">
        <ele>122.71</ele>
        <time>2016-02-02T10:35:51Z</time>
      </trkpt>
      <trkpt lat="48.60606" lon="1.96329">
        <ele>122.71</ele>
        <time>2016-02-02T10:36:00Z</time>
      </trkpt>
      <trkpt lat="48.60608" lon="1.96322">
        <ele>122.71</ele>
        <time>2016-02-02T10:36:03Z</time>
      </trkpt>
      <trkpt lat="48.6061" lon="1.96314">
        <ele>122.22</ele>
        <time>2016-02-02T10:36:11Z</time>
      </trkpt>
      <trkpt lat="48.60611" lon="1.96306">
        <ele>122.22</ele>
        <time>2016-02-02T10:36:16Z</time>
      </trkpt>
      <trkpt lat="48.60625" lon="1.96286">
        <ele>121.26</ele>
        <time>2016-02-02T10:36:26Z</time>
      </trkpt>
      <trkpt lat="48.60633" lon="1.96271">
        <ele>120.78</ele>
        <time>2016-02-02T10:36:34Z</time>
      </trkpt>
      <trkpt lat="48.60636" lon="1.96261">
        <ele>121.26</ele>
        <time>2016-02-02T10:36:40Z</time>
      </trkpt>
      <trkpt lat="48.60645" lon="1.96244">
        <ele>120.3</ele>
        <time>2016-02-02T10:36:51Z</time>
      </trkpt>
      <trkpt lat="48.60651" lon="1.9623">
        <ele>120.3</ele>
        <time>2016-02-02T10:36:59Z</time>
      </trkpt>
      <trkpt lat="48.60651" lon="1.96229">
        <ele>120.78</ele>
        <time>2016-02-02T10:37:00Z</time>
      </trkpt>
      <trkpt lat="48.60653" lon="1.96221">
        <ele>120.3</ele>
        <time>2016-02-02T10:37:04Z</time>
      </trkpt>
      <trkpt lat="48.60659" lon="1.96212">
        <ele>119.34</ele>
        <time>2016-02-02T10:37:12Z</time>
      </trkpt>
      <trkpt lat="48.60665" lon="1.96205">
        <ele>118.86</ele>
        <time>2016-02-02T10:37:19Z</time>
      </trkpt>
      <trkpt lat="48.60668" lon="1.96201">
        <ele>118.86</ele>
        <time>2016-02-02T10:37:23Z</time>
      </trkpt>
      <trkpt lat="48.60674" lon="1.96187">
        <ele>116.46</ele>
        <time>2016-02-02T10:37:33Z</time>
      </trkpt>
      <trkpt lat="48.60679" lon="1.96183">
        <ele>116.46</ele>
        <time>2016-02-02T10:37:38Z</time>
      </trkpt>
      <trkpt lat="48.60682" lon="1.96174">
        <ele>115.98</ele>
        <time>2016-02-02T10:37:45Z</time>
      </trkpt>
      <trkpt lat="48.60683" lon="1.96172">
        <ele>115.01</ele>
        <time>2016-02-02T10:37:47Z</time>
      </trkpt>
      <trkpt lat="48.60685" lon="1.96168">
        <ele>115.01</ele>
        <time>2016-02-02T10:37:50Z</time>
      </trkpt>
      <trkpt lat="48.6069" lon="1.96161">
        <ele>114.05</ele>
        <time>2016-02-02T10:37:56Z</time>
      </trkpt>
      <trkpt lat="48.60691" lon="1.9616">
        <ele>113.57</ele>
        <time>2016-02-02T10:37:57Z</time>
      </trkpt>
      <trkpt lat="48.60693" lon="1.96153">
        <ele>113.09</ele>
        <time>2016-02-02T10:38:00Z</time>
      </trkpt>
      <trkpt lat="48.60698" lon="1.96137">
        <ele>111.65</ele>
        <time>2016-02-02T10:38:08Z</time>
      </trkpt>
      <trkpt lat="48.60704" lon="1.96125">
        <ele>111.65</ele>
        <time>2016-02-02T10:38:16Z</time>
      </trkpt>
      <trkpt lat="48.60705" lon="1.96123">
        <ele>111.65</ele>
        <time>2016-02-02T10:38:17Z</time>
      </trkpt>
      <trkpt lat="48.60709" lon="1.96107">
        <ele>110.69</ele>
        <time>2016-02-02T10:38:24Z</time>
      </trkpt>
      <trkpt lat="48.60711" lon="1.96103">
        <ele>110.69</ele>
        <time>2016-02-02T10:38:27Z</time>
      </trkpt>
      <trkpt lat="48.60715" lon="1.96095">
        <ele>110.69</ele>
        <time>2016-02-02T10:38:33Z</time>
      </trkpt>
      <trkpt lat="48.60715" lon="1.96079">
        <ele>109.73</ele>
        <time>2016-02-02T10:38:42Z</time>
      </trkpt>
      <trkpt lat="48.60714" lon="1.96072">
        <ele>109.25</ele>
        <time>2016-02-02T10:38:45Z</time>
      </trkpt>
      <trkpt lat="48.60715" lon="1.9606">
        <ele>108.77</ele>
        <time>2016-02-02T10:38:52Z</time>
      </trkpt>
      <trkpt lat="48.60715" lon="1.96048">
        <ele>108.29</ele>
        <time>2016-02-02T10:38:59Z</time>
      </trkpt>
      <trkpt lat="48.60715" lon="1.96046">
        <ele>108.29</ele>
        <time>2016-02-02T10:39:00Z</time>
      </trkpt>
      <trkpt lat="48.60714" lon="1.9603">
        <ele>106.84</ele>
        <time>2016-02-02T10:39:09Z</time>
      </trkpt>
      <trkpt lat="48.60715" lon="1.96022">
        <ele>106.36</ele>
        <time>2016-02-02T10:39:14Z</time>
      </trkpt>
      <trkpt lat="48.60713" lon="1.96008">
        <ele>105.4</ele>
        <time>2016-02-02T10:39:21Z</time>
      </trkpt>
      <trkpt lat="48.60713" lon="1.96005">
        <ele>105.4</ele>
        <time>2016-02-02T10:39:25Z</time>
      </trkpt>
      <trkpt lat="48.60708" lon="1.95987">
        <ele>104.92</ele>
        <time>2016-02-02T10:39:32Z</time>
      </trkpt>
      <trkpt lat="48.60702" lon="1.95976">
        <ele>104.44</ele>
        <time>2016-02-02T10:39:42Z</time>
      </trkpt>
      <trkpt lat="48.60696" lon="1.95968">
        <ele>103.48</ele>
        <time>2016-02-02T10:39:49Z</time>
      </trkpt>
      <trkpt lat="48.60693" lon="1.95966">
        <ele>103.48</ele>
        <time>2016-02-02T10:39:51Z</time>
      </trkpt>
      <trkpt lat="48.60686" lon="1.9596">
        <ele>103.96</ele>
        <time>2016-02-02T10:39:57Z</time>
      </trkpt>
      <trkpt lat="48.60676" lon="1.95948">
        <ele>103.48</ele>
        <time>2016-02-02T10:40:07Z</time>
      </trkpt>
      <trkpt lat="48.60665" lon="1.95938">
        <ele>103.48</ele>
        <time>2016-02-02T10:40:16Z</time>
      </trkpt>
      <trkpt lat="48.60659" lon="1.95929">
        <ele>103.48</ele>
        <time>2016-02-02T10:40:23Z</time>
      </trkpt>
      <trkpt lat="48.60665" lon="1.95909">
        <ele>103.48</ele>
        <time>2016-02-02T10:40:34Z</time>
      </trkpt>
      <trkpt lat="48.60671" lon="1.959">
        <ele>103.48</ele>
        <time>2016-02-02T10:40:40Z</time>
      </trkpt>
      <trkpt lat="48.60679" lon="1.95883">
        <ele>103.96</ele>
        <time>2016-02-02T10:40:50Z</time>
      </trkpt>
      <trkpt lat="48.60681" lon="1.95878">
        <ele>103.96</ele>
        <time>2016-02-02T10:40:52Z</time>
      </trkpt>
      <trkpt lat="48.60691" lon="1.95861">
        <ele>103.48</ele>
        <time>2016-02-02T10:41:02Z</time>
      </trkpt>
      <trkpt lat="48.60692" lon="1.95858">
        <ele>103.96</ele>
        <time>2016-02-02T10:41:04Z</time>
      </trkpt>
      <trkpt lat="48.60694" lon="1.95843">
        <ele>103.96</ele>
        <time>2016-02-02T10:41:13Z</time>
      </trkpt>
      <trkpt lat="48.60694" lon="1.95828">
        <ele>103.48</ele>
        <time>2016-02-02T10:41:21Z</time>
      </trkpt>
      <trkpt lat="48.60694" lon="1.95813">
        <ele>104.44</ele>
        <time>2016-02-02T10:41:29Z</time>
      </trkpt>
      <trkpt lat="48.60695" lon="1.95795">
        <ele>104.44</ele>
        <time>2016-02-02T10:41:38Z</time>
      </trkpt>
      <trkpt lat="48.60701" lon="1.95779">
        <ele>103.96</ele>
        <time>2016-02-02T10:41:46Z</time>
      </trkpt>
      <trkpt lat="48.60704" lon="1.95763">
        <ele>103.48</ele>
        <time>2016-02-02T10:41:54Z</time>
      </trkpt>
      <trkpt lat="48.60698" lon="1.9575">
        <ele>103.96</ele>
        <time>2016-02-02T10:42:01Z</time>
      </trkpt>
      <trkpt lat="48.6069" lon="1.95736">
        <ele>104.44</ele>
        <time>2016-02-02T10:42:09Z</time>
      </trkpt>
      <trkpt lat="48.60688" lon="1.9572">
        <ele>104.92</ele>
        <time>2016-02-02T10:42:18Z</time>
      </trkpt>
      <trkpt lat="48.60687" lon="1.95713">
        <ele>104.92</ele>
        <time>2016-02-02T10:42:21Z</time>
      </trkpt>
      <trkpt lat="48.60686" lon="1.95707">
        <ele>104.44</ele>
        <time>2016-02-02T10:42:24Z</time>
      </trkpt>
      <trkpt lat="48.60686" lon="1.95691">
        <ele>104.44</ele>
        <time>2016-02-02T10:42:33Z</time>
      </trkpt>
      <trkpt lat="48.60687" lon="1.95672">
        <ele>103.96</ele>
        <time>2016-02-02T10:42:43Z</time>
      </trkpt>
      <trkpt lat="48.60683" lon="1.9566">
        <ele>103.96</ele>
        <time>2016-02-02T10:42:50Z</time>
      </trkpt>
      <trkpt lat="48.60676" lon="1.95654">
        <ele>104.44</ele>
        <time>2016-02-02T10:42:55Z</time>
      </trkpt>
      <trkpt lat="48.60664" lon="1.95652">
        <ele>104.92</ele>
        <time>2016-02-02T10:43:02Z</time>
      </trkpt>
      <trkpt lat="48.6066" lon="1.95651">
        <ele>104.44</ele>
        <time>2016-02-02T10:43:05Z</time>
      </trkpt>
      <trkpt lat="48.60658" lon="1.95652">
        <ele>103.96</ele>
        <time>2016-02-02T10:43:07Z</time>
      </trkpt>
      <trkpt lat="48.60648" lon="1.95646">
        <ele>105.4</ele>
        <time>2016-02-02T10:43:16Z</time>
      </trkpt>
      <trkpt lat="48.60636" lon="1.95638">
        <ele>105.4</ele>
        <time>2016-02-02T10:43:26Z</time>
      </trkpt>
      <trkpt lat="48.60632" lon="1.95628">
        <ele>105.88</ele>
        <time>2016-02-02T10:43:34Z</time>
      </trkpt>
      <trkpt lat="48.60618" lon="1.95612">
        <ele>105.88</ele>
        <time>2016-02-02T10:43:43Z</time>
      </trkpt>
      <trkpt lat="48.60614" lon="1.95599">
        <ele>106.36</ele>
        <time>2016-02-02T10:43:50Z</time>
      </trkpt>
      <trkpt lat="48.60608" lon="1.95589">
        <ele>105.88</ele>
        <time>2016-02-02T10:43:56Z</time>
      </trkpt>
      <trkpt lat="48.60603" lon="1.95572">
        <ele>105.88</ele>
        <time>2016-02-02T10:44:05Z</time>
      </trkpt>
      <trkpt lat="48.60603" lon="1.95557">
        <ele>105.88</ele>
        <time>2016-02-02T10:44:12Z</time>
      </trkpt>
      <trkpt lat="48.60602" lon="1.95538">
        <ele>105.88</ele>
        <time>2016-02-02T10:44:20Z</time>
      </trkpt>
      <trkpt lat="48.60602" lon="1.95521">
        <ele>105.88</ele>
        <time>2016-02-02T10:44:28Z</time>
      </trkpt>
      <trkpt lat="48.60601" lon="1.95509">
        <ele>106.36</ele>
        <time>2016-02-02T10:44:35Z</time>
      </trkpt>
      <trkpt lat="48.60602" lon="1.95493">
        <ele>106.36</ele>
        <time>2016-02-02T10:44:44Z</time>
      </trkpt>
      <trkpt lat="48.606" lon="1.95476">
        <ele>106.36</ele>
        <time>2016-02-02T10:44:51Z</time>
      </trkpt>
      <trkpt lat="48.60596" lon="1.95454">
        <ele>106.84</ele>
        <time>2016-02-02T10:45:02Z</time>
      </trkpt>
      <trkpt lat="48.60592" lon="1.95435">
        <ele>106.84</ele>
        <time>2016-02-02T10:45:12Z</time>
      </trkpt>
      <trkpt lat="48.60587" lon="1.95416">
        <ele>107.32</ele>
        <time>2016-02-02T10:45:20Z</time>
      </trkpt>
      <trkpt lat="48.60586" lon="1.95398">
        <ele>108.29</ele>
        <time>2016-02-02T10:45:29Z</time>
      </trkpt>
      <trkpt lat="48.60583" lon="1.95377">
        <ele>108.29</ele>
        <time>2016-02-02T10:45:39Z</time>
      </trkpt>
      <trkpt lat="48.6058" lon="1.95361">
        <ele>108.29</ele>
        <time>2016-02-02T10:45:46Z</time>
      </trkpt>
      <trkpt lat="48.60578" lon="1.95354">
        <ele>107.81</ele>
        <time>2016-02-02T10:45:50Z</time>
      </trkpt>
      <trkpt lat="48.60574" lon="1.95339">
        <ele>108.29</ele>
        <time>2016-02-02T10:45:59Z</time>
      </trkpt>
      <trkpt lat="48.60572" lon="1.9533">
        <ele>108.29</ele>
        <time>2016-02-02T10:46:03Z</time>
      </trkpt>
      <trkpt lat="48.6057" lon="1.9531">
        <ele>108.77</ele>
        <time>2016-02-02T10:46:13Z</time>
      </trkpt>
      <trkpt lat="48.6057" lon="1.95288">
        <ele>107.81</ele>
        <time>2016-02-02T10:46:23Z</time>
      </trkpt>
      <trkpt lat="48.60569" lon="1.95278">
        <ele>107.81</ele>
        <time>2016-02-02T10:46:28Z</time>
      </trkpt>
      <trkpt lat="48.6057" lon="1.95261">
        <ele>108.77</ele>
        <time>2016-02-02T10:46:36Z</time>
      </trkpt>
      <trkpt lat="48.60573" lon="1.95244">
        <ele>109.25</ele>
        <time>2016-02-02T10:46:44Z</time>
      </trkpt>
      <trkpt lat="48.60573" lon="1.95223">
        <ele>109.25</ele>
        <time>2016-02-02T10:46:53Z</time>
      </trkpt>
      <trkpt lat="48.60572" lon="1.9521">
        <ele>109.73</ele>
        <time>2016-02-02T10:46:59Z</time>
      </trkpt>
      <trkpt lat="48.60571" lon="1.95198">
        <ele>109.73</ele>
        <time>2016-02-02T10:47:06Z</time>
      </trkpt>
      <trkpt lat="48.60571" lon="1.95179">
        <ele>109.73</ele>
        <time>2016-02-02T10:47:14Z</time>
      </trkpt>
      <trkpt lat="48.60572" lon="1.95172">
        <ele>109.25</ele>
        <time>2016-02-02T10:47:17Z</time>
      </trkpt>
      <trkpt lat="48.60575" lon="1.95163">
        <ele>109.73</ele>
        <time>2016-02-02T10:47:21Z</time>
      </trkpt>
      <trkpt lat="48.60583" lon="1.95149">
        <ele>110.21</ele>
        <time>2016-02-02T10:47:30Z</time>
      </trkpt>
      <trkpt lat="48.6059" lon="1.95138">
        <ele>110.69</ele>
        <time>2016-02-02T10:47:38Z</time>
      </trkpt>
      <trkpt lat="48.60599" lon="1.95122">
        <ele>110.69</ele>
        <time>2016-02-02T10:47:48Z</time>
      </trkpt>
      <trkpt lat="48.60606" lon="1.95111">
        <ele>110.21</ele>
        <time>2016-02-02T10:47:56Z</time>
      </trkpt>
      <trkpt lat="48.6061" lon="1.95104">
        <ele>110.21</ele>
        <time>2016-02-02T10:48:01Z</time>
      </trkpt>
      <trkpt lat="48.60619" lon="1.95082">
        <ele>109.73</ele>
        <time>2016-02-02T10:48:11Z</time>
      </trkpt>
      <trkpt lat="48.60624" lon="1.95067">
        <ele>109.73</ele>
        <time>2016-02-02T10:48:21Z</time>
      </trkpt>
      <trkpt lat="48.6063" lon="1.95053">
        <ele>109.73</ele>
        <time>2016-02-02T10:48:29Z</time>
      </trkpt>
      <trkpt lat="48.60637" lon="1.95042">
        <ele>109.73</ele>
        <time>2016-02-02T10:48:37Z</time>
      </trkpt>
      <trkpt lat="48.60641" lon="1.95035">
        <ele>109.25</ele>
        <time>2016-02-02T10:48:41Z</time>
      </trkpt>
      <trkpt lat="48.60648" lon="1.95019">
        <ele>109.73</ele>
        <time>2016-02-02T10:48:50Z</time>
      </trkpt>
      <trkpt lat="48.6065" lon="1.9501">
        <ele>109.25</ele>
        <time>2016-02-02T10:49:00Z</time>
      </trkpt>
      <trkpt lat="48.60658" lon="1.94991">
        <ele>109.73</ele>
        <time>2016-02-02T10:49:09Z</time>
      </trkpt>
      <trkpt lat="48.60665" lon="1.94988">
        <ele>109.25</ele>
        <time>2016-02-02T10:49:16Z</time>
      </trkpt>
      <trkpt lat="48.6067" lon="1.94977">
        <ele>109.73</ele>
        <time>2016-02-02T10:49:24Z</time>
      </trkpt>
      <trkpt lat="48.60671" lon="1.94977">
        <ele>109.25</ele>
        <time>2016-02-02T10:49:32Z</time>
      </trkpt>
      <trkpt lat="48.60672" lon="1.94977">
        <ele>109.73</ele>
        <time>2016-02-02T10:49:45Z</time>
      </trkpt>
      <trkpt lat="48.60671" lon="1.94976">
        <ele>109.25</ele>
        <time>2016-02-02T10:49:57Z</time>
      </trkpt>
      <trkpt lat="48.60673" lon="1.94976">
        <ele>109.25</ele>
        <time>2016-02-02T10:50:05Z</time>
      </trkpt>
      <trkpt lat="48.60672" lon="1.94979">
        <ele>109.73</ele>
        <time>2016-02-02T10:50:14Z</time>
      </trkpt>
      <trkpt lat="48.60674" lon="1.94981">
        <ele>109.73</ele>
        <time>2016-02-02T10:50:26Z</time>
      </trkpt>
      <trkpt lat="48.60675" lon="1.9498">
        <ele>109.73</ele>
        <time>2016-02-02T10:50:33Z</time>
      </trkpt>
      <trkpt lat="48.60674" lon="1.9498">
        <ele>109.25</ele>
        <time>2016-02-02T10:50:43Z</time>
      </trkpt>
      <trkpt lat="48.60674" lon="1.9498">
        <ele>109.25</ele>
        <time>2016-02-02T10:50:59Z</time>
      </trkpt>
      <trkpt lat="48.60674" lon="1.9498">
        <ele>109.25</ele>
        <time>2016-02-02T10:51:14Z</time>
      </trkpt>
      <trkpt lat="48.60674" lon="1.9498">
        <ele>109.25</ele>
        <time>2016-02-02T10:51:28Z</time>
      </trkpt>
      <trkpt lat="48.60674" lon="1.94981">
        <ele>109.73</ele>
        <time>2016-02-02T10:51:42Z</time>
      </trkpt>
      <trkpt lat="48.60675" lon="1.94979">
        <ele>109.25</ele>
        <time>2016-02-02T10:51:56Z</time>
      </trkpt>
      <trkpt lat="48.60675" lon="1.9498">
        <ele>109.73</ele>
        <time>2016-02-02T10:52:08Z</time>
      </trkpt>
      <trkpt lat="48.60674" lon="1.9498">
        <ele>109.25</ele>
        <time>2016-02-02T10:52:22Z</time>
      </trkpt>
      <trkpt lat="48.60673" lon="1.9498">
        <ele>109.73</ele>
        <time>2016-02-02T10:52:36Z</time>
      </trkpt>
      <trkpt lat="48.60673" lon="1.94984">
        <ele>110.21</ele>
        <time>2016-02-02T10:52:53Z</time>
      </trkpt>
      <trkpt lat="48.60673" lon="1.94983">
        <ele>109.73</ele>
        <time>2016-02-02T10:53:09Z</time>
      </trkpt>
      <trkpt lat="48.60673" lon="1.94984">
        <ele>109.73</ele>
        <time>2016-02-02T10:53:25Z</time>
      </trkpt>
      <trkpt lat="48.60674" lon="1.94985">
        <ele>111.65</ele>
        <time>2016-02-02T10:53:38Z</time>
      </trkpt>
      <trkpt lat="48.60674" lon="1.94986">
        <ele>109.73</ele>
        <time>2016-02-02T10:53:51Z</time>
      </trkpt>
      <trkpt lat="48.60674" lon="1.94986">
        <ele>109.73</ele>
        <time>2016-02-02T10:54:03Z</time>
      </trkpt>
      <trkpt lat="48.60675" lon="1.94987">
        <ele>109.25</ele>
        <time>2016-02-02T10:54:18Z</time>
      </trkpt>
      <trkpt lat="48.60675" lon="1.94986">
        <ele>109.73</ele>
        <time>2016-02-02T10:54:30Z</time>
      </trkpt>
      <trkpt lat="48.60675" lon="1.94985">
        <ele>109.73</ele>
        <time>2016-02-02T10:54:46Z</time>
      </trkpt>
      <trkpt lat="48.60675" lon="1.94985">
        <ele>109.73</ele>
        <time>2016-02-02T10:54:53Z</time>
      </trkpt>
      <trkpt lat="48.60675" lon="1.94987">
        <ele>109.73</ele>
        <time>2016-02-02T10:55:07Z</time>
      </trkpt>
      <trkpt lat="48.60676" lon="1.94987">
        <ele>109.25</ele>
        <time>2016-02-02T10:55:24Z</time>
      </trkpt>
      <trkpt lat="48.60676" lon="1.94988">
        <ele>108.77</ele>
        <time>2016-02-02T10:55:39Z</time>
      </trkpt>
      <trkpt lat="48.60675" lon="1.94988">
        <ele>110.21</ele>
        <time>2016-02-02T10:55:53Z</time>
      </trkpt>
      <trkpt lat="48.60675" lon="1.94988">
        <ele>109.73</ele>
        <time>2016-02-02T10:56:02Z</time>
      </trkpt>
      <trkpt lat="48.60674" lon="1.94988">
        <ele>109.73</ele>
        <time>2016-02-02T10:56:16Z</time>
      </trkpt>
      <trkpt lat="48.60674" lon="1.94988">
        <ele>109.25</ele>
        <time>2016-02-02T10:56:35Z</time>
      </trkpt>
      <trkpt lat="48.60674" lon="1.94989">
        <ele>109.25</ele>
        <time>2016-02-02T10:56:49Z</time>
      </trkpt>
      <trkpt lat="48.60674" lon="1.94988">
        <ele>109.25</ele>
        <time>2016-02-02T10:57:04Z</time>
      </trkpt>
      <trkpt lat="48.60673" lon="1.94988">
        <ele>109.25</ele>
        <time>2016-02-02T10:57:19Z</time>
      </trkpt>
      <trkpt lat="48.60674" lon="1.94987">
        <ele>109.73</ele>
        <time>2016-02-02T10:57:38Z</time>
      </trkpt>
      <trkpt lat="48.60673" lon="1.94988">
        <ele>109.25</ele>
        <time>2016-02-02T10:57:57Z</time>
      </trkpt>
      <trkpt lat="48.60673" lon="1.94988">
        <ele>109.25</ele>
        <time>2016-02-02T10:58:12Z</time>
      </trkpt>
      <trkpt lat="48.60673" lon="1.94987">
        <ele>108.77</ele>
        <time>2016-02-02T10:58:29Z</time>
      </trkpt>
      <trkpt lat="48.60673" lon="1.94987">
        <ele>109.25</ele>
        <time>2016-02-02T10:58:46Z</time>
      </trkpt>
      <trkpt lat="48.60673" lon="1.94986">
        <ele>108.77</ele>
        <time>2016-02-02T10:59:04Z</time>
      </trkpt>
      <trkpt lat="48.60673" lon="1.94987">
        <ele>109.25</ele>
        <time>2016-02-02T10:59:17Z</time>
      </trkpt>
      <trkpt lat="48.60673" lon="1.94987">
        <ele>105.88</ele>
        <time>2016-02-02T10:59:23Z</time>
      </trkpt>
      <trkpt lat="48.60673" lon="1.94987">
        <ele>109.25</ele>
        <time>2016-02-02T10:59:24Z</time>
      </trkpt>
      <trkpt lat="48.60673" lon="1.94987">
        <ele>108.29</ele>
        <time>2016-02-02T10:59:37Z</time>
      </trkpt>
      <trkpt lat="48.60673" lon="1.94987">
        <ele>108.29</ele>
        <time>2016-02-02T10:59:44Z</time>
      </trkpt>
      <trkpt lat="48.60673" lon="1.94985">
        <ele>108.29</ele>
        <time>2016-02-02T10:59:52Z</time>
      </trkpt>
      <trkpt lat="48.60672" lon="1.94985">
        <ele>108.77</ele>
        <time>2016-02-02T11:00:03Z</time>
      </trkpt>
      <trkpt lat="48.60671" lon="1.94985">
        <ele>109.25</ele>
        <time>2016-02-02T11:00:11Z</time>
      </trkpt>
      <trkpt lat="48.60672" lon="1.94984">
        <ele>109.73</ele>
        <time>2016-02-02T11:00:18Z</time>
      </trkpt>
      <trkpt lat="48.60673" lon="1.94984">
        <ele>109.25</ele>
        <time>2016-02-02T11:00:28Z</time>
      </trkpt>
      <trkpt lat="48.60673" lon="1.94984">
        <ele>109.25</ele>
        <time>2016-02-02T11:00:39Z</time>
      </trkpt>
    </trkseg>
  </trk>
</gpx>